Provisional Data: Bowman Creek near Noxen, PA


Please select a monitoring station.
Please select start date.
Please select start date.

Toggle Unit: C/F Toggle Unit: C/F
Sample Time Temperature (C) Temperature (F) Specific Conductivity (mS/cm) pH   Turbidity (NTU+) DO (mg/L)
12/11/2021 12:00:00 AM 3.93 39.074 0.046 6.77 1.65 12.52
12/11/2021 12:15:00 AM 3.94 39.092 0.046 6.75 1.63 12.52
12/11/2021 12:30:00 AM 3.95 39.11 0.046 6.77 1.62 12.52
12/11/2021 12:45:00 AM 3.96 39.128 0.046 6.75 1.61 12.51
12/11/2021 1:00:00 AM 3.97 39.146 0.046 6.76 1.63 12.5
12/11/2021 1:15:00 AM 3.98 39.164 0.046 6.75 1.62 12.5
12/11/2021 1:30:00 AM 3.99 39.182 0.045 6.75 1.6 12.49
12/11/2021 1:45:00 AM 4 39.2 0.045 6.76 1.59 12.49
12/11/2021 2:00:00 AM 4.02 39.236 0.046 6.75 1.64 12.47
12/11/2021 2:15:00 AM 4.03 39.254 0.046 6.75 1.6 12.46
12/11/2021 2:30:00 AM 4.04 39.272 0.045 6.75 1.61 12.46
12/11/2021 2:45:00 AM 4.05 39.29 0.045 6.77 1.67 12.46
12/11/2021 3:00:00 AM 4.07 39.326 0.045 6.75 1.62 12.44
12/11/2021 3:15:00 AM 4.08 39.344 0.045 6.74 1.59 12.43
12/11/2021 3:30:00 AM 4.09 39.362 0.045 6.75 1.62 12.43
12/11/2021 3:45:00 AM 4.11 39.398 0.045 6.75 1.57 12.41
12/11/2021 4:00:00 AM 4.12 39.416 0.045 6.75 1.62 12.41
12/11/2021 4:15:00 AM 4.13 39.434 0.045 6.76 1.61 12.4
12/11/2021 4:30:00 AM 4.14 39.452 0.045 6.76 1.58 12.39
12/11/2021 4:45:00 AM 4.16 39.488 0.045 6.75 1.68 12.38
12/11/2021 5:00:00 AM 4.18 39.524 0.045 6.76 1.58 12.37
12/11/2021 5:15:00 AM 4.19 39.542 0.045 6.76 1.62 12.37
12/11/2021 5:30:00 AM 4.2 39.56 0.045 6.75 1.65 12.36
12/11/2021 5:45:00 AM 4.22 39.596 0.046 6.75 1.67 12.36
12/11/2021 6:00:00 AM 4.23 39.614 0.046 6.76 1.74 12.35
12/11/2021 6:15:00 AM 4.25 39.65 0.045 6.75 1.65 12.33
12/11/2021 6:30:00 AM 4.26 39.668 0.045 6.75 1.7 12.32
12/11/2021 6:45:00 AM 4.28 39.704 0.045 6.76 1.67 12.31
12/11/2021 7:00:00 AM 4.3 39.74 0.045 6.75 1.7 12.31
12/11/2021 7:15:00 AM 4.32 39.776 0.045 6.75 1.75 12.31
12/11/2021 7:30:00 AM 4.34 39.812 0.045 6.75 1.85 12.29
12/11/2021 7:45:00 AM 4.35 39.83 0.045 6.77 1.81 12.3
12/11/2021 8:00:00 AM 4.37 39.866 0.046 6.76 1.8 12.31
12/11/2021 8:15:00 AM 4.39 39.902 0.047 6.77 1.85 12.31
12/11/2021 8:30:00 AM 4.4 39.92 0.047 6.78 1.95 12.33
12/11/2021 8:45:00 AM 4.43 39.974 0.048 6.79 2.18 12.36
12/11/2021 9:00:00 AM 4.45 40.01 0.048 6.81 2.5 12.41
12/11/2021 9:15:00 AM 4.48 40.064 0.05 6.84 3.17 12.43
12/11/2021 9:30:00 AM 4.5 40.1 0.052 6.84 3.72 12.42
12/11/2021 9:45:00 AM 4.53 40.154 0.056 6.87 4.45 12.44
12/11/2021 10:00:00 AM 4.57 40.226 0.059 6.92 4.8 12.45
12/11/2021 10:15:00 AM 4.61 40.298 0.06 6.93 5.4 12.44
12/11/2021 10:30:00 AM 4.64 40.352 0.059 6.94 6.57 12.44
12/11/2021 10:45:00 AM 4.68 40.424 0.059 6.95 7.5 12.43
12/11/2021 11:00:00 AM 4.71 40.478 0.058 6.94 8.14 12.43
12/11/2021 11:15:00 AM 4.74 40.532 0.057 6.95 8.97 12.42
12/11/2021 11:30:00 AM 4.77 40.586 0.056 6.94 8.99 12.4
12/11/2021 11:45:00 AM 4.8 40.64 0.056 6.93 8.97 12.4
12/11/2021 12:00:00 PM 4.83 40.694 0.055 6.93 8.55 12.39
12/11/2021 12:15:00 PM 4.86 40.748 0.054 6.92 7.11 12.38
12/11/2021 12:30:00 PM 4.89 40.802 0.053 6.94 7.22 12.38
12/11/2021 12:45:00 PM 4.92 40.856 0.052 6.9 6.25 12.36
12/11/2021 1:00:00 PM 4.95 40.91 0.051 6.91 6.29 12.35
12/11/2021 1:15:00 PM 4.98 40.964 0.051 6.91 5.9 12.33
12/11/2021 1:30:00 PM 5.01 41.018 0.05 6.91 5.19 12.31
12/11/2021 1:45:00 PM 5.05 41.09 0.05 6.91 4.92 12.3
12/11/2021 2:00:00 PM 5.08 41.144 0.049 6.93 4.81 12.32
12/11/2021 2:15:00 PM 5.12 41.216 0.049 6.91 4.42 12.27
12/11/2021 2:30:00 PM 5.16 41.288 0.048 6.9 4.43 12.22
12/11/2021 2:45:00 PM 5.23 41.414 0.048 6.89 4.52 12.2
12/11/2021 3:00:00 PM 5.28 41.504 0.047 6.89 4.19 12.19
12/11/2021 3:15:00 PM 5.31 41.558 0.047 6.88 3.68 12.17
12/11/2021 3:30:00 PM 5.35 41.63 0.046 6.88 3.73 12.16
12/11/2021 3:45:00 PM 5.38 41.684 0.046 6.88 3.56 12.13
12/11/2021 4:00:00 PM 5.41 41.738 0.046 6.86 3.11 12.07
12/11/2021 4:15:00 PM 5.44 41.792 0.046 6.85 3.17 12.04
12/11/2021 4:30:00 PM 5.47 41.846 0.045 6.85 3.04 12
12/11/2021 4:45:00 PM 5.5 41.9 0.045 6.83 2.96 11.96
12/11/2021 5:00:00 PM 5.52 41.936 0.045 6.83 2.82 11.92
12/11/2021 5:15:00 PM 5.54 41.972 0.045 6.82 2.83 11.89
12/11/2021 5:30:00 PM 5.55 41.99 0.045 6.81 2.8 11.87
12/11/2021 5:45:00 PM 5.58 42.044 0.045 6.81 2.76 11.85
12/11/2021 6:00:00 PM 5.63 42.134 0.045 6.82 2.9 11.83
12/11/2021 6:15:00 PM 5.67 42.206 0.045 6.8 2.87 11.81
12/11/2021 6:30:00 PM 5.72 42.296 0.045 6.8 2.86 11.79
12/11/2021 6:45:00 PM 5.77 42.386 0.045 6.81 2.8 11.78
12/11/2021 7:00:00 PM 5.82 42.476 0.045 6.81 2.66 11.75
12/11/2021 7:15:00 PM 5.86 42.548 0.045 6.8 2.76 11.74
12/11/2021 7:30:00 PM 5.95 42.71 0.045 6.81 2.68 11.72
12/11/2021 7:45:00 PM 6.04 42.872 0.045 6.81 2.72 11.71
12/11/2021 8:00:00 PM 6.08 42.944 0.044 6.82 2.79 11.7
12/11/2021 8:15:00 PM 6.1 42.98 0.045 6.8 2.72 11.68
12/11/2021 8:30:00 PM 6.12 43.016 0.044 6.8 2.71 11.67
12/11/2021 8:45:00 PM 6.12 43.016 0.044 6.81 2.81 11.68
12/11/2021 9:00:00 PM 6.14 43.052 0.044 6.79 2.59 11.67
12/11/2021 9:15:00 PM 6.13 43.034 0.044 6.78 2.73 11.67
12/11/2021 9:30:00 PM 6.1 42.98 0.044 6.79 2.68 11.69
12/11/2021 9:45:00 PM 6.06 42.908 0.044 6.77 2.61 11.71
12/11/2021 10:00:00 PM 6.02 42.836 0.044 6.76 2.64 11.72
12/11/2021 10:15:00 PM 5.99 42.782 0.044 6.75 2.69 11.74
12/11/2021 10:30:00 PM 5.97 42.746 0.044 6.75 2.56 11.75
12/11/2021 10:45:00 PM 5.95 42.71 0.044 6.76 2.7 11.76
12/11/2021 11:00:00 PM 5.92 42.656 0.044 6.76 2.62 11.77
12/11/2021 11:15:00 PM 5.88 42.584 0.044 6.75 2.59 11.79
12/11/2021 11:30:00 PM 5.84 42.512 0.043 6.76 2.65 11.81
12/11/2021 11:45:00 PM 5.81 42.458 0.043 6.75 2.49 11.82
12/12/2021 12:00:00 AM 5.78 42.404 0.043 6.74 2.45 11.84
12/12/2021 12:15:00 AM 5.75 42.35 0.043 6.74 2.39 11.85
12/12/2021 12:30:00 AM 5.7 42.26 0.043 6.73 2.47 11.87
12/12/2021 12:45:00 AM 5.68 42.224 0.043 6.74 2.43 11.88
12/12/2021 1:00:00 AM 5.65 42.17 0.043 6.74 2.34 11.9
12/12/2021 1:15:00 AM 5.62 42.116 0.043 6.74 2.32 11.91
12/12/2021 1:30:00 AM 5.56 42.008 0.043 6.73 2.39 11.93
12/12/2021 1:45:00 AM 5.52 41.936 0.043 6.73 2.35 11.94
12/12/2021 2:00:00 AM 5.49 41.882 0.043 6.73 2.36 11.95
12/12/2021 2:15:00 AM 5.45 41.81 0.042 6.73 2.33 11.98
12/12/2021 2:30:00 AM 5.4 41.72 0.042 6.72 2.3 12
12/12/2021 2:45:00 AM 5.36 41.648 0.042 6.75 2.26 12.01
12/12/2021 3:00:00 AM 5.32 41.576 0.042 6.72 2.33 12.03
12/12/2021 3:15:00 AM 5.27 41.486 0.042 6.72 2.22 12.06
12/12/2021 3:30:00 AM 5.24 41.432 0.042 6.72 2.28 12.07
12/12/2021 3:45:00 AM 5.2 41.36 0.042 6.71 2.14 12.09
12/12/2021 4:00:00 AM 5.15 41.27 0.042 6.72 2.23 12.11
12/12/2021 4:15:00 AM 5.1 41.18 0.042 6.73 2.19 12.13
12/12/2021 4:30:00 AM 5.05 41.09 0.042 6.71 2.25 12.15
12/12/2021 4:45:00 AM 5 41 0.042 6.7 2.31 12.16
12/12/2021 5:00:00 AM 4.96 40.928 0.042 6.71 2.29 12.18
12/12/2021 5:15:00 AM 4.92 40.856 0.042 6.71 2.2 12.2
12/12/2021 5:30:00 AM 4.87 40.766 0.042 6.7 2.22 12.21
12/12/2021 5:45:00 AM 4.81 40.658 0.042 6.7 2.13 12.23
12/12/2021 6:00:00 AM 4.77 40.586 0.042 6.71 2.17 12.26
12/12/2021 6:15:00 AM 4.71 40.478 0.041 6.7 2.18 12.28
12/12/2021 6:30:00 AM 4.66 40.388 0.042 6.7 2.19 12.29
12/12/2021 6:45:00 AM 4.61 40.298 0.041 6.69 2.16 12.31
12/12/2021 7:00:00 AM 4.56 40.208 0.041 6.7 2.21 12.33
12/12/2021 7:15:00 AM 4.52 40.136 0.041 6.7 2.1 12.35
12/12/2021 7:30:00 AM 4.47 40.046 0.041 6.73 2.15 12.39
12/12/2021 7:45:00 AM 4.42 39.956 0.041 6.7 2.1 12.43
12/12/2021 8:00:00 AM 4.38 39.884 0.041 6.71 2.13 12.49
12/12/2021 8:15:00 AM 4.35 39.83 0.041 6.74 2.02 12.54
12/12/2021 8:30:00 AM 4.32 39.776 0.041 6.74 2.12 12.6
12/12/2021 8:45:00 AM 4.3 39.74 0.041 6.76 2.08 12.66
12/12/2021 9:00:00 AM 4.28 39.704 0.041 6.76 2.11 12.69
12/12/2021 9:15:00 AM 4.27 39.686 0.041 6.77 2.06 12.74
12/12/2021 9:30:00 AM 4.25 39.65 0.041 6.81 2.07 12.78
12/12/2021 9:45:00 AM 4.24 39.632 0.041 6.79 2.08 12.82
12/12/2021 10:00:00 AM 4.24 39.632 0.041 6.81 2.05 12.86
12/12/2021 10:15:00 AM 4.28 39.704 0.041 6.83 2.04 12.89
12/12/2021 10:30:00 AM 4.33 39.794 0.041 6.86 2.07 12.91
12/12/2021 10:45:00 AM 4.39 39.902 0.041 6.86 1.95 12.93
12/12/2021 11:00:00 AM 4.46 40.028 0.04 6.87 2 12.94
12/12/2021 11:15:00 AM 4.53 40.154 0.04 6.89 2.02 12.95
12/12/2021 11:30:00 AM 4.59 40.262 0.041 6.89 2 12.94
12/12/2021 11:45:00 AM 4.64 40.352 0.04 6.89 1.97 12.93
12/12/2021 12:00:00 PM 4.7 40.46 0.04 6.9 1.97 12.91
12/12/2021 12:15:00 PM 4.76 40.568 0.04 6.9 1.95 12.91
12/12/2021 12:30:00 PM 4.8 40.64 0.041 6.9 1.99 12.89
12/12/2021 12:45:00 PM 4.83 40.694 0.04 6.9 1.94 12.89
12/12/2021 1:00:00 PM 4.86 40.748 0.04 6.9 1.91 12.88
12/12/2021 1:15:00 PM 4.87 40.766 0.04 6.91 2 12.87
12/12/2021 1:30:00 PM 4.87 40.766 0.04 6.9 1.92 12.86
12/12/2021 1:45:00 PM 4.86 40.748 0.04 6.89 1.92 12.85
12/12/2021 2:00:00 PM 4.83 40.694 0.041 6.88 1.93 12.84
12/12/2021 2:15:00 PM 4.8 40.64 0.041 6.89 1.89 12.83
12/12/2021 2:30:00 PM 4.75 40.55 0.04 6.86 1.92 12.84
12/12/2021 2:45:00 PM 4.72 40.496 0.041 6.86 1.9 12.82
12/12/2021 3:00:00 PM 4.67 40.406 0.041 6.85 1.9 12.82
12/12/2021 3:15:00 PM 4.62 40.316 0.041 6.84 1.93 12.81
12/12/2021 3:30:00 PM 4.58 40.244 0.041 6.83 1.89 12.79
12/12/2021 3:45:00 PM 4.54 40.172 0.041 6.83 1.94 12.76
12/12/2021 4:00:00 PM 4.5 40.1 0.041 6.8 1.92 12.72
12/12/2021 4:15:00 PM 4.46 40.028 0.041 6.8 1.92 12.68
12/12/2021 4:30:00 PM 4.42 39.956 0.041 6.78 1.92 12.64
12/12/2021 4:45:00 PM 4.39 39.902 0.041 6.78 1.95 12.6
12/12/2021 5:00:00 PM 4.36 39.848 0.041 6.76 1.9 12.56
12/12/2021 5:15:00 PM 4.32 39.776 0.041 6.76 1.93 12.54
12/12/2021 5:30:00 PM 4.29 39.722 0.041 6.75 1.98 12.52
12/12/2021 5:45:00 PM 4.26 39.668 0.042 6.74 1.97 12.51
12/12/2021 6:00:00 PM 4.24 39.632 0.042 6.76 1.89 12.5
12/12/2021 6:15:00 PM 4.21 39.578 0.042 6.73 1.96 12.51
12/12/2021 6:30:00 PM 4.17 39.506 0.042 6.72 1.91 12.52
12/12/2021 6:45:00 PM 4.14 39.452 0.042 6.72 1.94 12.53
12/12/2021 7:00:00 PM 4.1 39.38 0.042 6.71 1.9 12.54
12/12/2021 7:15:00 PM 4.06 39.308 0.042 6.71 1.92 12.55
12/12/2021 7:30:00 PM 4.01 39.218 0.042 6.71 1.87 12.58
12/12/2021 7:45:00 PM 3.97 39.146 0.042 6.71 1.88 12.59
12/12/2021 8:00:00 PM 3.92 39.056 0.042 6.71 1.98 12.6
12/12/2021 8:15:00 PM 3.88 38.984 0.042 6.72 1.89 12.62
12/12/2021 8:30:00 PM 3.83 38.894 0.042 6.71 1.96 12.64
12/12/2021 8:45:00 PM 3.79 38.822 0.042 6.71 1.94 12.66
12/12/2021 9:00:00 PM 3.75 38.75 0.042 6.71 1.94 12.66
12/12/2021 9:15:00 PM 3.71 38.678 0.042 6.71 1.93 12.69
12/12/2021 9:30:00 PM 3.67 38.606 0.042 6.72 1.9 12.7
12/12/2021 9:45:00 PM 3.62 38.516 0.042 6.71 1.92 12.73
12/12/2021 10:00:00 PM 3.57 38.426 0.042 6.7 1.89 12.74
12/12/2021 10:15:00 PM 3.54 38.372 0.042 6.72 1.9 12.75
12/12/2021 10:30:00 PM 3.5 38.3 0.042 6.71 1.95 12.77
12/12/2021 10:45:00 PM 3.46 38.228 0.042 6.71 1.86 12.77
12/12/2021 11:00:00 PM 3.42 38.156 0.042 6.72 1.9 12.79
12/12/2021 11:15:00 PM 3.38 38.084 0.042 6.71 1.95 12.8
12/12/2021 11:30:00 PM 3.34 38.012 0.042 6.71 1.94 12.82
12/12/2021 11:45:00 PM 3.29 37.922 0.042 6.72 1.87 12.84
12/13/2021 12:00:00 AM 3.25 37.85 0.042 6.71 1.87 12.85
12/13/2021 12:15:00 AM 3.21 37.778 0.042 6.7 1.87 12.87
12/13/2021 12:30:00 AM 3.17 37.706 0.042 6.73 1.89 12.88
12/13/2021 12:45:00 AM 3.13 37.634 0.042 6.71 1.89 12.9
12/13/2021 1:00:00 AM 3.11 37.598 0.042 6.71 1.89 12.91
12/13/2021 1:15:00 AM 3.1 37.58 0.042 6.71 1.87 12.92
12/13/2021 1:30:00 AM 3.09 37.562 0.042 6.71 1.9 12.93
12/13/2021 1:45:00 AM 3.08 37.544 0.042 6.72 1.87 12.94
12/13/2021 2:00:00 AM 3.08 37.544 0.042 6.72 1.86 12.94
12/13/2021 2:15:00 AM 3.08 37.544 0.042 6.73 1.89 12.95
12/13/2021 2:30:00 AM 3.09 37.562 0.042 6.73 1.95 12.95
12/13/2021 2:45:00 AM 3.1 37.58 0.042 6.73 1.85 12.95
12/13/2021 3:00:00 AM 3.09 37.562 0.042 6.73 1.87 12.95
12/13/2021 3:15:00 AM 3.09 37.562 0.042 6.73 1.9 12.95
12/13/2021 3:30:00 AM 3.08 37.544 0.042 6.73 1.79 12.96
12/13/2021 3:45:00 AM 3.08 37.544 0.042 6.73 1.86 12.96
12/13/2021 4:00:00 AM 3.08 37.544 0.042 6.72 1.84 12.96
12/13/2021 4:15:00 AM 3.08 37.544 0.042 6.74 1.84 12.95
12/13/2021 4:30:00 AM 3.08 37.544 0.042 6.73 1.84 12.96
12/13/2021 4:45:00 AM 3.09 37.562 0.042 6.72 1.82 12.96
12/13/2021 5:00:00 AM 3.09 37.562 0.042 6.73 1.8 12.96
12/13/2021 5:15:00 AM 3.1 37.58 0.042 6.73 1.86 12.95
12/13/2021 5:30:00 AM 3.1 37.58 0.042 6.73 1.8 12.95
12/13/2021 5:45:00 AM 3.11 37.598 0.042 6.73 1.8 12.94
12/13/2021 6:00:00 AM 3.12 37.616 0.042 6.73 1.87 12.94
12/13/2021 6:15:00 AM 3.13 37.634 0.042 6.72 1.86 12.94
12/13/2021 6:30:00 AM 3.14 37.652 0.042 6.74 1.86 12.93
12/13/2021 6:45:00 AM 3.14 37.652 0.042 6.72 1.83 12.93
12/13/2021 7:00:00 AM 3.15 37.67 0.042 6.73 1.85 12.93
12/13/2021 7:15:00 AM 3.15 37.67 0.042 6.74 1.84 12.93
12/13/2021 7:30:00 AM 3.15 37.67 0.042 6.73 1.8 12.94
12/13/2021 7:45:00 AM 3.15 37.67 0.042 6.74 1.77 12.96
12/13/2021 8:00:00 AM 3.17 37.706 0.042 6.74 1.77 13.01
12/13/2021 8:15:00 AM 3.18 37.724 0.042 6.76 1.78 13.1
12/13/2021 8:30:00 AM 3.2 37.76 0.042 6.77 1.85 13.17
12/13/2021 8:45:00 AM 3.22 37.796 0.042 6.78 1.75 13.22
12/13/2021 9:00:00 AM 3.26 37.868 0.042 6.82 1.75 13.28
12/13/2021 9:15:00 AM 3.32 37.976 0.042 6.82 1.75 13.32
12/13/2021 9:30:00 AM 3.4 38.12 0.042 6.93 1.58 13.24
12/13/2021 9:45:00 AM 3.42 38.156 0.041 6.81 1.42 13.25
12/13/2021 10:00:00 AM 3.45 38.21 0.041 6.77 1.51 13.24
12/13/2021 10:15:00 AM 3.48 38.264 0.041 6.75 1.39 13.23
12/13/2021 10:30:00 AM 3.52 38.336 0.041 6.73 1.43 13.21
12/13/2021 10:45:00 AM 3.58 38.444 0.041 6.73 1.44 13.2
12/13/2021 11:00:00 AM 3.65 38.57 0.041 6.73 1.38 13.19
12/13/2021 11:15:00 AM 3.73 38.714 0.041 6.73 1.41 13.18
12/13/2021 11:30:00 AM 3.83 38.894 0.041 6.73 1.4 13.16
12/13/2021 11:45:00 AM 3.95 39.11 0.041 6.73 1.39 13.14
12/13/2021 12:00:00 PM 4.07 39.326 0.041 6.74 1.38 13.12
12/13/2021 12:15:00 PM 4.19 39.542 0.041 6.75 1.39 13.09
12/13/2021 12:30:00 PM 4.3 39.74 0.041 6.75 1.37 13.07
12/13/2021 12:45:00 PM 4.39 39.902 0.041 6.75 1.4 13.05
12/13/2021 1:00:00 PM 4.47 40.046 0.041 6.76 1.32 13.02
12/13/2021 1:15:00 PM 4.51 40.118 0.041 6.76 1.33 13
12/13/2021 1:30:00 PM 4.54 40.172 0.041 6.77 1.4 12.98
12/13/2021 1:45:00 PM 4.55 40.19 0.041 6.76 1.36 12.95
12/13/2021 2:00:00 PM 4.55 40.19 0.041 6.76 1.38 12.94
12/13/2021 2:15:00 PM 4.54 40.172 0.041 6.77 1.37 12.93
12/13/2021 2:30:00 PM 4.52 40.136 0.041 6.76 1.38 12.91
12/13/2021 2:45:00 PM 4.5 40.1 0.041 6.76 1.35 12.89
12/13/2021 3:00:00 PM 4.47 40.046 0.041 6.75 1.4 12.87
12/13/2021 3:15:00 PM 4.44 39.992 0.041 6.75 1.38 12.85
12/13/2021 3:30:00 PM 4.42 39.956 0.041 6.74 1.39 12.83
12/13/2021 3:45:00 PM 4.38 39.884 0.041 6.73 1.39 12.79
12/13/2021 4:00:00 PM 4.35 39.83 0.042 6.72 1.36 12.75
12/13/2021 4:15:00 PM 4.32 39.776 0.042 6.7 1.34 12.7
12/13/2021 4:30:00 PM 4.29 39.722 0.042 6.69 1.38 12.66
12/13/2021 4:45:00 PM 4.26 39.668 0.042 6.69 1.34 12.61
12/13/2021 5:00:00 PM 4.23 39.614 0.042 6.67 1.4 12.57
12/13/2021 5:15:00 PM 4.2 39.56 0.042 6.65 1.4 12.54
12/13/2021 5:30:00 PM 4.18 39.524 0.042 6.65 1.41 12.51
12/13/2021 5:45:00 PM 4.15 39.47 0.042 6.64 1.44 12.51
12/13/2021 6:00:00 PM 4.13 39.434 0.042 6.63 1.42 12.5
12/13/2021 6:15:00 PM 4.11 39.398 0.042 6.63 1.41 12.49
12/13/2021 6:30:00 PM 4.09 39.362 0.042 6.63 1.42 12.49
12/13/2021 6:45:00 PM 4.06 39.308 0.042 6.63 1.4 12.49
12/13/2021 7:00:00 PM 4.03 39.254 0.042 6.63 1.43 12.5
12/13/2021 7:15:00 PM 4.01 39.218 0.043 6.63 1.37 12.5
12/13/2021 7:30:00 PM 3.98 39.164 0.043 6.63 1.42 12.51
12/13/2021 7:45:00 PM 3.94 39.092 0.043 6.62 1.39 12.53
12/13/2021 8:00:00 PM 3.91 39.038 0.043 6.63 1.43 12.54
12/13/2021 8:15:00 PM 3.86 38.948 0.043 6.62 1.43 12.56
12/13/2021 8:30:00 PM 3.83 38.894 0.043 6.62 1.4 12.57
12/13/2021 8:45:00 PM 3.79 38.822 0.043 6.62 1.44 12.58
12/13/2021 9:00:00 PM 3.75 38.75 0.043 6.61 1.46 12.6
12/13/2021 9:15:00 PM 3.7 38.66 0.043 6.62 1.43 12.61
12/13/2021 9:30:00 PM 3.67 38.606 0.043 6.62 1.45 12.63
12/13/2021 9:45:00 PM 3.63 38.534 0.043 6.61 1.44 12.64
12/13/2021 10:00:00 PM 3.59 38.462 0.043 6.62 1.41 12.66
12/13/2021 10:15:00 PM 3.56 38.408 0.043 6.62 1.44 12.67
12/13/2021 10:30:00 PM 3.52 38.336 0.043 6.62 1.41 12.69
12/13/2021 10:45:00 PM 3.48 38.264 0.043 6.62 1.4 12.7
12/13/2021 11:00:00 PM 3.45 38.21 0.043 6.61 1.45 12.72
12/13/2021 11:15:00 PM 3.42 38.156 0.043 6.61 1.43 12.73
12/13/2021 11:30:00 PM 3.38 38.084 0.043 6.62 1.48 12.74
12/13/2021 11:45:00 PM 3.35 38.03 0.043 6.61 1.42 12.75
12/14/2021 12:00:00 AM 3.31 37.958 0.043 6.62 1.44 12.78
12/14/2021 12:15:00 AM 3.28 37.904 0.043 6.62 1.44 12.79
12/14/2021 12:30:00 AM 3.25 37.85 0.043 6.62 1.42 12.79
12/14/2021 12:45:00 AM 3.21 37.778 0.043 6.61 1.41 12.81
12/14/2021 1:00:00 AM 3.18 37.724 0.043 6.61 1.5 12.82
12/14/2021 1:15:00 AM 3.17 37.706 0.043 6.62 1.47 12.84
12/14/2021 1:30:00 AM 3.15 37.67 0.043 6.61 1.43 12.85
12/14/2021 1:45:00 AM 3.13 37.634 0.043 6.62 1.41 12.86
12/14/2021 2:00:00 AM 3.12 37.616 0.043 6.62 1.43 12.86
12/14/2021 2:15:00 AM 3.11 37.598 0.043 6.63 1.44 12.88
12/14/2021 2:30:00 AM 3.1 37.58 0.043 6.62 1.48 12.88
12/14/2021 2:45:00 AM 3.09 37.562 0.043 6.62 1.44 12.89
12/14/2021 3:00:00 AM 3.08 37.544 0.043 6.61 1.42 12.89
12/14/2021 3:15:00 AM 3.07 37.526 0.043 6.63 1.41 12.9
12/14/2021 3:30:00 AM 3.07 37.526 0.043 6.63 1.43 12.9
12/14/2021 3:45:00 AM 3.07 37.526 0.043 6.62 1.49 12.9
12/14/2021 4:00:00 AM 3.05 37.49 0.043 6.62 1.5 12.91
12/14/2021 4:15:00 AM 3.04 37.472 0.043 6.63 1.48 12.92
12/14/2021 4:30:00 AM 3.03 37.454 0.043 6.62 1.43 12.93
12/14/2021 4:45:00 AM 3.03 37.454 0.043 6.63 1.39 12.93
12/14/2021 5:00:00 AM 3.01 37.418 0.043 6.63 1.45 12.94
12/14/2021 5:15:00 AM 3 37.4 0.043 6.62 1.44 12.94
12/14/2021 5:30:00 AM 2.99 37.382 0.043 6.62 1.43 12.95
12/14/2021 5:45:00 AM 2.98 37.364 0.043 6.62 1.46 12.96
12/14/2021 6:00:00 AM 2.96 37.328 0.043 6.62 1.54 12.97
12/14/2021 6:15:00 AM 2.96 37.328 0.043 6.63 1.41 12.97
12/14/2021 6:30:00 AM 2.95 37.31 0.043 6.62 1.45 12.98
12/14/2021 6:45:00 AM 2.94 37.292 0.043 6.63 1.42 12.98
12/14/2021 7:00:00 AM 2.93 37.274 0.043 6.62 1.47 12.99
12/14/2021 7:15:00 AM 2.93 37.274 0.043 6.62 1.4 12.99
12/14/2021 7:30:00 AM 2.91 37.238 0.043 6.62 1.42 13.01
12/14/2021 7:45:00 AM 2.9 37.22 0.043 6.63 1.46 13.06
12/14/2021 8:00:00 AM 2.89 37.202 0.043 6.64 1.43 13.12
12/14/2021 8:15:00 AM 2.89 37.202 0.043 6.65 1.42 13.17
12/14/2021 8:30:00 AM 2.89 37.202 0.043 6.66 1.41 13.23
12/14/2021 8:45:00 AM 2.89 37.202 0.042 6.68 1.4 13.29
12/14/2021 9:00:00 AM 2.91 37.238 0.042 6.68 1.4 13.34
12/14/2021 9:15:00 AM 2.92 37.256 0.042 6.7 1.37 13.39
12/14/2021 9:30:00 AM 2.94 37.292 0.042 6.71 1.39 13.42
12/14/2021 9:45:00 AM 2.98 37.364 0.042 6.72 1.44 13.46
12/14/2021 10:00:00 AM 3.02 37.436 0.042 6.73 1.35 13.49
12/14/2021 10:15:00 AM 3.06 37.508 0.042 6.73 1.4 13.5
12/14/2021 10:30:00 AM 3.1 37.58 0.042 6.75 1.39 13.5
12/14/2021 10:45:00 AM 3.17 37.706 0.042 6.75 1.39 13.5
12/14/2021 11:00:00 AM 3.26 37.868 0.042 6.76 1.33 13.49
12/14/2021 11:15:00 AM 3.34 38.012 0.042 6.75 1.34 13.46
12/14/2021 11:30:00 AM 3.45 38.21 0.042 6.77 1.34 13.46
12/14/2021 11:45:00 AM 3.57 38.426 0.042 6.78 1.35 13.44
12/14/2021 12:00:00 PM 3.69 38.642 0.041 6.77 1.33 13.41
12/14/2021 12:15:00 PM 3.81 38.858 0.041 6.78 1.36 13.38
12/14/2021 12:30:00 PM 3.92 39.056 0.041 6.79 1.29 13.35
12/14/2021 12:45:00 PM 3.99 39.182 0.041 6.78 1.32 13.33
12/14/2021 1:00:00 PM 4.06 39.308 0.041 6.78 1.33 13.3
12/14/2021 1:15:00 PM 4.11 39.398 0.041 6.79 1.34 13.28
12/14/2021 1:30:00 PM 4.14 39.452 0.041 6.79 1.32 13.25
12/14/2021 1:45:00 PM 4.15 39.47 0.041 6.79 1.31 13.23
12/14/2021 2:00:00 PM 4.16 39.488 0.041 6.78 1.28 13.22
12/14/2021 2:15:00 PM 4.16 39.488 0.041 6.78 1.27 13.19
12/14/2021 2:30:00 PM 4.14 39.452 0.041 6.79 1.3 13.19
12/14/2021 2:45:00 PM 4.13 39.434 0.041 6.78 1.32 13.17
12/14/2021 3:00:00 PM 4.12 39.416 0.041 6.77 1.3 13.15
12/14/2021 3:15:00 PM 4.08 39.344 0.041 6.77 1.3 13.13
12/14/2021 3:30:00 PM 4.06 39.308 0.042 6.76 1.3 13.11
12/14/2021 3:45:00 PM 4.02 39.236 0.042 6.76 1.34 13.07
12/14/2021 4:00:00 PM 4 39.2 0.042 6.74 1.33 13.02
12/14/2021 4:15:00 PM 3.96 39.128 0.042 6.73 1.42 12.98
12/14/2021 4:30:00 PM 3.94 39.092 0.042 6.71 1.35 12.92
12/14/2021 4:45:00 PM 3.91 39.038 0.042 6.7 1.31 12.88
12/14/2021 5:00:00 PM 3.86 38.948 0.042 6.69 1.31 12.84
12/14/2021 5:15:00 PM 3.83 38.894 0.042 6.67 1.33 12.8
12/14/2021 5:30:00 PM 3.8 38.84 0.042 6.68 1.34 12.79
12/14/2021 5:45:00 PM 3.77 38.786 0.042 6.66 1.39 12.78
12/14/2021 6:00:00 PM 3.75 38.75 0.042 6.66 1.35 12.77
12/14/2021 6:15:00 PM 3.73 38.714 0.042 6.65 1.38 12.76
12/14/2021 6:30:00 PM 3.71 38.678 0.042 6.65 1.39 12.76
12/14/2021 6:45:00 PM 3.68 38.624 0.042 6.65 1.39 12.76
12/14/2021 7:00:00 PM 3.66 38.588 0.043 6.64 1.36 12.77
12/14/2021 7:15:00 PM 3.63 38.534 0.043 6.64 1.43 12.78
12/14/2021 7:30:00 PM 3.6 38.48 0.043 6.64 1.36 12.78
12/14/2021 7:45:00 PM 3.57 38.426 0.043 6.64 1.39 12.8
12/14/2021 8:00:00 PM 3.54 38.372 0.043 6.63 1.34 12.8
12/14/2021 8:15:00 PM 3.51 38.318 0.043 6.63 1.41 12.81
12/14/2021 8:30:00 PM 3.48 38.264 0.043 6.63 1.35 12.83
12/14/2021 8:45:00 PM 3.45 38.21 0.043 6.63 1.39 12.84
12/14/2021 9:00:00 PM 3.43 38.174 0.043 6.63 1.36 12.85
12/14/2021 9:15:00 PM 3.39 38.102 0.043 6.63 1.43 12.86
12/14/2021 9:30:00 PM 3.36 38.048 0.043 6.63 1.36 12.87
12/14/2021 9:45:00 PM 3.34 38.012 0.043 6.63 1.4 12.88
12/14/2021 10:00:00 PM 3.3 37.94 0.043 6.63 1.4 12.9
12/14/2021 10:15:00 PM 3.27 37.886 0.043 6.63 1.38 12.9
12/14/2021 10:30:00 PM 3.24 37.832 0.043 6.62 1.38 12.92
12/14/2021 10:45:00 PM 3.21 37.778 0.043 6.62 1.39 12.94
12/14/2021 11:00:00 PM 3.17 37.706 0.043 6.63 1.37 12.94
12/14/2021 11:15:00 PM 3.14 37.652 0.043 6.63 1.41 12.95
12/14/2021 11:30:00 PM 3.1 37.58 0.043 6.63 1.4 12.97
12/14/2021 11:45:00 PM 3.07 37.526 0.043 6.63 1.38 12.98
12/15/2021 12:00:00 AM 3.04 37.472 0.043 6.62 1.37 12.99
12/15/2021 12:15:00 AM 3.01 37.418 0.043 6.62 1.39 13
12/15/2021 12:30:00 AM 2.97 37.346 0.043 6.62 1.38 13.01
12/15/2021 12:45:00 AM 2.94 37.292 0.043 6.63 1.43 13.03
12/15/2021 1:00:00 AM 2.91 37.238 0.043 6.63 1.35 13.04
12/15/2021 1:15:00 AM 2.87 37.166 0.043 6.62 1.42 13.05
12/15/2021 1:30:00 AM 2.84 37.112 0.043 6.62 1.37 13.06
12/15/2021 1:45:00 AM 2.8 37.04 0.043 6.62 1.35 13.08
12/15/2021 2:00:00 AM 2.77 36.986 0.043 6.62 1.39 13.09
12/15/2021 2:15:00 AM 2.74 36.932 0.043 6.62 1.39 13.1
12/15/2021 2:30:00 AM 2.71 36.878 0.043 6.62 1.4 13.11
12/15/2021 2:45:00 AM 2.68 36.824 0.043 6.62 1.39 13.12
12/15/2021 3:00:00 AM 2.65 36.77 0.043 6.62 1.41 13.14
12/15/2021 3:15:00 AM 2.62 36.716 0.043 6.62 1.44 13.15
12/15/2021 3:30:00 AM 2.59 36.662 0.043 6.62 1.39 13.16
12/15/2021 3:45:00 AM 2.56 36.608 0.043 6.62 1.39 13.17
12/15/2021 4:00:00 AM 2.53 36.554 0.043 6.62 1.42 13.18
12/15/2021 4:15:00 AM 2.5 36.5 0.043 6.62 1.44 13.18
12/15/2021 4:30:00 AM 2.47 36.446 0.043 6.62 1.39 13.19
12/15/2021 4:45:00 AM 2.44 36.392 0.043 6.62 1.4 13.2
12/15/2021 5:00:00 AM 2.42 36.356 0.043 6.62 1.41 13.22
12/15/2021 5:15:00 AM 2.4 36.32 0.043 6.62 1.4 13.23
12/15/2021 5:30:00 AM 2.4 36.32 0.043 6.62 1.4 13.23
12/15/2021 5:45:00 AM 2.39 36.302 0.043 6.62 1.38 13.24
12/15/2021 6:00:00 AM 2.38 36.284 0.043 6.61 1.37 13.25
12/15/2021 6:15:00 AM 2.36 36.248 0.043 6.62 1.41 13.25
12/15/2021 6:30:00 AM 2.35 36.23 0.043 6.62 1.4 13.26
12/15/2021 6:45:00 AM 2.35 36.23 0.043 6.62 1.39 13.26
12/15/2021 7:00:00 AM 2.34 36.212 0.043 6.62 1.41 13.27
12/15/2021 7:15:00 AM 2.34 36.212 0.043 6.62 1.41 13.27
12/15/2021 7:30:00 AM 2.34 36.212 0.043 6.62 1.37 13.28
12/15/2021 7:45:00 AM 2.33 36.194 0.043 6.63 1.36 13.31
12/15/2021 8:00:00 AM 2.33 36.194 0.043 6.63 1.39 13.37
12/15/2021 8:15:00 AM 2.33 36.194 0.042 6.65 1.42 13.45
12/15/2021 8:30:00 AM 2.33 36.194 0.042 6.67 1.38 13.53
12/15/2021 8:45:00 AM 2.37 36.266 0.042 6.68 1.36 13.6
12/15/2021 9:00:00 AM 2.43 36.374 0.042 6.69 1.35 13.64
12/15/2021 9:15:00 AM 2.49 36.482 0.042 6.7 1.38 13.68
12/15/2021 9:30:00 AM 2.56 36.608 0.042 6.73 1.38 13.71
12/15/2021 9:45:00 AM 2.64 36.752 0.042 6.73 1.36 13.72
12/15/2021 10:00:00 AM 2.71 36.878 0.042 6.75 1.36 13.73
12/15/2021 10:15:00 AM 2.81 37.058 0.042 6.75 1.36 13.72
12/15/2021 10:30:00 AM 2.91 37.238 0.042 6.76 1.32 13.71
12/15/2021 10:45:00 AM 3.02 37.436 0.041 6.77 1.36 13.7
12/15/2021 11:00:00 AM 3.12 37.616 0.041 6.78 1.37 13.67
12/15/2021 11:15:00 AM 3.22 37.796 0.041 6.78 1.31 13.64
12/15/2021 11:30:00 AM 3.32 37.976 0.041 6.79 1.29 13.61
12/15/2021 11:45:00 AM 3.42 38.156 0.041 6.79 1.28 13.58
12/15/2021 12:00:00 PM 3.5 38.3 0.041 6.8 1.31 13.54
12/15/2021 12:15:00 PM 3.57 38.426 0.041 6.8 1.25 13.48
12/15/2021 12:30:00 PM 3.64 38.552 0.041 6.79 1.28 13.43
12/15/2021 12:45:00 PM 3.7 38.66 0.041 6.78 1.28 13.37
12/15/2021 1:00:00 PM 3.74 38.732 0.041 6.79 1.25 13.33
12/15/2021 1:15:00 PM 3.79 38.822 0.041 6.77 1.27 13.28
12/15/2021 1:30:00 PM 3.84 38.912 0.041 6.78 1.29 13.24
12/15/2021 1:45:00 PM 3.88 38.984 0.041 6.76 1.3 13.2
12/15/2021 2:00:00 PM 3.93 39.074 0.041 6.77 1.27 13.21
12/15/2021 2:15:00 PM 3.97 39.146 0.041 6.78 1.38 13.19
12/15/2021 2:30:00 PM 4.02 39.236 0.041 6.77 1.26 13.17
12/15/2021 2:45:00 PM 4.05 39.29 0.041 6.77 1.29 13.13
12/15/2021 3:00:00 PM 4.07 39.326 0.041 6.76 1.25 13.08
12/15/2021 3:15:00 PM 4.11 39.398 0.041 6.75 1.29 13
12/15/2021 3:30:00 PM 4.13 39.434 0.042 6.74 1.28 12.93
12/15/2021 3:45:00 PM 4.15 39.47 0.042 6.72 1.28 12.87
12/15/2021 4:00:00 PM 4.17 39.506 0.042 6.71 1.34 12.81
12/15/2021 4:15:00 PM 4.19 39.542 0.042 6.7 1.28 12.75
12/15/2021 4:30:00 PM 4.21 39.578 0.042 6.69 1.28 12.7
12/15/2021 4:45:00 PM 4.23 39.614 0.042 6.68 1.27 12.65
12/15/2021 5:00:00 PM 4.25 39.65 0.042 6.67 1.32 12.62
12/15/2021 5:15:00 PM 4.27 39.686 0.042 6.67 1.3 12.58
12/15/2021 5:30:00 PM 4.29 39.722 0.042 6.67 1.3 12.56
12/15/2021 5:45:00 PM 4.3 39.74 0.043 6.66 1.33 12.53
12/15/2021 6:00:00 PM 4.32 39.776 0.043 6.66 1.34 12.53
12/15/2021 6:15:00 PM 4.34 39.812 0.043 6.66 1.33 12.51
12/15/2021 6:30:00 PM 4.36 39.848 0.043 6.66 1.32 12.49
12/15/2021 6:45:00 PM 4.38 39.884 0.043 6.66 1.31 12.49
12/15/2021 7:00:00 PM 4.4 39.92 0.043 6.65 1.35 12.47
12/15/2021 7:15:00 PM 4.42 39.956 0.043 6.65 1.34 12.47
12/15/2021 7:30:00 PM 4.44 39.992 0.043 6.65 1.34 12.46
12/15/2021 7:45:00 PM 4.45 40.01 0.043 6.65 1.33 12.45
12/15/2021 8:00:00 PM 4.47 40.046 0.043 6.65 1.3 12.44
12/15/2021 8:15:00 PM 4.49 40.082 0.043 6.65 1.33 12.43
12/15/2021 8:30:00 PM 4.51 40.118 0.043 6.65 1.31 12.42
12/15/2021 8:45:00 PM 4.54 40.172 0.043 6.65 1.32 12.41
12/15/2021 9:00:00 PM 4.56 40.208 0.043 6.65 1.32 12.4
12/15/2021 9:15:00 PM 4.59 40.262 0.043 6.65 1.31 12.39
12/15/2021 9:30:00 PM 4.62 40.316 0.043 6.65 1.34 12.38
12/15/2021 9:45:00 PM 4.64 40.352 0.043 6.66 1.34 12.38
12/15/2021 10:00:00 PM 4.67 40.406 0.043 6.66 1.32 12.36
12/15/2021 10:15:00 PM 4.69 40.442 0.043 6.66 1.35 12.35
12/15/2021 10:30:00 PM 4.72 40.496 0.043 6.66 1.28 12.34
12/15/2021 10:45:00 PM 4.74 40.532 0.043 6.65 1.29 12.32
12/15/2021 11:00:00 PM 4.77 40.586 0.043 6.66 1.33 12.32
12/15/2021 11:15:00 PM 4.8 40.64 0.043 6.66 1.32 12.3
12/15/2021 11:30:00 PM 4.82 40.676 0.043 6.66 1.29 12.29
12/15/2021 11:45:00 PM 4.85 40.73 0.043 6.65 1.26 12.28
12/16/2021 12:00:00 AM 4.88 40.784 0.043 6.65 1.28 12.27
12/16/2021 12:15:00 AM 4.91 40.838 0.043 6.66 1.29 12.25
12/16/2021 12:30:00 AM 4.94 40.892 0.043 6.66 1.34 12.25
12/16/2021 12:45:00 AM 4.97 40.946 0.043 6.66 1.32 12.24
12/16/2021 1:00:00 AM 5 41 0.043 6.65 1.28 12.22
12/16/2021 1:15:00 AM 5.03 41.054 0.043 6.65 1.28 12.21
12/16/2021 1:30:00 AM 5.04 41.072 0.043 6.65 1.31 12.2
12/16/2021 1:45:00 AM 5.05 41.09 0.043 6.65 1.31 12.2
12/16/2021 2:00:00 AM 5.04 41.072 0.043 6.66 1.28 12.2
12/16/2021 2:15:00 AM 5.04 41.072 0.043 6.66 1.32 12.19
12/16/2021 2:30:00 AM 5.05 41.09 0.043 6.65 1.29 12.19
12/16/2021 2:45:00 AM 5.06 41.108 0.043 6.66 1.31 12.19
12/16/2021 3:00:00 AM 5.09 41.162 0.043 6.66 1.33 12.17
12/16/2021 3:15:00 AM 5.1 41.18 0.043 6.66 1.28 12.17
12/16/2021 3:30:00 AM 5.1 41.18 0.043 6.65 1.24 12.17
12/16/2021 3:45:00 AM 5.1 41.18 0.043 6.65 1.31 12.17
12/16/2021 4:00:00 AM 5.12 41.216 0.043 6.65 1.29 12.16
12/16/2021 4:15:00 AM 5.13 41.234 0.043 6.65 1.25 12.15
12/16/2021 4:30:00 AM 5.14 41.252 0.043 6.65 1.26 12.16
12/16/2021 4:45:00 AM 5.15 41.27 0.043 6.65 1.31 12.14
12/16/2021 5:00:00 AM 5.17 41.306 0.043 6.65 1.3 12.14
12/16/2021 5:15:00 AM 5.18 41.324 0.043 6.64 1.3 12.13
12/16/2021 5:30:00 AM 5.18 41.324 0.043 6.64 1.34 12.13
12/16/2021 5:45:00 AM 5.18 41.324 0.043 6.65 1.33 12.13
12/16/2021 6:00:00 AM 5.18 41.324 0.043 6.64 1.29 12.13
12/16/2021 6:15:00 AM 5.19 41.342 0.043 6.64 1.35 12.12
12/16/2021 6:30:00 AM 5.18 41.324 0.043 6.64 1.35 12.12
12/16/2021 6:45:00 AM 5.19 41.342 0.043 6.64 1.33 12.12
12/16/2021 7:00:00 AM 5.18 41.324 0.043 6.64 1.32 12.12
12/16/2021 7:15:00 AM 5.19 41.342 0.043 6.64 1.35 12.12
12/16/2021 7:30:00 AM 5.18 41.324 0.043 6.64 1.3 12.12
12/16/2021 7:45:00 AM 5.19 41.342 0.043 6.65 1.25 12.15
12/16/2021 8:00:00 AM 5.21 41.378 0.043 6.66 1.31 12.2
12/16/2021 8:15:00 AM 5.23 41.414 0.043 6.67 1.28 12.26
12/16/2021 8:30:00 AM 5.24 41.432 0.043 6.69 1.29 12.34
12/16/2021 8:45:00 AM 5.26 41.468 0.043 6.71 1.25 12.41
12/16/2021 9:00:00 AM 5.28 41.504 0.042 6.73 1.26 12.47
12/16/2021 9:15:00 AM 5.31 41.558 0.042 6.74 1.25 12.52
12/16/2021 9:30:00 AM 5.34 41.612 0.042 6.76 1.27 12.56
12/16/2021 9:45:00 AM 5.37 41.666 0.042 6.77 1.32 12.59
12/16/2021 10:00:00 AM 5.41 41.738 0.042 6.78 1.25 12.62
12/16/2021 10:15:00 AM 5.46 41.828 0.042 6.8 1.27 12.65
12/16/2021 10:30:00 AM 5.5 41.9 0.042 6.81 1.26 12.64
12/16/2021 10:45:00 AM 5.55 41.99 0.042 6.82 1.27 12.64
12/16/2021 11:00:00 AM 5.6 42.08 0.042 6.82 1.23 12.63
12/16/2021 11:15:00 AM 5.65 42.17 0.042 6.83 1.26 12.63
12/16/2021 11:30:00 AM 5.71 42.278 0.042 6.83 1.25 12.61
12/16/2021 11:45:00 AM 5.79 42.422 0.042 6.84 1.27 12.59
12/16/2021 12:00:00 PM 5.89 42.602 0.042 6.84 1.19 12.56
12/16/2021 12:15:00 PM 6 42.8 0.042 6.84 1.23 12.55
12/16/2021 12:30:00 PM 6.12 43.016 0.042 6.84 1.26 12.52
12/16/2021 12:45:00 PM 6.23 43.214 0.042 6.85 1.2 12.5
12/16/2021 1:00:00 PM 6.31 43.358 0.042 6.86 1.21 12.47
12/16/2021 1:15:00 PM 6.35 43.43 0.042 6.85 1.24 12.43
12/16/2021 1:30:00 PM 6.37 43.466 0.042 6.86 1.42 12.42
12/16/2021 1:45:00 PM 6.41 43.538 0.041 6.86 1.3 12.41
12/16/2021 2:00:00 PM 6.44 43.592 0.041 6.87 1.3 12.39
12/16/2021 2:15:00 PM 6.48 43.664 0.041 6.86 1.27 12.37
12/16/2021 2:30:00 PM 6.5 43.7 0.042 6.86 1.25 12.36
12/16/2021 2:45:00 PM 6.49 43.682 0.042 6.85 1.2 12.32
12/16/2021 3:00:00 PM 6.48 43.664 0.042 6.86 1.22 12.31
12/16/2021 3:15:00 PM 6.47 43.646 0.042 6.85 1.23 12.3
12/16/2021 3:30:00 PM 6.45 43.61 0.042 6.84 1.27 12.27
12/16/2021 3:45:00 PM 6.45 43.61 0.042 6.83 1.27 12.25
12/16/2021 4:00:00 PM 6.43 43.574 0.042 6.82 1.22 12.18
12/16/2021 4:15:00 PM 6.41 43.538 0.042 6.81 1.21 12.11
12/16/2021 4:30:00 PM 6.4 43.52 0.042 6.77 1.26 12.02
12/16/2021 4:45:00 PM 6.39 43.502 0.042 6.76 1.19 11.92
12/16/2021 5:00:00 PM 6.37 43.466 0.042 6.73 1.28 11.85
12/16/2021 5:15:00 PM 6.36 43.448 0.042 6.71 1.28 11.79
12/16/2021 5:30:00 PM 6.34 43.412 0.042 6.71 1.23 11.76
12/16/2021 5:45:00 PM 6.32 43.376 0.043 6.7 1.31 11.73
12/16/2021 6:00:00 PM 6.32 43.376 0.043 6.69 1.31 11.72
12/16/2021 6:15:00 PM 6.31 43.358 0.043 6.68 1.3 11.7
12/16/2021 6:30:00 PM 6.31 43.358 0.043 6.68 1.31 11.69
12/16/2021 6:45:00 PM 6.32 43.376 0.043 6.67 1.3 11.68
12/16/2021 7:00:00 PM 6.32 43.376 0.043 6.67 1.4 11.68
12/16/2021 7:15:00 PM 6.32 43.376 0.043 6.66 1.35 11.67
12/16/2021 7:30:00 PM 6.33 43.394 0.043 6.66 1.34 11.67
12/16/2021 7:45:00 PM 6.35 43.43 0.043 6.66 1.29 11.66
12/16/2021 8:00:00 PM 6.36 43.448 0.043 6.66 1.29 11.66
12/16/2021 8:15:00 PM 6.38 43.484 0.043 6.66 1.3 11.65
12/16/2021 8:30:00 PM 6.4 43.52 0.043 6.65 1.3 11.65
12/16/2021 8:45:00 PM 6.42 43.556 0.043 6.66 1.22 11.64
12/16/2021 9:00:00 PM 6.43 43.574 0.043 6.66 1.27 11.64
12/16/2021 9:15:00 PM 6.43 43.574 0.043 6.65 1.28 11.63
12/16/2021 9:30:00 PM 6.42 43.556 0.043 6.65 1.3 11.63
12/16/2021 9:45:00 PM 6.43 43.574 0.043 6.66 1.3 11.63
12/16/2021 10:00:00 PM 6.43 43.574 0.043 6.66 1.3 11.62
12/16/2021 10:15:00 PM 6.44 43.592 0.043 6.66 1.28 11.63
12/16/2021 10:30:00 PM 6.44 43.592 0.043 6.66 1.32 11.63
12/16/2021 10:45:00 PM 6.45 43.61 0.043 6.66 1.29 11.62
12/16/2021 11:00:00 PM 6.44 43.592 0.044 6.66 1.3 11.62
12/16/2021 11:15:00 PM 6.45 43.61 0.044 6.67 1.3 11.62
12/16/2021 11:30:00 PM 6.45 43.61 0.044 6.67 1.3 11.62
12/16/2021 11:45:00 PM 6.47 43.646 0.044 6.67 1.32 11.62
12/17/2021 12:00:00 AM 6.47 43.646 0.044 6.66 1.26 11.61
12/17/2021 12:15:00 AM 6.48 43.664 0.044 6.66 1.28 11.61
12/17/2021 12:30:00 AM 6.49 43.682 0.044 6.66 1.29 11.6
12/17/2021 12:45:00 AM 6.51 43.718 0.044 6.66 1.31 11.59
12/17/2021 1:00:00 AM 6.51 43.718 0.044 6.66 1.29 11.6
12/17/2021 1:15:00 AM 6.5 43.7 0.044 6.66 1.31 11.59
12/17/2021 1:30:00 AM 6.5 43.7 0.044 6.66 1.32 11.59
12/17/2021 1:45:00 AM 6.51 43.718 0.044 6.66 1.28 11.59
12/17/2021 2:00:00 AM 6.53 43.754 0.043 6.66 1.25 11.59
12/17/2021 2:15:00 AM 6.53 43.754 0.043 6.66 1.42 11.59
12/17/2021 2:30:00 AM 6.52 43.736 0.043 6.66 1.29 11.6
12/17/2021 2:45:00 AM 6.51 43.718 0.043 6.66 1.29 11.6
12/17/2021 3:00:00 AM 6.48 43.664 0.043 6.67 1.27 11.6
12/17/2021 3:15:00 AM 6.45 43.61 0.043 6.66 1.27 11.62
12/17/2021 3:30:00 AM 6.41 43.538 0.043 6.66 1.31 11.63
12/17/2021 3:45:00 AM 6.38 43.484 0.043 6.66 1.26 11.64
12/17/2021 4:00:00 AM 6.35 43.43 0.043 6.65 1.32 11.66
12/17/2021 4:15:00 AM 6.33 43.394 0.043 6.66 1.29 11.66
12/17/2021 4:30:00 AM 6.29 43.322 0.043 6.66 1.26 11.68
12/17/2021 4:45:00 AM 6.26 43.268 0.043 6.65 1.31 11.69
12/17/2021 5:00:00 AM 6.23 43.214 0.043 6.66 1.29 11.7
12/17/2021 5:15:00 AM 6.2 43.16 0.043 6.66 1.32 11.71
12/17/2021 5:30:00 AM 6.16 43.088 0.043 6.65 1.3 11.72
12/17/2021 5:45:00 AM 6.13 43.034 0.043 6.65 1.27 11.74
12/17/2021 6:00:00 AM 6.09 42.962 0.043 6.65 1.36 11.75
12/17/2021 6:15:00 AM 6.04 42.872 0.043 6.65 1.26 11.76
12/17/2021 6:30:00 AM 6 42.8 0.043 6.65 1.3 11.78
12/17/2021 6:45:00 AM 5.95 42.71 0.043 6.65 1.29 11.8
12/17/2021 7:00:00 AM 5.89 42.602 0.043 6.65 1.3 11.81
12/17/2021 7:15:00 AM 5.85 42.53 0.043 6.65 1.35 11.84
12/17/2021 7:30:00 AM 5.79 42.422 0.043 6.65 1.3 11.86
12/17/2021 7:45:00 AM 5.73 42.314 0.043 6.65 1.29 11.9
12/17/2021 8:00:00 AM 5.68 42.224 0.043 6.65 1.26 11.95
12/17/2021 8:15:00 AM 5.62 42.116 0.043 6.67 1.32 12.03
12/17/2021 8:30:00 AM 5.58 42.044 0.043 6.68 1.33 12.1
12/17/2021 8:45:00 AM 5.54 41.972 0.043 6.69 1.28 12.18
12/17/2021 9:00:00 AM 5.5 41.9 0.043 6.71 1.3 12.26
12/17/2021 9:15:00 AM 5.47 41.846 0.043 6.72 1.31 12.31
12/17/2021 9:30:00 AM 5.46 41.828 0.043 6.73 1.26 12.36
12/17/2021 9:45:00 AM 5.45 41.81 0.042 6.74 1.28 12.42
12/17/2021 10:00:00 AM 5.44 41.792 0.042 6.75 1.3 12.44
12/17/2021 10:15:00 AM 5.45 41.81 0.042 6.77 1.29 12.48
12/17/2021 10:30:00 AM 5.45 41.81 0.042 6.78 1.3 12.51
12/17/2021 10:45:00 AM 5.47 41.846 0.042 6.78 1.28 12.53
12/17/2021 11:00:00 AM 5.52 41.936 0.042 6.79 1.31 12.55
12/17/2021 11:15:00 AM 5.58 42.044 0.042 6.8 1.31 12.56
12/17/2021 11:30:00 AM 5.64 42.152 0.042 6.81 1.24 12.56
12/17/2021 11:45:00 AM 5.7 42.26 0.042 6.81 1.28 12.55
12/17/2021 12:00:00 PM 5.79 42.422 0.042 6.83 1.25 12.57
12/17/2021 12:15:00 PM 5.84 42.512 0.042 6.84 1.25 12.57
12/17/2021 12:30:00 PM 5.89 42.602 0.042 6.85 1.27 12.56
12/17/2021 12:45:00 PM 5.94 42.692 0.042 6.85 1.29 12.57
12/17/2021 1:00:00 PM 5.97 42.746 0.042 6.86 1.32 12.57
12/17/2021 1:15:00 PM 5.98 42.764 0.042 6.86 1.26 12.57
12/17/2021 1:30:00 PM 5.99 42.782 0.042 6.86 1.26 12.57
12/17/2021 1:45:00 PM 5.99 42.782 0.042 6.87 1.24 12.58
12/17/2021 2:00:00 PM 5.97 42.746 0.042 6.86 1.27 12.57
12/17/2021 2:15:00 PM 5.95 42.71 0.042 6.87 1.27 12.58
12/17/2021 2:30:00 PM 5.94 42.692 0.042 6.87 1.28 12.6
12/17/2021 2:45:00 PM 5.93 42.674 0.041 6.88 1.4 12.59
12/17/2021 3:00:00 PM 5.91 42.638 0.041 6.87 1.36 12.57
12/17/2021 3:15:00 PM 5.88 42.584 0.041 6.86 1.37 12.55
12/17/2021 3:30:00 PM 5.87 42.566 0.042 6.85 1.46 12.53
12/17/2021 3:45:00 PM 5.84 42.512 0.042 6.84 1.4 12.49
12/17/2021 4:00:00 PM 5.82 42.476 0.042 6.82 1.33 12.43
12/17/2021 4:15:00 PM 5.79 42.422 0.042 6.79 1.35 12.35
12/17/2021 4:30:00 PM 5.76 42.368 0.042 6.77 1.41 12.26
12/17/2021 4:45:00 PM 5.73 42.314 0.042 6.75 1.42 12.17
12/17/2021 5:00:00 PM 5.7 42.26 0.042 6.72 1.46 12.11
12/17/2021 5:15:00 PM 5.66 42.188 0.042 6.71 1.5 12.06
12/17/2021 5:30:00 PM 5.62 42.116 0.042 6.7 1.39 12.05
12/17/2021 5:45:00 PM 5.58 42.044 0.042 6.69 1.36 12.02
12/17/2021 6:00:00 PM 5.54 41.972 0.042 6.68 1.36 12.02
12/17/2021 6:15:00 PM 5.5 41.9 0.043 6.68 1.33 12.01
12/17/2021 6:30:00 PM 5.46 41.828 0.043 6.67 1.33 12.01
12/17/2021 6:45:00 PM 5.41 41.738 0.043 6.67 1.32 12.02
12/17/2021 7:00:00 PM 5.37 41.666 0.043 6.67 1.36 12.03
12/17/2021 7:15:00 PM 5.32 41.576 0.043 6.67 1.36 12.05
12/17/2021 7:30:00 PM 5.27 41.486 0.043 6.66 1.32 12.06
12/17/2021 7:45:00 PM 5.23 41.414 0.043 6.66 1.34 12.07
12/17/2021 8:00:00 PM 5.18 41.324 0.043 6.66 1.35 12.09
12/17/2021 8:15:00 PM 5.14 41.252 0.043 6.66 1.36 12.1
12/17/2021 8:30:00 PM 5.09 41.162 0.043 6.66 1.32 12.12
12/17/2021 8:45:00 PM 5.06 41.108 0.043 6.66 1.33 12.12
12/17/2021 9:00:00 PM 5.01 41.018 0.043 6.66 1.34 12.14
12/17/2021 9:15:00 PM 4.97 40.946 0.043 6.65 1.35 12.16
12/17/2021 9:30:00 PM 4.94 40.892 0.043 6.65 1.32 12.17
12/17/2021 9:45:00 PM 4.89 40.802 0.043 6.66 1.32 12.19
12/17/2021 10:00:00 PM 4.86 40.748 0.043 6.66 1.32 12.19
12/17/2021 10:15:00 PM 4.82 40.676 0.043 6.66 1.31 12.21
12/17/2021 10:30:00 PM 4.77 40.586 0.043 6.65 1.34 12.23
12/17/2021 10:45:00 PM 4.75 40.55 0.043 6.65 1.33 12.24
12/17/2021 11:00:00 PM 4.73 40.514 0.043 6.65 1.33 12.25
12/17/2021 11:15:00 PM 4.7 40.46 0.043 6.65 1.31 12.26
12/17/2021 11:30:00 PM 4.68 40.424 0.043 6.65 1.36 12.27
12/17/2021 11:45:00 PM 4.66 40.388 0.043 6.65 1.31 12.28
12/18/2021 12:00:00 AM 4.64 40.352 0.043 6.65 1.33 12.29
12/18/2021 12:15:00 AM 4.63 40.334 0.043 6.64 1.34 12.29
12/18/2021 12:30:00 AM 4.61 40.298 0.043 6.65 1.29 12.3
12/18/2021 12:45:00 AM 4.6 40.28 0.043 6.65 1.33 12.3
12/18/2021 1:00:00 AM 4.6 40.28 0.043 6.64 1.34 12.3
12/18/2021 1:15:00 AM 4.6 40.28 0.043 6.65 1.43 12.31
12/18/2021 1:30:00 AM 4.6 40.28 0.043 6.64 1.33 12.31
12/18/2021 1:45:00 AM 4.6 40.28 0.043 6.64 1.29 12.31
12/18/2021 2:00:00 AM 4.59 40.262 0.043 6.65 1.34 12.32
12/18/2021 2:15:00 AM 4.58 40.244 0.043 6.65 1.35 12.31
12/18/2021 2:30:00 AM 4.57 40.226 0.043 6.65 1.36 12.31
12/18/2021 2:45:00 AM 4.58 40.244 0.043 6.65 1.33 12.32
12/18/2021 3:00:00 AM 4.59 40.262 0.043 6.64 1.33 12.31
12/18/2021 3:15:00 AM 4.59 40.262 0.043 6.65 1.43 12.32
12/18/2021 3:30:00 AM 4.59 40.262 0.043 6.65 1.33 12.31
12/18/2021 3:45:00 AM 4.6 40.28 0.043 6.65 1.34 12.31
12/18/2021 4:00:00 AM 4.61 40.298 0.043 6.65 1.3 12.3
12/18/2021 4:15:00 AM 4.61 40.298 0.043 6.64 1.46 12.31
12/18/2021 4:30:00 AM 4.61 40.298 0.043 6.66 1.33 12.31
12/18/2021 4:45:00 AM 4.61 40.298 0.043 6.64 1.31 12.31
12/18/2021 5:00:00 AM 4.62 40.316 0.043 6.65 1.35 12.3
12/18/2021 5:15:00 AM 4.62 40.316 0.043 6.65 1.31 12.3
12/18/2021 5:30:00 AM 4.63 40.334 0.043 6.65 1.31 12.3
12/18/2021 5:45:00 AM 4.63 40.334 0.043 6.65 1.27 12.3
12/18/2021 6:00:00 AM 4.63 40.334 0.043 6.65 1.34 12.3
12/18/2021 6:15:00 AM 4.63 40.334 0.043 6.65 1.41 12.3
12/18/2021 6:30:00 AM 4.64 40.352 0.043 6.65 1.31 12.3
12/18/2021 6:45:00 AM 4.64 40.352 0.043 6.65 1.33 12.29
12/18/2021 7:00:00 AM 4.64 40.352 0.043 6.65 1.34 12.29
12/18/2021 7:15:00 AM 4.64 40.352 0.043 6.65 1.31 12.3
12/18/2021 7:30:00 AM 4.65 40.37 0.043 6.65 1.29 12.3
12/18/2021 7:45:00 AM 4.65 40.37 0.043 6.65 1.46 12.31
12/18/2021 8:00:00 AM 4.65 40.37 0.043 6.65 1.33 12.33
12/18/2021 8:15:00 AM 4.66 40.388 0.043 6.67 1.29 12.37
12/18/2021 8:30:00 AM 4.66 40.388 0.043 6.67 1.31 12.4
12/18/2021 8:45:00 AM 4.67 40.406 0.043 6.68 1.34 12.48
12/18/2021 9:00:00 AM 4.68 40.424 0.043 6.7 1.33 12.51
12/18/2021 9:15:00 AM 4.68 40.424 0.043 6.7 1.31 12.54
12/18/2021 9:30:00 AM 4.69 40.442 0.043 6.72 1.29 12.57
12/18/2021 9:45:00 AM 4.7 40.46 0.043 6.72 1.3 12.58
12/18/2021 10:00:00 AM 4.7 40.46 0.043 6.72 1.32 12.59
12/18/2021 10:15:00 AM 4.71 40.478 0.043 6.72 1.32 12.61
12/18/2021 10:30:00 AM 4.72 40.496 0.043 6.74 1.32 12.63
12/18/2021 10:45:00 AM 4.73 40.514 0.043 6.74 1.3 12.65
12/18/2021 11:00:00 AM 4.75 40.55 0.043 6.75 1.31 12.68
12/18/2021 11:15:00 AM 4.76 40.568 0.042 6.76 1.27 12.67
12/18/2021 11:30:00 AM 4.77 40.586 0.043 6.75 1.26 12.64
12/18/2021 11:45:00 AM 4.77 40.586 0.042 6.77 1.31 12.65
12/18/2021 12:00:00 PM 4.79 40.622 0.042 6.76 1.28 12.64
12/18/2021 12:15:00 PM 4.8 40.64 0.042 6.76 1.29 12.63
12/18/2021 12:30:00 PM 4.8 40.64 0.043 6.76 1.32 12.59
12/18/2021 12:45:00 PM 4.81 40.658 0.043 6.75 1.3 12.56
12/18/2021 1:00:00 PM 4.81 40.658 0.043 6.74 1.33 12.51
12/18/2021 1:15:00 PM 4.82 40.676 0.043 6.75 1.34 12.5
12/18/2021 1:30:00 PM 4.82 40.676 0.043 6.74 1.36 12.5
12/18/2021 1:45:00 PM 4.84 40.712 0.043 6.75 1.36 12.54
12/18/2021 2:00:00 PM 4.85 40.73 0.043 6.75 1.39 12.53
12/18/2021 2:15:00 PM 4.86 40.748 0.043 6.77 1.41 12.54
12/18/2021 2:30:00 PM 4.87 40.766 0.043 6.76 1.44 12.53
12/18/2021 2:45:00 PM 4.87 40.766 0.043 6.77 1.51 12.51
12/18/2021 3:00:00 PM 4.88 40.784 0.043 6.76 1.44 12.49
12/18/2021 3:15:00 PM 4.88 40.784 0.044 6.76 1.44 12.45
12/18/2021 3:30:00 PM 4.88 40.784 0.044 6.75 1.48 12.39
12/18/2021 3:45:00 PM 4.88 40.784 0.044 6.74 1.46 12.34
12/18/2021 4:00:00 PM 4.88 40.784 0.044 6.73 1.47 12.3
12/18/2021 4:15:00 PM 4.88 40.784 0.044 6.73 1.48 12.26
12/18/2021 4:30:00 PM 4.88 40.784 0.044 6.72 1.58 12.23
12/18/2021 4:45:00 PM 4.89 40.802 0.045 6.71 1.61 12.2
12/18/2021 5:00:00 PM 4.89 40.802 0.045 6.7 1.69 12.18
12/18/2021 5:15:00 PM 4.89 40.802 0.045 6.7 1.63 12.16
12/18/2021 5:30:00 PM 4.89 40.802 0.045 6.7 1.71 12.15
12/18/2021 5:45:00 PM 4.9 40.82 0.045 6.69 1.6 12.15
12/18/2021 6:00:00 PM 4.9 40.82 0.045 6.69 1.66 12.14
12/18/2021 6:15:00 PM 4.9 40.82 0.045 6.69 1.69 12.14
12/18/2021 6:30:00 PM 4.91 40.838 0.045 6.69 1.62 12.13
12/18/2021 6:45:00 PM 4.91 40.838 0.045 6.69 1.62 12.13
12/18/2021 7:00:00 PM 4.92 40.856 0.045 6.68 1.62 12.12
12/18/2021 7:15:00 PM 4.92 40.856 0.045 6.69 1.62 12.12
12/18/2021 7:30:00 PM 4.93 40.874 0.045 6.68 1.62 12.11
12/18/2021 7:45:00 PM 4.93 40.874 0.045 6.68 1.61 12.11
12/18/2021 8:00:00 PM 4.94 40.892 0.045 6.69 1.67 12.11
12/18/2021 8:15:00 PM 4.95 40.91 0.045 6.68 1.66 12.1
12/18/2021 8:30:00 PM 4.96 40.928 0.045 6.68 1.56 12.1
12/18/2021 8:45:00 PM 4.97 40.946 0.045 6.68 1.58 12.1
12/18/2021 9:00:00 PM 4.98 40.964 0.045 6.68 1.6 12.09
12/18/2021 9:15:00 PM 4.98 40.964 0.045 6.69 1.53 12.09
12/18/2021 9:30:00 PM 4.99 40.982 0.045 6.68 1.52 12.09
12/18/2021 9:45:00 PM 5 41 0.045 6.68 1.55 12.08
12/18/2021 10:00:00 PM 5.01 41.018 0.045 6.68 1.47 12.08
12/18/2021 10:15:00 PM 5.01 41.018 0.045 6.68 1.48 12.08
12/18/2021 10:30:00 PM 5.03 41.054 0.045 6.68 1.52 12.07
12/18/2021 10:45:00 PM 5.03 41.054 0.045 6.68 1.5 12.08
12/18/2021 11:00:00 PM 5.04 41.072 0.044 6.68 1.47 12.07
12/18/2021 11:15:00 PM 5.05 41.09 0.045 6.68 1.48 12.07
12/18/2021 11:30:00 PM 5.06 41.108 0.045 6.67 1.48 12.07
12/18/2021 11:45:00 PM 5.06 41.108 0.044 6.67 1.54 12.07
12/19/2021 12:00:00 AM 5.07 41.126 0.044 6.67 1.45 12.06
12/19/2021 12:15:00 AM 5.08 41.144 0.044 6.68 1.45 12.06
12/19/2021 12:30:00 AM 5.08 41.144 0.044 6.67 1.51 12.06
12/19/2021 12:45:00 AM 5.09 41.162 0.044 6.67 1.55 12.06
12/19/2021 1:00:00 AM 5.09 41.162 0.044 6.67 1.46 12.06
12/19/2021 1:15:00 AM 5.09 41.162 0.044 6.68 1.48 12.07
12/19/2021 1:30:00 AM 5.08 41.144 0.044 6.69 1.44 12.08
12/19/2021 1:45:00 AM 5.07 41.126 0.044 6.68 1.47 12.08
12/19/2021 2:00:00 AM 5.05 41.09 0.044 6.68 1.5 12.09
12/19/2021 2:15:00 AM 5.03 41.054 0.044 6.68 1.49 12.09
12/19/2021 2:30:00 AM 5 41 0.044 6.68 1.51 12.1
12/19/2021 2:45:00 AM 4.97 40.946 0.044 6.7 1.43 12.12
12/19/2021 3:00:00 AM 4.94 40.892 0.044 6.68 1.47 12.13
12/19/2021 3:15:00 AM 4.91 40.838 0.044 6.68 1.43 12.14
12/19/2021 3:30:00 AM 4.89 40.802 0.044 6.69 1.51 12.15
12/19/2021 3:45:00 AM 4.86 40.748 0.044 6.68 1.5 12.16
12/19/2021 4:00:00 AM 4.81 40.658 0.044 6.69 1.5 12.18
12/19/2021 4:15:00 AM 4.77 40.586 0.044 6.69 1.53 12.19
12/19/2021 4:30:00 AM 4.72 40.496 0.044 6.69 1.53 12.21
12/19/2021 4:45:00 AM 4.67 40.406 0.044 6.69 1.53 12.23
12/19/2021 5:00:00 AM 4.63 40.334 0.044 6.69 1.5 12.24
12/19/2021 5:15:00 AM 4.6 40.28 0.044 6.69 1.46 12.25
12/19/2021 5:30:00 AM 4.55 40.19 0.044 6.69 1.5 12.28
12/19/2021 5:45:00 AM 4.53 40.154 0.044 6.69 1.47 12.29
12/19/2021 6:00:00 AM 4.48 40.064 0.044 6.69 1.5 12.3
12/19/2021 6:15:00 AM 4.42 39.956 0.044 6.69 1.46 12.33
12/19/2021 6:30:00 AM 4.37 39.866 0.044 6.68 1.52 12.35
12/19/2021 6:45:00 AM 4.32 39.776 0.044 6.68 1.49 12.37
12/19/2021 7:00:00 AM 4.29 39.722 0.044 6.68 1.47 12.38
12/19/2021 7:15:00 AM 4.23 39.614 0.044 6.68 1.5 12.4
12/19/2021 7:30:00 AM 4.18 39.524 0.044 6.68 1.47 12.43
12/19/2021 7:45:00 AM 4.14 39.452 0.044 6.69 1.48 12.46
12/19/2021 8:00:00 AM 4.09 39.362 0.044 6.7 1.44 12.51
12/19/2021 8:15:00 AM 4.06 39.308 0.044 6.7 1.5 12.56
12/19/2021 8:30:00 AM 4.03 39.254 0.044 6.7 1.5 12.58
12/19/2021 8:45:00 AM 3.99 39.182 0.044 6.69 1.5 12.62
12/19/2021 9:00:00 AM 3.96 39.128 0.043 6.72 1.47 12.68
12/19/2021 9:15:00 AM 3.92 39.056 0.043 6.71 1.48 12.68
12/19/2021 9:30:00 AM 3.89 39.002 0.043 6.72 1.45 12.71
12/19/2021 9:45:00 AM 3.85 38.93 0.043 6.72 1.46 12.77
12/19/2021 10:00:00 AM 3.84 38.912 0.043 6.73 1.49 12.85
12/19/2021 10:15:00 AM 3.83 38.894 0.043 6.75 1.48 12.92
12/19/2021 10:30:00 AM 3.81 38.858 0.043 6.76 1.45 12.96
12/19/2021 10:45:00 AM 3.8 38.84 0.043 6.76 1.46 12.99
12/19/2021 11:00:00 AM 3.78 38.804 0.043 6.78 1.44 13.04
12/19/2021 11:15:00 AM 3.76 38.768 0.043 6.79 1.42 13.11
12/19/2021 11:30:00 AM 3.77 38.786 0.043 6.8 1.47 13.15
12/19/2021 11:45:00 AM 3.79 38.822 0.042 6.82 1.45 13.18
12/19/2021 12:00:00 PM 3.81 38.858 0.042 6.83 1.42 13.2
12/19/2021 12:15:00 PM 3.82 38.876 0.042 6.83 1.37 13.22
12/19/2021 12:30:00 PM 3.85 38.93 0.042 6.83 1.42 13.22
12/19/2021 12:45:00 PM 3.86 38.948 0.042 6.84 1.4 13.22
12/19/2021 1:00:00 PM 3.87 38.966 0.042 6.85 1.42 13.23
12/19/2021 1:15:00 PM 3.89 39.002 0.042 6.84 1.41 13.22
12/19/2021 1:30:00 PM 3.91 39.038 0.042 6.85 1.46 13.23
12/19/2021 1:45:00 PM 3.95 39.11 0.042 6.85 1.43 13.23
12/19/2021 2:00:00 PM 3.96 39.128 0.042 6.86 1.41 13.22
12/19/2021 2:15:00 PM 3.95 39.11 0.042 6.85 1.43 13.21
12/19/2021 2:30:00 PM 3.93 39.074 0.042 6.86 1.41 13.2
12/19/2021 2:45:00 PM 3.92 39.056 0.042 6.85 1.4 13.19
12/19/2021 3:00:00 PM 3.89 39.002 0.042 6.84 1.42 13.17
12/19/2021 3:15:00 PM 3.86 38.948 0.042 6.83 1.41 13.15
12/19/2021 3:30:00 PM 3.83 38.894 0.041 6.82 1.49 13.14
12/19/2021 3:45:00 PM 3.81 38.858 0.041 6.82 1.46 13.12
12/19/2021 4:00:00 PM 3.76 38.768 0.042 6.8 1.42 13.06
12/19/2021 4:15:00 PM 3.72 38.696 0.042 6.78 1.47 13.01
12/19/2021 4:30:00 PM 3.69 38.642 0.042 6.76 1.46 12.94
12/19/2021 4:45:00 PM 3.65 38.57 0.042 6.75 1.42 12.88
12/19/2021 5:00:00 PM 3.6 38.48 0.042 6.73 1.44 12.83
12/19/2021 5:15:00 PM 3.54 38.372 0.042 6.71 1.43 12.8
12/19/2021 5:30:00 PM 3.49 38.282 0.042 6.7 1.46 12.78
12/19/2021 5:45:00 PM 3.45 38.21 0.042 6.7 1.45 12.78
12/19/2021 6:00:00 PM 3.39 38.102 0.042 6.69 1.42 12.78
12/19/2021 6:15:00 PM 3.34 38.012 0.042 6.69 1.44 12.79
12/19/2021 6:30:00 PM 3.29 37.922 0.043 6.69 1.43 12.8
12/19/2021 6:45:00 PM 3.25 37.85 0.043 6.69 1.41 12.82
12/19/2021 7:00:00 PM 3.19 37.742 0.043 6.68 1.43 12.82
12/19/2021 7:15:00 PM 3.13 37.634 0.043 6.68 1.43 12.84
12/19/2021 7:30:00 PM 3.08 37.544 0.043 6.68 1.44 12.86
12/19/2021 7:45:00 PM 3.04 37.472 0.043 6.67 1.44 12.88
12/19/2021 8:00:00 PM 3 37.4 0.043 6.68 1.42 12.9
12/19/2021 8:15:00 PM 2.93 37.274 0.043 6.67 1.46 12.92
12/19/2021 8:30:00 PM 2.9 37.22 0.043 6.67 1.44 12.94
12/19/2021 8:45:00 PM 2.85 37.13 0.043 6.66 1.43 12.95
12/19/2021 9:00:00 PM 2.82 37.076 0.043 6.67 1.47 12.96
12/19/2021 9:15:00 PM 2.78 37.004 0.043 6.67 1.46 12.98
12/19/2021 9:30:00 PM 2.73 36.914 0.043 6.67 1.45 13
12/19/2021 9:45:00 PM 2.7 36.86 0.043 6.66 1.43 13.02
12/19/2021 10:00:00 PM 2.67 36.806 0.043 6.67 1.42 13.02
12/19/2021 10:15:00 PM 2.63 36.734 0.043 6.67 1.43 13.04
12/19/2021 10:30:00 PM 2.59 36.662 0.043 6.67 1.44 13.06
12/19/2021 10:45:00 PM 2.54 36.572 0.043 6.67 1.43 13.06
12/19/2021 11:00:00 PM 2.51 36.518 0.043 6.67 1.42 13.07
12/19/2021 11:15:00 PM 2.47 36.446 0.043 6.67 1.39 13.09
12/19/2021 11:30:00 PM 2.43 36.374 0.043 6.66 1.44 13.1
12/19/2021 11:45:00 PM 2.39 36.302 0.043 6.67 1.41 13.12
12/20/2021 12:00:00 AM 2.36 36.248 0.043 6.66 1.45 13.14
12/20/2021 12:15:00 AM 2.33 36.194 0.043 6.67 1.43 13.15
12/20/2021 12:30:00 AM 2.28 36.104 0.043 6.67 1.42 13.16
12/20/2021 12:45:00 AM 2.24 36.032 0.043 6.67 1.46 13.17
12/20/2021 1:00:00 AM 2.2 35.96 0.043 6.66 1.43 13.19
12/20/2021 1:15:00 AM 2.17 35.906 0.043 6.66 1.41 13.21
12/20/2021 1:30:00 AM 2.14 35.852 0.043 6.67 1.42 13.21
12/20/2021 1:45:00 AM 2.12 35.816 0.043 6.66 1.43 13.22
12/20/2021 2:00:00 AM 2.09 35.762 0.043 6.67 1.46 13.25
12/20/2021 2:15:00 AM 2.07 35.726 0.043 6.67 1.44 13.26
12/20/2021 2:30:00 AM 2.06 35.708 0.043 6.66 1.44 13.26
12/20/2021 2:45:00 AM 2.04 35.672 0.043 6.66 1.45 13.27
12/20/2021 3:00:00 AM 2.01 35.618 0.043 6.66 1.45 13.28
12/20/2021 3:15:00 AM 1.99 35.582 0.043 6.66 1.47 13.28
12/20/2021 3:30:00 AM 1.97 35.546 0.043 6.66 1.38 13.29
12/20/2021 3:45:00 AM 1.93 35.474 0.043 6.66 1.45 13.3
12/20/2021 4:00:00 AM 1.89 35.402 0.043 6.62 1.44 13.32
12/20/2021 4:15:00 AM 1.85 35.33 0.043 6.62 1.45 13.33
12/20/2021 4:30:00 AM 1.8 35.24 0.043 6.62 1.42 13.34
12/20/2021 4:45:00 AM 1.76 35.168 0.043 6.62 1.38 13.35
12/20/2021 5:00:00 AM 1.72 35.096 0.043 6.61 1.44 13.37
12/20/2021 5:15:00 AM 1.67 35.006 0.043 6.61 1.42 13.38
12/20/2021 5:30:00 AM 1.63 34.934 0.043 6.61 1.44 13.4
12/20/2021 5:45:00 AM 1.58 34.844 0.044 6.61 1.42 13.42
12/20/2021 6:00:00 AM 1.53 34.754 0.043 6.61 1.42 13.45
12/20/2021 6:15:00 AM 1.49 34.682 0.043 6.61 1.43 13.46
12/20/2021 6:30:00 AM 1.45 34.61 0.044 6.6 1.41 13.48
12/20/2021 6:45:00 AM 1.4 34.52 0.043 6.61 1.47 13.5
12/20/2021 7:00:00 AM 1.36 34.448 0.043 6.6 1.44 13.51
12/20/2021 7:15:00 AM 1.31 34.358 0.044 6.61 1.42 13.53
12/20/2021 7:30:00 AM 1.26 34.268 0.043 6.61 1.44 13.57
12/20/2021 7:45:00 AM 1.23 34.214 0.044 6.61 1.43 13.61
12/20/2021 8:00:00 AM 1.19 34.142 0.043 6.62 1.43 13.67
12/20/2021 8:15:00 AM 1.16 34.088 0.043 6.63 1.44 13.74
12/20/2021 8:30:00 AM 1.13 34.034 0.043 6.64 1.48 13.81
12/20/2021 8:45:00 AM 1.11 33.998 0.043 6.66 1.45 13.87
12/20/2021 9:00:00 AM 1.09 33.962 0.043 6.68 1.45 13.92
12/20/2021 9:15:00 AM 1.08 33.944 0.043 6.69 1.45 13.96
12/20/2021 9:30:00 AM 1.08 33.944 0.043 6.7 1.43 14
12/20/2021 9:45:00 AM 1.09 33.962 0.043 6.71 1.42 14.02
12/20/2021 10:00:00 AM 1.12 34.016 0.043 6.73 1.43 14.07
12/20/2021 10:15:00 AM 1.16 34.088 0.043 6.74 1.41 14.11
12/20/2021 10:30:00 AM 1.24 34.232 0.043 6.75 1.46 14.13
12/20/2021 10:45:00 AM 1.34 34.412 0.043 6.76 1.4 14.15
12/20/2021 11:00:00 AM 1.46 34.628 0.043 6.78 1.41 14.14
12/20/2021 11:15:00 AM 1.56 34.808 0.043 6.79 1.38 14.12
12/20/2021 11:30:00 AM 1.7 35.06 0.043 6.79 1.37 14.09
12/20/2021 11:45:00 AM 1.87 35.366 0.042 6.8 1.36 14.06
12/20/2021 12:00:00 PM 1.99 35.582 0.042 6.8 1.36 14
12/20/2021 12:15:00 PM 2.07 35.726 0.042 6.8 1.33 13.95
12/20/2021 12:30:00 PM 2.16 35.888 0.042 6.8 1.42 13.89
12/20/2021 12:45:00 PM 2.24 36.032 0.042 6.79 1.37 13.87
12/20/2021 1:00:00 PM 2.29 36.122 0.042 6.8 1.34 13.84
12/20/2021 1:15:00 PM 2.34 36.212 0.042 6.8 1.38 13.79
12/20/2021 1:30:00 PM 2.36 36.248 0.042 6.8 1.33 13.76
12/20/2021 1:45:00 PM 2.37 36.266 0.042 6.79 1.36 13.74
12/20/2021 2:00:00 PM 2.36 36.248 0.042 6.79 1.37 13.72
12/20/2021 2:15:00 PM 2.34 36.212 0.043 6.79 1.44 13.71
12/20/2021 2:30:00 PM 2.32 36.176 0.043 6.79 1.38 13.69
12/20/2021 2:45:00 PM 2.28 36.104 0.043 6.79 1.36 13.68
12/20/2021 3:00:00 PM 2.26 36.068 0.043 6.79 1.38 13.67
12/20/2021 3:15:00 PM 2.22 35.996 0.043 6.78 1.37 13.66
12/20/2021 3:30:00 PM 2.17 35.906 0.043 6.78 1.34 13.64
12/20/2021 3:45:00 PM 2.11 35.798 0.043 6.77 1.38 13.62
12/20/2021 4:00:00 PM 2.08 35.744 0.043 6.76 1.35 13.58
12/20/2021 4:15:00 PM 2.04 35.672 0.043 6.76 1.38 13.55
12/20/2021 4:30:00 PM 2.01 35.618 0.043 6.74 1.37 13.5
12/20/2021 4:45:00 PM 1.98 35.564 0.044 6.73 1.38 13.46
12/20/2021 5:00:00 PM 1.95 35.51 0.044 6.73 1.37 13.41
12/20/2021 5:15:00 PM 1.92 35.456 0.044 6.71 1.42 13.38
12/20/2021 5:30:00 PM 1.9 35.42 0.044 6.71 1.38 13.36
12/20/2021 5:45:00 PM 1.88 35.384 0.044 6.7 1.39 13.33
12/20/2021 6:00:00 PM 1.86 35.348 0.044 6.7 1.41 13.33
12/20/2021 6:15:00 PM 1.85 35.33 0.044 6.7 1.45 13.31
12/20/2021 6:30:00 PM 1.83 35.294 0.044 6.69 1.41 13.31
12/20/2021 6:45:00 PM 1.82 35.276 0.044 6.69 1.43 13.31
12/20/2021 7:00:00 PM 1.81 35.258 0.044 6.69 1.45 13.3
12/20/2021 7:15:00 PM 1.8 35.24 0.044 6.68 1.41 13.3
12/20/2021 7:30:00 PM 1.78 35.204 0.044 6.68 1.45 13.3
12/20/2021 7:45:00 PM 1.77 35.186 0.045 6.68 1.42 13.31
12/20/2021 8:00:00 PM 1.75 35.15 0.045 6.68 1.43 13.31
12/20/2021 8:15:00 PM 1.73 35.114 0.045 6.68 1.42 13.32
12/20/2021 8:30:00 PM 1.71 35.078 0.045 6.68 1.44 13.32
12/20/2021 8:45:00 PM 1.69 35.042 0.045 6.68 1.46 13.34
12/20/2021 9:00:00 PM 1.67 35.006 0.045 6.68 1.41 13.34
12/20/2021 9:15:00 PM 1.65 34.97 0.045 6.68 1.43 13.36
12/20/2021 9:30:00 PM 1.63 34.934 0.045 6.68 1.45 13.36
12/20/2021 9:45:00 PM 1.62 34.916 0.045 6.68 1.41 13.36
12/20/2021 10:00:00 PM 1.6 34.88 0.045 6.68 1.43 13.37
12/20/2021 10:15:00 PM 1.59 34.862 0.045 6.68 1.41 13.37
12/20/2021 10:30:00 PM 1.57 34.826 0.045 6.68 1.44 13.38
12/20/2021 10:45:00 PM 1.55 34.79 0.045 6.68 1.49 13.38
12/20/2021 11:00:00 PM 1.54 34.772 0.045 6.67 1.41 13.38
12/20/2021 11:15:00 PM 1.53 34.754 0.045 6.68 1.42 13.39
12/20/2021 11:30:00 PM 1.5 34.7 0.045 6.68 1.4 13.4
12/20/2021 11:45:00 PM 1.48 34.664 0.045 6.67 1.43 13.4
12/21/2021 12:00:00 AM 1.46 34.628 0.045 6.68 1.42 13.41
12/21/2021 12:15:00 AM 1.43 34.574 0.045 6.67 1.45 13.42
12/21/2021 12:30:00 AM 1.41 34.538 0.045 6.67 1.42 13.43
12/21/2021 12:45:00 AM 1.38 34.484 0.045 6.67 1.43 13.44
12/21/2021 1:00:00 AM 1.36 34.448 0.045 6.67 1.41 13.45
12/21/2021 1:15:00 AM 1.33 34.394 0.045 6.67 1.43 13.46
12/21/2021 1:30:00 AM 1.31 34.358 0.045 6.67 1.39 13.46
12/21/2021 1:45:00 AM 1.28 34.304 0.045 6.67 1.43 13.47
12/21/2021 2:00:00 AM 1.25 34.25 0.045 6.67 1.42 13.48
12/21/2021 2:15:00 AM 1.22 34.196 0.045 6.67 1.42 13.48
12/21/2021 2:30:00 AM 1.19 34.142 0.045 6.68 1.44 13.5
12/21/2021 2:45:00 AM 1.17 34.106 0.045 6.66 1.4 13.5
12/21/2021 3:00:00 AM 1.15 34.07 0.045 6.67 1.41 13.51
12/21/2021 3:15:00 AM 1.12 34.016 0.045 6.67 1.41 13.53
12/21/2021 3:30:00 AM 1.1 33.98 0.045 6.67 1.41 13.54
12/21/2021 3:45:00 AM 1.07 33.926 0.045 6.67 1.41 13.54
12/21/2021 4:00:00 AM 1.04 33.872 0.045 6.67 1.45 13.55
12/21/2021 4:15:00 AM 1.02 33.836 0.045 6.67 1.43 13.57
12/21/2021 4:30:00 AM 1 33.8 0.045 6.66 1.42 13.58
12/21/2021 4:45:00 AM 0.97 33.746 0.045 6.67 1.54 13.59
12/21/2021 5:00:00 AM 0.95 33.71 0.045 6.66 1.42 13.58
12/21/2021 5:15:00 AM 0.93 33.674 0.045 6.67 1.44 13.6
12/21/2021 5:30:00 AM 0.9 33.62 0.045 6.67 1.42 13.61
12/21/2021 5:45:00 AM 0.89 33.602 0.045 6.66 1.42 13.62
12/21/2021 6:00:00 AM 0.87 33.566 0.045 6.66 1.47 13.63
12/21/2021 6:15:00 AM 0.87 33.566 0.045 6.66 1.43 13.62
12/21/2021 6:30:00 AM 0.87 33.566 0.045 6.66 1.4 13.63
12/21/2021 6:45:00 AM 0.88 33.584 0.045 6.66 1.46 13.64
12/21/2021 7:00:00 AM 0.89 33.602 0.045 6.66 1.42 13.63
12/21/2021 7:15:00 AM 0.91 33.638 0.045 6.66 1.48 13.63
12/21/2021 7:30:00 AM 0.93 33.674 0.045 6.66 1.44 13.63
12/21/2021 7:45:00 AM 0.94 33.692 0.044 6.67 1.42 13.64
12/21/2021 8:00:00 AM 0.97 33.746 0.044 6.67 1.42 13.67
12/21/2021 8:15:00 AM 0.99 33.782 0.044 6.68 1.45 13.71
12/21/2021 8:30:00 AM 1.02 33.836 0.044 6.69 1.41 13.76
12/21/2021 8:45:00 AM 1.06 33.908 0.044 6.7 1.4 13.79
12/21/2021 9:00:00 AM 1.1 33.98 0.044 6.7 1.4 13.83
12/21/2021 9:15:00 AM 1.14 34.052 0.044 6.72 1.44 13.89
12/21/2021 9:30:00 AM 1.19 34.142 0.044 6.73 1.38 13.93
12/21/2021 9:45:00 AM 1.25 34.25 0.044 6.75 1.4 13.98
12/21/2021 10:00:00 AM 1.32 34.376 0.044 6.76 1.39 14
12/21/2021 10:15:00 AM 1.41 34.538 0.044 6.77 1.38 14.03
12/21/2021 10:30:00 AM 1.48 34.664 0.043 6.78 1.38 14.03
12/21/2021 10:45:00 AM 1.54 34.772 0.043 6.79 1.38 14.02
12/21/2021 11:00:00 AM 1.56 34.808 0.043 6.79 1.37 13.99
12/21/2021 11:15:00 AM 1.63 34.934 0.043 6.78 1.38 13.97
12/21/2021 11:30:00 AM 1.7 35.06 0.043 6.79 1.35 13.97
12/21/2021 11:45:00 AM 1.77 35.186 0.043 6.8 1.37 13.94
12/21/2021 12:00:00 PM 1.85 35.33 0.043 6.8 1.37 13.91
12/21/2021 12:15:00 PM 1.94 35.492 0.043 6.8 1.31 13.88
12/21/2021 12:30:00 PM 2.04 35.672 0.043 6.8 1.35 13.83
12/21/2021 12:45:00 PM 2.15 35.87 0.043 6.8 1.36 13.81
12/21/2021 1:00:00 PM 2.2 35.96 0.043 6.81 1.33 13.75
12/21/2021 1:15:00 PM 2.21 35.978 0.043 6.8 1.33 13.69
12/21/2021 1:30:00 PM 2.24 36.032 0.043 6.8 1.33 13.69
12/21/2021 1:45:00 PM 2.28 36.104 0.043 6.8 1.34 13.67
12/21/2021 2:00:00 PM 2.33 36.194 0.043 6.8 1.36 13.65
12/21/2021 2:15:00 PM 2.36 36.248 0.043 6.8 1.36 13.62
12/21/2021 2:30:00 PM 2.39 36.302 0.043 6.8 1.37 13.59
12/21/2021 2:45:00 PM 2.39 36.302 0.043 6.8 1.4 13.58
12/21/2021 3:00:00 PM 2.37 36.266 0.043 6.8 1.34 13.56
12/21/2021 3:15:00 PM 2.36 36.248 0.043 6.8 1.35 13.55
12/21/2021 3:30:00 PM 2.34 36.212 0.043 6.79 1.34 13.54
12/21/2021 3:45:00 PM 2.33 36.194 0.043 6.79 1.35 13.53
12/21/2021 4:00:00 PM 2.32 36.176 0.043 6.78 1.32 13.5
12/21/2021 4:15:00 PM 2.3 36.14 0.043 6.78 1.33 13.44
12/21/2021 4:30:00 PM 2.29 36.122 0.043 6.76 1.35 13.38
12/21/2021 4:45:00 PM 2.27 36.086 0.044 6.75 1.31 13.31
12/21/2021 5:00:00 PM 2.24 36.032 0.044 6.74 1.34 13.24
12/21/2021 5:15:00 PM 2.21 35.978 0.044 6.72 1.34 13.19
12/21/2021 5:30:00 PM 2.18 35.924 0.044 6.71 1.36 13.17
12/21/2021 5:45:00 PM 2.16 35.888 0.044 6.71 1.36 13.15
12/21/2021 6:00:00 PM 2.14 35.852 0.044 6.71 1.36 13.13
12/21/2021 6:15:00 PM 2.12 35.816 0.044 6.7 1.36 13.11
12/21/2021 6:30:00 PM 2.11 35.798 0.044 6.7 1.37 13.1
12/21/2021 6:45:00 PM 2.1 35.78 0.044 6.69 1.36 13.1
12/21/2021 7:00:00 PM 2.09 35.762 0.044 6.69 1.33 13.1
12/21/2021 7:15:00 PM 2.08 35.744 0.045 6.69 1.37 13.1
12/21/2021 7:30:00 PM 2.06 35.708 0.045 6.69 1.36 13.1
12/21/2021 7:45:00 PM 2.05 35.69 0.045 6.68 1.37 13.09
12/21/2021 8:00:00 PM 2.03 35.654 0.045 6.69 1.34 13.11
12/21/2021 8:15:00 PM 2.01 35.618 0.045 6.68 1.39 13.11
12/21/2021 8:30:00 PM 2 35.6 0.045 6.68 1.35 13.11
12/21/2021 8:45:00 PM 1.97 35.546 0.045 6.68 1.36 13.12
12/21/2021 9:00:00 PM 1.94 35.492 0.045 6.69 1.37 13.14
12/21/2021 9:15:00 PM 1.92 35.456 0.045 6.68 1.42 13.14
12/21/2021 9:30:00 PM 1.91 35.438 0.045 6.68 1.38 13.13
12/21/2021 9:45:00 PM 1.89 35.402 0.045 6.68 1.37 13.14
12/21/2021 10:00:00 PM 1.88 35.384 0.045 6.68 1.36 13.14
12/21/2021 10:15:00 PM 1.87 35.366 0.045 6.68 1.38 13.14
12/21/2021 10:30:00 PM 1.86 35.348 0.045 6.68 1.42 13.14
12/21/2021 10:45:00 PM 1.85 35.33 0.045 6.67 1.43 13.14
12/21/2021 11:00:00 PM 1.84 35.312 0.045 6.67 1.38 13.15
12/21/2021 11:15:00 PM 1.84 35.312 0.045 6.68 1.41 13.15
12/21/2021 11:30:00 PM 1.83 35.294 0.045 6.68 1.4 13.14
12/21/2021 11:45:00 PM 1.84 35.312 0.045 6.68 1.39 13.15
12/22/2021 12:00:00 AM 1.85 35.33 0.045 6.68 1.37 13.14
12/22/2021 12:15:00 AM 1.88 35.384 0.045 6.67 1.36 13.14
12/22/2021 12:30:00 AM 1.9 35.42 0.045 6.67 1.37 13.13
12/22/2021 12:45:00 AM 1.92 35.456 0.045 6.67 1.4 13.12
12/22/2021 1:00:00 AM 1.94 35.492 0.045 6.68 1.36 13.11
12/22/2021 1:15:00 AM 1.94 35.492 0.045 6.68 1.37 13.11
12/22/2021 1:30:00 AM 1.93 35.474 0.045 6.68 1.37 13.11
12/22/2021 1:45:00 AM 1.92 35.456 0.045 6.67 1.37 13.09
12/22/2021 2:00:00 AM 1.91 35.438 0.045 6.68 1.37 13.09
12/22/2021 2:15:00 AM 1.89 35.402 0.045 6.67 1.36 13.09
12/22/2021 2:30:00 AM 1.87 35.366 0.045 6.67 1.36 13.09
12/22/2021 2:45:00 AM 1.84 35.312 0.045 6.67 1.38 13.1
12/22/2021 3:00:00 AM 1.81 35.258 0.045 6.67 1.39 13.11
12/22/2021 3:15:00 AM 1.78 35.204 0.045 6.68 1.39 13.11
12/22/2021 3:30:00 AM 1.74 35.132 0.045 6.67 1.4 13.13
12/22/2021 3:45:00 AM 1.71 35.078 0.045 6.67 1.38 13.14
12/22/2021 4:00:00 AM 1.67 35.006 0.045 6.67 1.38 13.14
12/22/2021 4:15:00 AM 1.63 34.934 0.045 6.67 1.39 13.15
12/22/2021 4:30:00 AM 1.61 34.898 0.045 6.67 1.4 13.16
12/22/2021 4:45:00 AM 1.56 34.808 0.045 6.67 1.37 13.17
12/22/2021 5:00:00 AM 1.53 34.754 0.045 6.67 1.37 13.19
12/22/2021 5:15:00 AM 1.5 34.7 0.045 6.67 1.38 13.19
12/22/2021 5:30:00 AM 1.47 34.646 0.045 6.67 1.48 13.21
12/22/2021 5:45:00 AM 1.45 34.61 0.045 6.67 1.38 13.22
12/22/2021 6:00:00 AM 1.44 34.592 0.045 6.66 1.39 13.23
12/22/2021 6:15:00 AM 1.43 34.574 0.045 6.67 1.38 13.23
12/22/2021 6:30:00 AM 1.42 34.556 0.045 6.67 1.44 13.24
12/22/2021 6:45:00 AM 1.43 34.574 0.045 6.66 1.38 13.24
12/22/2021 7:00:00 AM 1.42 34.556 0.045 6.66 1.39 13.24
12/22/2021 7:15:00 AM 1.42 34.556 0.045 6.66 1.41 13.25
12/22/2021 7:30:00 AM 1.42 34.556 0.045 6.66 1.38 13.26
12/22/2021 7:45:00 AM 1.42 34.556 0.045 6.67 1.39 13.28
12/22/2021 8:00:00 AM 1.41 34.538 0.045 6.68 1.38 13.32
12/22/2021 8:15:00 AM 1.43 34.574 0.045 6.69 1.39 13.41
12/22/2021 8:30:00 AM 1.47 34.646 0.045 6.7 1.37 13.44
12/22/2021 8:45:00 AM 1.49 34.682 0.045 6.71 1.35 13.48
12/22/2021 9:00:00 AM 1.53 34.754 0.045 6.72 1.37 13.52
12/22/2021 9:15:00 AM 1.57 34.826 0.044 6.73 1.38 13.56
12/22/2021 9:30:00 AM 1.61 34.898 0.044 6.75 1.36 13.59
12/22/2021 9:45:00 AM 1.66 34.988 0.044 6.76 1.32 13.65
12/22/2021 10:00:00 AM 1.69 35.042 0.044 6.77 1.35 13.67
12/22/2021 10:15:00 AM 1.74 35.132 0.044 6.78 1.35 13.69
12/22/2021 10:30:00 AM 1.81 35.258 0.044 6.79 1.33 13.7
12/22/2021 10:45:00 AM 1.91 35.438 0.044 6.8 1.35 13.7
12/22/2021 11:00:00 AM 1.97 35.546 0.044 6.81 1.32 13.69
12/22/2021 11:15:00 AM 2.05 35.69 0.044 6.81 1.3 13.67
12/22/2021 11:30:00 AM 2.1 35.78 0.044 6.81 1.33 13.64
12/22/2021 11:45:00 AM 2.17 35.906 0.044 6.82 1.34 13.63
12/22/2021 12:00:00 PM 2.27 36.086 0.044 6.83 1.34 13.6
12/22/2021 12:15:00 PM 2.41 36.338 0.043 6.83 1.29 13.58
12/22/2021 12:30:00 PM 2.49 36.482 0.043 6.83 1.3 13.52
12/22/2021 12:45:00 PM 2.48 36.464 0.043 6.82 1.38 13.48
12/22/2021 1:00:00 PM 2.5 36.5 0.043 6.83 1.3 13.48
12/22/2021 1:15:00 PM 2.52 36.536 0.043 6.84 1.26 13.49
12/22/2021 1:30:00 PM 2.56 36.608 0.043 6.84 1.28 13.5
12/22/2021 1:45:00 PM 2.57 36.626 0.043 6.84 1.31 13.48
12/22/2021 2:00:00 PM 2.64 36.752 0.043 6.84 1.32 13.44
12/22/2021 2:15:00 PM 2.66 36.788 0.043 6.83 1.29 13.4
12/22/2021 2:30:00 PM 2.66 36.788 0.043 6.83 1.3 13.38
12/22/2021 2:45:00 PM 2.66 36.788 0.043 6.83 1.26 13.37
12/22/2021 3:00:00 PM 2.66 36.788 0.043 6.82 1.27 13.34
12/22/2021 3:15:00 PM 2.66 36.788 0.043 6.83 1.31 13.35
12/22/2021 3:30:00 PM 2.67 36.806 0.043 6.83 1.35 13.36
12/22/2021 3:45:00 PM 2.63 36.734 0.044 6.81 1.31 13.3
12/22/2021 4:00:00 PM 2.57 36.626 0.044 6.81 1.32 13.29
12/22/2021 4:15:00 PM 2.55 36.59 0.044 6.79 1.34 13.26
12/22/2021 4:30:00 PM 2.48 36.464 0.044 6.78 1.29 13.21
12/22/2021 4:45:00 PM 2.42 36.356 0.044 6.77 1.36 13.16
12/22/2021 5:00:00 PM 2.39 36.302 0.044 6.75 1.33 13.11
12/22/2021 5:15:00 PM 2.35 36.23 0.044 6.74 1.33 13.08
12/22/2021 5:30:00 PM 2.33 36.194 0.044 6.74 1.33 13.05
12/22/2021 5:45:00 PM 2.3 36.14 0.044 6.73 1.34 13.03
12/22/2021 6:00:00 PM 2.27 36.086 0.044 6.72 1.34 13.03
12/22/2021 6:15:00 PM 2.21 35.978 0.045 6.72 1.32 13.03
12/22/2021 6:30:00 PM 2.17 35.906 0.045 6.72 1.36 13.04
12/22/2021 6:45:00 PM 2.14 35.852 0.045 6.71 1.37 13.05
12/22/2021 7:00:00 PM 2.1 35.78 0.045 6.71 1.39 13.05
12/22/2021 7:15:00 PM 2.08 35.744 0.045 6.71 1.35 13.07
12/22/2021 7:30:00 PM 2.05 35.69 0.045 6.71 1.37 13.08
12/22/2021 7:45:00 PM 2.02 35.636 0.045 6.71 1.38 13.1
12/22/2021 8:00:00 PM 2 35.6 0.045 6.71 1.35 13.11
12/22/2021 8:15:00 PM 1.99 35.582 0.045 6.7 1.35 13.12
12/22/2021 8:30:00 PM 1.95 35.51 0.045 6.71 1.38 13.13
12/22/2021 8:45:00 PM 1.93 35.474 0.045 6.7 1.39 13.15
12/22/2021 9:00:00 PM 1.91 35.438 0.045 6.7 1.37 13.16
12/22/2021 9:15:00 PM 1.89 35.402 0.045 6.7 1.39 13.16
12/22/2021 9:30:00 PM 1.87 35.366 0.045 6.7 1.39 13.18
12/22/2021 9:45:00 PM 1.87 35.366 0.045 6.7 1.38 13.19
12/22/2021 10:00:00 PM 1.85 35.33 0.045 6.69 1.38 13.19
12/22/2021 10:15:00 PM 1.83 35.294 0.045 6.7 1.39 13.2
12/22/2021 10:30:00 PM 1.81 35.258 0.045 6.69 1.37 13.2
12/22/2021 10:45:00 PM 1.78 35.204 0.045 6.7 1.39 13.22
12/22/2021 11:00:00 PM 1.76 35.168 0.045 6.69 1.37 13.23
12/22/2021 11:15:00 PM 1.73 35.114 0.045 6.69 1.4 13.24
12/22/2021 11:30:00 PM 1.71 35.078 0.045 6.69 1.37 13.25
12/22/2021 11:45:00 PM 1.67 35.006 0.045 6.69 1.4 13.26
12/23/2021 12:00:00 AM 1.63 34.934 0.045 6.69 1.39 13.27
12/23/2021 12:15:00 AM 1.57 34.826 0.045 6.69 1.4 13.3
12/23/2021 12:30:00 AM 1.52 34.736 0.045 6.69 1.41 13.31
12/23/2021 12:45:00 AM 1.49 34.682 0.045 6.69 1.39 13.32
12/23/2021 1:00:00 AM 1.47 34.646 0.045 6.69 1.41 13.33
12/23/2021 1:15:00 AM 1.43 34.574 0.045 6.69 1.41 13.35
12/23/2021 1:30:00 AM 1.39 34.502 0.045 6.69 1.38 13.36
12/23/2021 1:45:00 AM 1.35 34.43 0.045 6.69 1.4 13.38
12/23/2021 2:00:00 AM 1.31 34.358 0.045 6.69 1.39 13.4
12/23/2021 2:15:00 AM 1.29 34.322 0.045 6.68 1.4 13.41
12/23/2021 2:30:00 AM 1.24 34.232 0.045 6.68 1.39 13.43
12/23/2021 2:45:00 AM 1.2 34.16 0.045 6.68 1.43 13.45
12/23/2021 3:00:00 AM 1.17 34.106 0.045 6.68 1.45 13.46
12/23/2021 3:15:00 AM 1.14 34.052 0.045 6.68 1.47 13.49
12/23/2021 3:30:00 AM 1.11 33.998 0.045 6.69 1.38 13.49
12/23/2021 3:45:00 AM 1.08 33.944 0.045 6.68 1.4 13.51
12/23/2021 4:00:00 AM 1.07 33.926 0.045 6.68 1.41 13.51
12/23/2021 4:15:00 AM 1.06 33.908 0.045 6.68 1.43 13.53
12/23/2021 4:30:00 AM 1.05 33.89 0.045 6.68 1.42 13.53
12/23/2021 4:45:00 AM 1.03 33.854 0.045 6.68 1.41 13.55
12/23/2021 5:00:00 AM 1.02 33.836 0.045 6.68 1.41 13.56
12/23/2021 5:15:00 AM 1.01 33.818 0.045 6.68 1.41 13.56
12/23/2021 5:30:00 AM 0.98 33.764 0.045 6.68 1.4 13.57
12/23/2021 5:45:00 AM 0.95 33.71 0.045 6.68 1.42 13.58
12/23/2021 6:00:00 AM 0.93 33.674 0.045 6.68 1.45 13.59
12/23/2021 6:15:00 AM 0.9 33.62 0.045 6.67 1.41 13.6
12/23/2021 6:30:00 AM 0.87 33.566 0.045 6.67 1.4 13.61
12/23/2021 6:45:00 AM 0.85 33.53 0.045 6.67 1.4 13.62
12/23/2021 7:00:00 AM 0.82 33.476 0.045 6.67 1.42 13.64
12/23/2021 7:15:00 AM 0.8 33.44 0.045 6.67 1.42 13.66
12/23/2021 7:30:00 AM 0.78 33.404 0.045 6.68 1.37 13.68
12/23/2021 7:45:00 AM 0.76 33.368 0.045 6.68 1.36 13.72
12/23/2021 8:00:00 AM 0.73 33.314 0.045 6.69 1.38 13.78
12/23/2021 8:15:00 AM 0.71 33.278 0.045 6.7 1.41 13.84
12/23/2021 8:30:00 AM 0.7 33.26 0.045 6.71 1.38 13.9
12/23/2021 8:45:00 AM 0.68 33.224 0.045 6.72 1.38 13.97
12/23/2021 9:00:00 AM 0.67 33.206 0.045 6.73 1.38 14.02
12/23/2021 9:15:00 AM 0.66 33.188 0.045 6.74 1.43 14.07
12/23/2021 9:30:00 AM 0.68 33.224 0.045 6.75 1.38 14.11
12/23/2021 9:45:00 AM 0.68 33.224 0.045 6.75 1.4 14.13
12/23/2021 10:00:00 AM 0.71 33.278 0.044 6.76 1.41 14.17
12/23/2021 10:15:00 AM 0.73 33.314 0.044 6.77 1.38 14.2
12/23/2021 10:30:00 AM 0.78 33.404 0.044 6.78 1.37 14.22
12/23/2021 10:45:00 AM 0.83 33.494 0.044 6.78 1.37 14.23
12/23/2021 11:00:00 AM 0.93 33.674 0.044 6.79 1.37 14.23
12/23/2021 11:15:00 AM 1 33.8 0.044 6.79 1.4 14.22
12/23/2021 11:30:00 AM 1.1 33.98 0.044 6.8 1.35 14.21
12/23/2021 11:45:00 AM 1.17 34.106 0.044 6.8 1.37 14.18
12/23/2021 12:00:00 PM 1.25 34.25 0.044 6.8 1.36 14.15
12/23/2021 12:15:00 PM 1.33 34.394 0.044 6.81 1.35 14.11
12/23/2021 12:30:00 PM 1.42 34.556 0.044 6.8 1.36 14.09
12/23/2021 12:45:00 PM 1.51 34.718 0.044 6.81 1.36 14.08
12/23/2021 1:00:00 PM 1.58 34.844 0.044 6.81 1.32 14.05
12/23/2021 1:15:00 PM 1.69 35.042 0.044 6.81 1.32 14.03
12/23/2021 1:30:00 PM 1.71 35.078 0.044 6.82 1.3 14
12/23/2021 1:45:00 PM 1.69 35.042 0.044 6.8 1.35 13.97
12/23/2021 2:00:00 PM 1.69 35.042 0.044 6.81 1.33 13.97
12/23/2021 2:15:00 PM 1.68 35.024 0.044 6.81 1.31 13.97
12/23/2021 2:30:00 PM 1.66 34.988 0.044 6.8 1.35 13.95
12/23/2021 2:45:00 PM 1.64 34.952 0.044 6.8 1.34 13.93
12/23/2021 3:00:00 PM 1.62 34.916 0.044 6.8 1.34 13.9
12/23/2021 3:15:00 PM 1.62 34.916 0.044 6.8 1.34 13.88
12/23/2021 3:30:00 PM 1.63 34.934 0.044 6.8 1.34 13.88
12/23/2021 3:45:00 PM 1.62 34.916 0.044 6.79 1.32 13.86
12/23/2021 4:00:00 PM 1.61 34.898 0.044 6.79 1.31 13.82
12/23/2021 4:15:00 PM 1.59 34.862 0.044 6.78 1.34 13.8
12/23/2021 4:30:00 PM 1.56 34.808 0.044 6.77 1.31 13.75
12/23/2021 4:45:00 PM 1.53 34.754 0.044 6.76 1.35 13.69
12/23/2021 5:00:00 PM 1.49 34.682 0.045 6.74 1.34 13.62
12/23/2021 5:15:00 PM 1.44 34.592 0.045 6.73 1.36 13.59
12/23/2021 5:30:00 PM 1.41 34.538 0.045 6.73 1.34 13.56
12/23/2021 5:45:00 PM 1.38 34.484 0.045 6.72 1.35 13.55
12/23/2021 6:00:00 PM 1.37 34.466 0.045 6.72 1.37 13.53
12/23/2021 6:15:00 PM 1.36 34.448 0.045 6.71 1.34 13.52
12/23/2021 6:30:00 PM 1.35 34.43 0.045 6.71 1.35 13.5
12/23/2021 6:45:00 PM 1.37 34.466 0.045 6.7 1.35 13.49
12/23/2021 7:00:00 PM 1.38 34.484 0.045 6.7 1.32 13.49
12/23/2021 7:15:00 PM 1.39 34.502 0.045 6.7 1.36 13.48
12/23/2021 7:30:00 PM 1.4 34.52 0.045 6.7 1.37 13.47
12/23/2021 7:45:00 PM 1.41 34.538 0.045 6.7 1.4 13.47
12/23/2021 8:00:00 PM 1.42 34.556 0.045 6.7 1.37 13.45
12/23/2021 8:15:00 PM 1.44 34.592 0.045 6.7 1.38 13.44
12/23/2021 8:30:00 PM 1.46 34.628 0.046 6.7 1.35 13.43
12/23/2021 8:45:00 PM 1.47 34.646 0.046 6.69 1.38 13.43
12/23/2021 9:00:00 PM 1.48 34.664 0.046 6.7 1.38 13.42
12/23/2021 9:15:00 PM 1.48 34.664 0.046 6.7 1.36 13.42
12/23/2021 9:30:00 PM 1.49 34.682 0.046 6.7 1.42 13.41
12/23/2021 9:45:00 PM 1.49 34.682 0.046 6.7 1.4 13.41
12/23/2021 10:00:00 PM 1.49 34.682 0.046 6.7 1.37 13.41
12/23/2021 10:15:00 PM 1.49 34.682 0.046 6.69 1.38 13.41
12/23/2021 10:30:00 PM 1.49 34.682 0.046 6.7 1.39 13.41
12/23/2021 10:45:00 PM 1.49 34.682 0.046 6.69 1.37 13.41
12/23/2021 11:00:00 PM 1.5 34.7 0.046 6.69 1.38 13.41
12/23/2021 11:15:00 PM 1.5 34.7 0.046 6.7 1.38 13.4
12/23/2021 11:30:00 PM 1.51 34.718 0.046 6.7 1.37 13.39
12/23/2021 11:45:00 PM 1.52 34.736 0.046 6.69 1.37 13.39
12/24/2021 12:00:00 AM 1.52 34.736 0.046 6.69 1.37 13.38
12/24/2021 12:15:00 AM 1.53 34.754 0.046 6.69 1.36 13.39
12/24/2021 12:30:00 AM 1.53 34.754 0.046 6.69 1.37 13.38
12/24/2021 12:45:00 AM 1.54 34.772 0.046 6.69 1.36 13.38
12/24/2021 1:00:00 AM 1.53 34.754 0.046 6.69 1.4 13.38
12/24/2021 1:15:00 AM 1.52 34.736 0.046 6.69 1.42 13.37
12/24/2021 1:30:00 AM 1.48 34.664 0.046 6.69 1.38 13.37
12/24/2021 1:45:00 AM 1.43 34.574 0.046 6.69 1.39 13.38
12/24/2021 2:00:00 AM 1.44 34.592 0.046 6.69 1.38 13.38
12/24/2021 2:15:00 AM 1.41 34.538 0.046 6.69 1.38 13.39
12/24/2021 2:30:00 AM 1.4 34.52 0.046 6.69 1.35 13.4
12/24/2021 2:45:00 AM 1.42 34.556 0.046 6.69 1.36 13.39
12/24/2021 3:00:00 AM 1.42 34.556 0.046 6.69 1.4 13.4
12/24/2021 3:15:00 AM 1.42 34.556 0.046 6.69 1.36 13.4
12/24/2021 3:30:00 AM 1.42 34.556 0.045 6.69 1.38 13.4
12/24/2021 3:45:00 AM 1.43 34.574 0.045 6.69 1.38 13.41
12/24/2021 4:00:00 AM 1.44 34.592 0.045 6.69 1.39 13.4
12/24/2021 4:15:00 AM 1.45 34.61 0.045 6.68 1.36 13.4
12/24/2021 4:30:00 AM 1.46 34.628 0.045 6.69 1.41 13.39
12/24/2021 4:45:00 AM 1.46 34.628 0.045 6.69 1.4 13.39
12/24/2021 5:00:00 AM 1.48 34.664 0.045 6.68 1.4 13.39
12/24/2021 5:15:00 AM 1.49 34.682 0.045 6.68 1.38 13.39
12/24/2021 5:30:00 AM 1.51 34.718 0.045 6.68 1.4 13.38
12/24/2021 5:45:00 AM 1.52 34.736 0.045 6.68 1.36 13.38
12/24/2021 6:00:00 AM 1.53 34.754 0.045 6.68 1.35 13.38
12/24/2021 6:15:00 AM 1.53 34.754 0.045 6.68 1.33 13.38
12/24/2021 6:30:00 AM 1.55 34.79 0.045 6.68 1.38 13.37
12/24/2021 6:45:00 AM 1.56 34.808 0.045 6.68 1.35 13.37
12/24/2021 7:00:00 AM 1.57 34.826 0.045 6.68 1.4 13.36
12/24/2021 7:15:00 AM 1.58 34.844 0.045 6.68 1.36 13.36
12/24/2021 7:30:00 AM 1.59 34.862 0.045 6.68 1.35 13.35
12/24/2021 7:45:00 AM 1.6 34.88 0.045 6.68 1.35 13.36
12/24/2021 8:00:00 AM 1.61 34.898 0.045 6.69 1.46 13.38
12/24/2021 8:15:00 AM 1.63 34.934 0.045 6.69 1.38 13.39
12/24/2021 8:30:00 AM 1.65 34.97 0.045 6.69 1.36 13.43
12/24/2021 8:45:00 AM 1.65 34.97 0.045 6.71 1.34 13.48
12/24/2021 9:00:00 AM 1.68 35.024 0.045 6.71 1.33 13.52
12/24/2021 9:15:00 AM 1.7 35.06 0.045 6.72 1.36 13.58
12/24/2021 9:30:00 AM 1.72 35.096 0.045 6.74 1.35 13.62
12/24/2021 9:45:00 AM 1.75 35.15 0.045 6.75 1.32 13.66
12/24/2021 10:00:00 AM 1.79 35.222 0.045 6.76 1.37 13.7
12/24/2021 10:15:00 AM 1.83 35.294 0.045 6.77 1.33 13.74
12/24/2021 10:30:00 AM 1.87 35.366 0.045 6.78 1.32 13.75
12/24/2021 10:45:00 AM 1.92 35.456 0.044 6.79 1.33 13.77
12/24/2021 11:00:00 AM 1.98 35.564 0.044 6.8 1.33 13.8
12/24/2021 11:15:00 AM 2.03 35.654 0.044 6.8 1.34 13.8
12/24/2021 11:30:00 AM 2.09 35.762 0.044 6.81 1.34 13.8
12/24/2021 11:45:00 AM 2.15 35.87 0.044 6.82 1.32 13.8
12/24/2021 12:00:00 PM 2.22 35.996 0.044 6.82 1.32 13.79
12/24/2021 12:15:00 PM 2.29 36.122 0.044 6.83 1.34 13.77
12/24/2021 12:30:00 PM 2.35 36.23 0.044 6.83 1.29 13.76
12/24/2021 12:45:00 PM 2.42 36.356 0.044 6.84 1.36 13.74
12/24/2021 1:00:00 PM 2.53 36.554 0.044 6.83 1.34 13.72
12/24/2021 1:15:00 PM 2.62 36.716 0.044 6.84 1.3 13.69
12/24/2021 1:30:00 PM 2.72 36.896 0.044 6.84 1.3 13.65
12/24/2021 1:45:00 PM 2.77 36.986 0.044 6.84 1.28 13.62
12/24/2021 2:00:00 PM 2.78 37.004 0.044 6.84 1.32 13.59
12/24/2021 2:15:00 PM 2.77 36.986 0.044 6.84 1.31 13.57
12/24/2021 2:30:00 PM 2.79 37.022 0.044 6.83 1.27 13.55
12/24/2021 2:45:00 PM 2.8 37.04 0.044 6.84 1.4 13.53
12/24/2021 3:00:00 PM 2.8 37.04 0.044 6.83 1.35 13.5
12/24/2021 3:15:00 PM 2.81 37.058 0.044 6.83 1.27 13.47
12/24/2021 3:30:00 PM 2.82 37.076 0.044 6.83 1.32 13.45
12/24/2021 3:45:00 PM 2.82 37.076 0.044 6.82 1.31 13.41
12/24/2021 4:00:00 PM 2.81 37.058 0.044 6.81 1.29 13.36
12/24/2021 4:15:00 PM 2.79 37.022 0.044 6.8 1.33 13.31
12/24/2021 4:30:00 PM 2.77 36.986 0.044 6.78 1.3 13.25
12/24/2021 4:45:00 PM 2.74 36.932 0.044 6.77 1.28 13.17
12/24/2021 5:00:00 PM 2.69 36.842 0.045 6.76 1.29 13.12
12/24/2021 5:15:00 PM 2.66 36.788 0.045 6.74 1.29 13.08
12/24/2021 5:30:00 PM 2.64 36.752 0.045 6.73 1.3 13.05
12/24/2021 5:45:00 PM 2.61 36.698 0.045 6.73 1.33 13.03
12/24/2021 6:00:00 PM 2.57 36.626 0.045 6.72 1.34 13.01
12/24/2021 6:15:00 PM 2.55 36.59 0.045 6.71 1.33 12.99
12/24/2021 6:30:00 PM 2.53 36.554 0.045 6.71 1.36 13
12/24/2021 6:45:00 PM 2.52 36.536 0.045 6.7 1.36 12.99
12/24/2021 7:00:00 PM 2.52 36.536 0.045 6.71 1.33 12.99
12/24/2021 7:15:00 PM 2.52 36.536 0.045 6.71 1.32 12.98
12/24/2021 7:30:00 PM 2.52 36.536 0.045 6.7 1.3 12.98
12/24/2021 7:45:00 PM 2.52 36.536 0.045 6.7 1.35 12.97
12/24/2021 8:00:00 PM 2.53 36.554 0.046 6.7 1.31 12.96
12/24/2021 8:15:00 PM 2.53 36.554 0.046 6.7 1.32 12.96
12/24/2021 8:30:00 PM 2.54 36.572 0.046 6.7 1.33 12.96
12/24/2021 8:45:00 PM 2.55 36.59 0.046 6.7 1.32 12.95
12/24/2021 9:00:00 PM 2.55 36.59 0.046 6.7 1.31 12.95
12/24/2021 9:15:00 PM 2.56 36.608 0.046 6.7 1.32 12.95
12/24/2021 9:30:00 PM 2.56 36.608 0.046 6.69 1.38 12.95
12/24/2021 9:45:00 PM 2.55 36.59 0.046 6.69 1.39 12.95
12/24/2021 10:00:00 PM 2.55 36.59 0.046 6.69 1.35 12.94
12/24/2021 10:15:00 PM 2.54 36.572 0.046 6.7 1.34 12.95
12/24/2021 10:30:00 PM 2.54 36.572 0.046 6.7 1.33 12.95
12/24/2021 10:45:00 PM 2.54 36.572 0.046 6.69 1.36 12.95
12/24/2021 11:00:00 PM 2.55 36.59 0.046 6.7 1.32 12.94
12/24/2021 11:15:00 PM 2.57 36.626 0.046 6.69 1.4 12.93
12/24/2021 11:30:00 PM 2.58 36.644 0.046 6.68 1.33 12.93
12/24/2021 11:45:00 PM 2.59 36.662 0.046 6.69 1.34 12.93
12/25/2021 12:00:00 AM 2.6 36.68 0.046 6.69 1.34 12.93
12/25/2021 12:15:00 AM 2.61 36.698 0.046 6.69 1.38 12.91
12/25/2021 12:30:00 AM 2.62 36.716 0.046 6.69 1.34 12.91
12/25/2021 12:45:00 AM 2.64 36.752 0.046 6.69 1.35 12.9
12/25/2021 1:00:00 AM 2.66 36.788 0.046 6.69 1.35 12.89
12/25/2021 1:15:00 AM 2.68 36.824 0.046 6.69 1.33 12.88
12/25/2021 1:30:00 AM 2.7 36.86 0.046 6.69 1.3 12.87
12/25/2021 1:45:00 AM 2.71 36.878 0.046 6.69 1.35 12.86
12/25/2021 2:00:00 AM 2.73 36.914 0.046 6.69 1.33 12.85
12/25/2021 2:15:00 AM 2.74 36.932 0.046 6.69 1.36 12.85
12/25/2021 2:30:00 AM 2.75 36.95 0.046 6.69 1.33 12.84
12/25/2021 2:45:00 AM 2.76 36.968 0.046 6.69 1.31 12.83
12/25/2021 3:00:00 AM 2.78 37.004 0.046 6.69 1.35 12.82
12/25/2021 3:15:00 AM 2.8 37.04 0.046 6.69 1.31 12.81
12/25/2021 3:30:00 AM 2.8 37.04 0.046 6.69 1.29 12.8
12/25/2021 3:45:00 AM 2.82 37.076 0.046 6.69 1.33 12.79
12/25/2021 4:00:00 AM 2.83 37.094 0.046 6.69 1.35 12.79
12/25/2021 4:15:00 AM 2.83 37.094 0.046 6.69 1.3 12.79
12/25/2021 4:30:00 AM 2.85 37.13 0.046 6.69 1.3 12.78
12/25/2021 4:45:00 AM 2.85 37.13 0.046 6.69 1.3 12.77
12/25/2021 5:00:00 AM 2.86 37.148 0.046 6.69 1.31 12.76
12/25/2021 5:15:00 AM 2.88 37.184 0.046 6.69 1.41 12.76
12/25/2021 5:30:00 AM 2.89 37.202 0.046 6.69 1.36 12.75
12/25/2021 5:45:00 AM 2.91 37.238 0.046 6.69 1.29 12.74
12/25/2021 6:00:00 AM 2.92 37.256 0.046 6.69 1.37 12.74
12/25/2021 6:15:00 AM 2.93 37.274 0.046 6.68 1.3 12.73
12/25/2021 6:30:00 AM 2.94 37.292 0.046 6.69 1.35 12.72
12/25/2021 6:45:00 AM 2.95 37.31 0.046 6.69 1.4 12.72
12/25/2021 7:00:00 AM 2.96 37.328 0.046 6.68 1.39 12.71
12/25/2021 7:15:00 AM 2.98 37.364 0.046 6.68 1.39 12.7
12/25/2021 7:30:00 AM 2.98 37.364 0.046 6.68 1.37 12.7
12/25/2021 7:45:00 AM 3 37.4 0.046 6.69 1.39 12.7
12/25/2021 8:00:00 AM 3.01 37.418 0.046 6.7 1.38 12.72
12/25/2021 8:15:00 AM 3.03 37.454 0.046 6.71 1.38 12.77
12/25/2021 8:30:00 AM 3.06 37.508 0.046 6.72 1.41 12.83
12/25/2021 8:45:00 AM 3.09 37.562 0.047 6.73 1.41 12.88
12/25/2021 9:00:00 AM 3.12 37.616 0.047 6.75 1.41 12.9
12/25/2021 9:15:00 AM 3.14 37.652 0.047 6.76 1.41 12.94
12/25/2021 9:30:00 AM 3.17 37.706 0.047 6.77 1.44 12.97
12/25/2021 9:45:00 AM 3.2 37.76 0.048 6.79 1.47 13
12/25/2021 10:00:00 AM 3.22 37.796 0.048 6.79 1.48 12.99
12/25/2021 10:15:00 AM 3.24 37.832 0.048 6.79 1.6 12.94
12/25/2021 10:30:00 AM 3.27 37.886 0.049 6.8 1.72 12.93
12/25/2021 10:45:00 AM 3.3 37.94 0.049 6.8 1.88 12.97
12/25/2021 11:00:00 AM 3.34 38.012 0.049 6.82 1.94 13.02
12/25/2021 11:15:00 AM 3.39 38.102 0.05 6.84 2.1 13.04
12/25/2021 11:30:00 AM 3.45 38.21 0.049 6.85 1.97 13.08
12/25/2021 11:45:00 AM 3.51 38.318 0.049 6.86 1.98 13.09
12/25/2021 12:00:00 PM 3.55 38.39 0.049 6.87 1.8 13.06
12/25/2021 12:15:00 PM 3.58 38.444 0.049 6.87 1.76 13.01
12/25/2021 12:30:00 PM 3.61 38.498 0.049 6.86 1.94 12.96
12/25/2021 12:45:00 PM 3.66 38.588 0.049 6.87 1.64 12.97
12/25/2021 1:00:00 PM 3.71 38.678 0.049 6.87 1.71 12.99
12/25/2021 1:15:00 PM 3.77 38.786 0.049 6.89 1.66 12.98
12/25/2021 1:30:00 PM 3.83 38.894 0.049 6.89 1.72 12.97
12/25/2021 1:45:00 PM 3.87 38.966 0.049 6.89 1.68 12.96
12/25/2021 2:00:00 PM 3.95 39.11 0.049 6.9 1.65 12.96
12/25/2021 2:15:00 PM 4.01 39.218 0.048 6.9 1.68 12.95
12/25/2021 2:30:00 PM 4.06 39.308 0.048 6.91 1.76 12.91
12/25/2021 2:45:00 PM 4.09 39.362 0.049 6.89 1.76 12.8
12/25/2021 3:00:00 PM 4.14 39.452 0.048 6.89 1.84 12.8
12/25/2021 3:15:00 PM 4.17 39.506 0.048 6.88 1.79 12.76
12/25/2021 3:30:00 PM 4.2 39.56 0.048 6.87 1.73 12.71
12/25/2021 3:45:00 PM 4.24 39.632 0.048 6.85 1.7 12.65
12/25/2021 4:00:00 PM 4.27 39.686 0.048 6.85 1.66 12.57
12/25/2021 4:15:00 PM 4.29 39.722 0.048 6.83 1.67 12.53
12/25/2021 4:30:00 PM 4.31 39.758 0.048 6.81 1.69 12.47
12/25/2021 4:45:00 PM 4.32 39.776 0.049 6.81 1.63 12.4
12/25/2021 5:00:00 PM 4.34 39.812 0.049 6.79 1.66 12.34
12/25/2021 5:15:00 PM 4.35 39.83 0.049 6.78 1.63 12.31
12/25/2021 5:30:00 PM 4.36 39.848 0.049 6.77 1.65 12.27
12/25/2021 5:45:00 PM 4.37 39.866 0.049 6.77 1.75 12.25
12/25/2021 6:00:00 PM 4.39 39.902 0.049 6.76 1.65 12.23
12/25/2021 6:15:00 PM 4.4 39.92 0.049 6.75 1.66 12.22
12/25/2021 6:30:00 PM 4.4 39.92 0.049 6.75 1.67 12.21
12/25/2021 6:45:00 PM 4.42 39.956 0.049 6.75 1.65 12.2
12/25/2021 7:00:00 PM 4.43 39.974 0.049 6.74 1.63 12.2
12/25/2021 7:15:00 PM 4.44 39.992 0.049 6.74 1.68 12.19
12/25/2021 7:30:00 PM 4.45 40.01 0.049 6.73 1.63 12.18
12/25/2021 7:45:00 PM 4.45 40.01 0.049 6.74 1.63 12.18
12/25/2021 8:00:00 PM 4.46 40.028 0.049 6.74 1.63 12.18
12/25/2021 8:15:00 PM 4.47 40.046 0.049 6.73 1.67 12.18
12/25/2021 8:30:00 PM 4.48 40.064 0.049 6.73 1.69 12.18
12/25/2021 8:45:00 PM 4.48 40.064 0.049 6.72 1.63 12.18
12/25/2021 9:00:00 PM 4.48 40.064 0.049 6.73 1.59 12.18
12/25/2021 9:15:00 PM 4.49 40.082 0.049 6.73 1.57 12.18
12/25/2021 9:30:00 PM 4.49 40.082 0.048 6.73 1.58 12.19
12/25/2021 9:45:00 PM 4.49 40.082 0.048 6.73 1.55 12.18
12/25/2021 10:00:00 PM 4.51 40.118 0.048 6.73 1.57 12.19
12/25/2021 10:15:00 PM 4.54 40.172 0.048 6.73 2.39 12.19
12/25/2021 10:30:00 PM 4.55 40.19 0.048 6.73 1.55 12.19
12/25/2021 10:45:00 PM 4.57 40.226 0.048 6.73 1.55 12.18
12/25/2021 11:00:00 PM 4.58 40.244 0.048 6.73 1.55 12.18
12/25/2021 11:15:00 PM 4.6 40.28 0.048 6.73 1.51 12.17
12/25/2021 11:30:00 PM 4.61 40.298 0.048 6.74 1.54 12.18
12/25/2021 11:45:00 PM 4.63 40.334 0.048 6.73 1.51 12.17
12/26/2021 12:00:00 AM 4.65 40.37 0.048 6.73 1.51 12.18
12/26/2021 12:15:00 AM 4.66 40.388 0.048 6.74 1.52 12.17
12/26/2021 12:30:00 AM 4.66 40.388 0.048 6.73 1.48 12.17
12/26/2021 12:45:00 AM 4.66 40.388 0.048 6.74 1.48 12.16
12/26/2021 1:00:00 AM 4.67 40.406 0.048 6.73 1.54 12.17
12/26/2021 1:15:00 AM 4.67 40.406 0.047 6.74 1.52 12.17
12/26/2021 1:30:00 AM 4.67 40.406 0.047 6.72 1.56 12.18
12/26/2021 1:45:00 AM 4.65 40.37 0.047 6.73 1.53 12.18
12/26/2021 2:00:00 AM 4.64 40.352 0.047 6.73 1.51 12.18
12/26/2021 2:15:00 AM 4.62 40.316 0.047 6.73 1.51 12.18
12/26/2021 2:30:00 AM 4.6 40.28 0.047 6.73 1.47 12.19
12/26/2021 2:45:00 AM 4.6 40.28 0.047 6.72 1.55 12.19
12/26/2021 3:00:00 AM 4.6 40.28 0.047 6.72 1.51 12.19
12/26/2021 3:15:00 AM 4.59 40.262 0.047 6.73 1.46 12.2
12/26/2021 3:30:00 AM 4.59 40.262 0.047 6.72 1.49 12.21
12/26/2021 3:45:00 AM 4.59 40.262 0.047 6.72 1.53 12.21
12/26/2021 4:00:00 AM 4.59 40.262 0.047 6.71 1.48 12.21
12/26/2021 4:15:00 AM 4.58 40.244 0.047 6.72 1.52 12.22
12/26/2021 4:30:00 AM 4.57 40.226 0.047 6.72 1.51 12.22
12/26/2021 4:45:00 AM 4.56 40.208 0.047 6.71 1.49 12.23
12/26/2021 5:00:00 AM 4.55 40.19 0.047 6.71 1.47 12.23
12/26/2021 5:15:00 AM 4.53 40.154 0.047 6.72 1.5 12.24
12/26/2021 5:30:00 AM 4.52 40.136 0.047 6.72 1.46 12.25
12/26/2021 5:45:00 AM 4.5 40.1 0.047 6.71 1.45 12.26
12/26/2021 6:00:00 AM 4.48 40.064 0.047 6.72 1.48 12.27
12/26/2021 6:15:00 AM 4.46 40.028 0.047 6.71 1.49 12.28
12/26/2021 6:30:00 AM 4.45 40.01 0.047 6.71 1.44 12.28
12/26/2021 6:45:00 AM 4.43 39.974 0.047 6.71 1.49 12.3
12/26/2021 7:00:00 AM 4.41 39.938 0.047 6.71 1.47 12.3
12/26/2021 7:15:00 AM 4.38 39.884 0.047 6.71 1.5 12.31
12/26/2021 7:30:00 AM 4.35 39.83 0.047 6.71 1.44 12.33
12/26/2021 7:45:00 AM 4.33 39.794 0.047 6.71 1.39 12.36
12/26/2021 8:00:00 AM 4.31 39.758 0.046 6.72 1.46 12.4
12/26/2021 8:15:00 AM 4.29 39.722 0.046 6.73 1.44 12.45
12/26/2021 8:30:00 AM 4.27 39.686 0.046 6.73 1.38 12.51
12/26/2021 8:45:00 AM 4.26 39.668 0.046 6.76 1.42 12.61
12/26/2021 9:00:00 AM 4.26 39.668 0.046 6.77 1.41 12.67
12/26/2021 9:15:00 AM 4.27 39.686 0.046 6.77 1.43 12.73
12/26/2021 9:30:00 AM 4.28 39.704 0.046 6.79 1.4 12.81
12/26/2021 9:45:00 AM 4.29 39.722 0.046 6.81 1.43 12.88
12/26/2021 10:00:00 AM 4.31 39.758 0.046 6.83 1.42 12.94
12/26/2021 10:15:00 AM 4.33 39.794 0.045 6.84 1.44 12.97
12/26/2021 10:30:00 AM 4.37 39.866 0.045 6.86 1.39 13.01
12/26/2021 10:45:00 AM 4.43 39.974 0.045 6.86 1.36 13.02
12/26/2021 11:00:00 AM 4.47 40.046 0.045 6.87 1.35 13.03
12/26/2021 11:15:00 AM 4.48 40.064 0.045 6.88 1.33 13.01
12/26/2021 11:30:00 AM 4.5 40.1 0.045 6.88 1.34 13
12/26/2021 11:45:00 AM 4.54 40.172 0.045 6.89 1.38 13
12/26/2021 12:00:00 PM 4.59 40.262 0.045 6.89 1.38 13.01
12/26/2021 12:15:00 PM 4.6 40.28 0.045 6.9 1.37 13.02
12/26/2021 12:30:00 PM 4.63 40.334 0.045 6.9 1.41 13
12/26/2021 12:45:00 PM 4.65 40.37 0.045 6.9 1.39 12.98
12/26/2021 1:00:00 PM 4.67 40.406 0.045 6.91 1.33 12.97
12/26/2021 1:15:00 PM 4.69 40.442 0.045 6.9 1.34 12.98
12/26/2021 1:30:00 PM 4.69 40.442 0.045 6.91 1.32 12.97
12/26/2021 1:45:00 PM 4.68 40.424 0.044 6.9 1.34 12.96
12/26/2021 2:00:00 PM 4.69 40.442 0.044 6.91 1.33 12.96
12/26/2021 2:15:00 PM 4.71 40.478 0.044 6.9 1.3 12.93
12/26/2021 2:30:00 PM 4.73 40.514 0.044 6.9 1.43 12.93
12/26/2021 2:45:00 PM 4.7 40.46 0.044 6.91 1.43 12.92
12/26/2021 3:00:00 PM 4.67 40.406 0.044 6.89 1.4 12.9
12/26/2021 3:15:00 PM 4.63 40.334 0.044 6.89 1.33 12.88
12/26/2021 3:30:00 PM 4.57 40.226 0.045 6.87 1.39 12.86
12/26/2021 3:45:00 PM 4.52 40.136 0.044 6.87 1.36 12.85
12/26/2021 4:00:00 PM 4.48 40.064 0.045 6.85 1.36 12.78
12/26/2021 4:15:00 PM 4.44 39.992 0.045 6.84 1.35 12.73
12/26/2021 4:30:00 PM 4.38 39.884 0.045 6.81 1.36 12.67
12/26/2021 4:45:00 PM 4.33 39.794 0.045 6.79 1.36 12.61
12/26/2021 5:00:00 PM 4.28 39.704 0.045 6.78 1.33 12.56
12/26/2021 5:15:00 PM 4.24 39.632 0.045 6.76 1.37 12.52
12/26/2021 5:30:00 PM 4.2 39.56 0.045 6.75 1.38 12.5
12/26/2021 5:45:00 PM 4.15 39.47 0.045 6.75 1.41 12.49
12/26/2021 6:00:00 PM 4.11 39.398 0.045 6.74 1.37 12.49
12/26/2021 6:15:00 PM 4.11 39.398 0.046 6.73 1.37 12.48
12/26/2021 6:30:00 PM 4.09 39.362 0.046 6.73 1.38 12.48
12/26/2021 6:45:00 PM 4.08 39.344 0.046 6.73 1.41 12.48
12/26/2021 7:00:00 PM 4.06 39.308 0.046 6.72 1.41 12.48
12/26/2021 7:15:00 PM 4.03 39.254 0.046 6.72 1.4 12.48
12/26/2021 7:30:00 PM 4 39.2 0.046 6.72 1.41 12.49
12/26/2021 7:45:00 PM 3.98 39.164 0.046 6.72 1.42 12.5
12/26/2021 8:00:00 PM 3.97 39.146 0.046 6.73 1.39 12.51
12/26/2021 8:15:00 PM 3.95 39.11 0.046 6.72 1.38 12.51
12/26/2021 8:30:00 PM 3.92 39.056 0.046 6.72 1.39 12.53
12/26/2021 8:45:00 PM 3.9 39.02 0.046 6.72 1.38 12.53
12/26/2021 9:00:00 PM 3.88 38.984 0.046 6.72 1.43 12.53
12/26/2021 9:15:00 PM 3.84 38.912 0.046 6.72 1.39 12.55
12/26/2021 9:30:00 PM 3.82 38.876 0.046 6.72 1.43 12.56
12/26/2021 9:45:00 PM 3.81 38.858 0.046 6.72 1.4 12.57
12/26/2021 10:00:00 PM 3.8 38.84 0.046 6.72 1.37 12.57
12/26/2021 10:15:00 PM 3.78 38.804 0.046 6.72 1.43 12.59
12/26/2021 10:30:00 PM 3.76 38.768 0.046 6.72 1.44 12.59
12/26/2021 10:45:00 PM 3.74 38.732 0.046 6.71 1.39 12.6
12/26/2021 11:00:00 PM 3.73 38.714 0.046 6.71 1.43 12.6
12/26/2021 11:15:00 PM 3.7 38.66 0.046 6.71 1.4 12.61
12/26/2021 11:30:00 PM 3.67 38.606 0.046 6.71 1.37 12.62
12/26/2021 11:45:00 PM 3.66 38.588 0.046 6.71 1.38 12.62
12/27/2021 12:00:00 AM 3.64 38.552 0.046 6.7 1.35 12.63
12/27/2021 12:15:00 AM 3.6 38.48 0.046 6.71 1.37 12.65
12/27/2021 12:30:00 AM 3.58 38.444 0.046 6.7 1.39 12.65
12/27/2021 12:45:00 AM 3.56 38.408 0.046 6.7 1.39 12.66
12/27/2021 1:00:00 AM 3.54 38.372 0.046 6.71 1.4 12.67
12/27/2021 1:15:00 AM 3.52 38.336 0.046 6.7 1.56 12.68
12/27/2021 1:30:00 AM 3.5 38.3 0.046 6.7 1.39 12.69
12/27/2021 1:45:00 AM 3.47 38.246 0.046 6.7 1.37 12.7
12/27/2021 2:00:00 AM 3.43 38.174 0.046 6.71 1.41 12.72
12/27/2021 2:15:00 AM 3.39 38.102 0.046 6.7 1.4 12.72
12/27/2021 2:30:00 AM 3.34 38.012 0.046 6.7 1.37 12.73
12/27/2021 2:45:00 AM 3.29 37.922 0.046 6.7 1.47 12.74
12/27/2021 3:00:00 AM 3.25 37.85 0.046 6.7 1.45 12.76
12/27/2021 3:15:00 AM 3.21 37.778 0.046 6.7 1.39 12.77
12/27/2021 3:30:00 AM 3.17 37.706 0.046 6.7 1.4 12.78
12/27/2021 3:45:00 AM 3.13 37.634 0.046 6.7 1.41 12.8
12/27/2021 4:00:00 AM 3.1 37.58 0.046 6.69 1.39 12.81
12/27/2021 4:15:00 AM 3.07 37.526 0.046 6.7 1.4 12.81
12/27/2021 4:30:00 AM 3.05 37.49 0.046 6.69 1.42 12.82
12/27/2021 4:45:00 AM 3.02 37.436 0.046 6.69 1.42 12.83
12/27/2021 5:00:00 AM 3 37.4 0.046 6.69 1.41 12.85
12/27/2021 5:15:00 AM 2.97 37.346 0.046 6.69 1.36 12.85
12/27/2021 5:30:00 AM 2.96 37.328 0.046 6.69 1.34 12.86
12/27/2021 5:45:00 AM 2.95 37.31 0.046 6.69 1.42 12.87
12/27/2021 6:00:00 AM 2.94 37.292 0.046 6.69 1.39 12.87
12/27/2021 6:15:00 AM 2.93 37.274 0.046 6.69 1.35 12.87
12/27/2021 6:30:00 AM 2.92 37.256 0.046 6.69 1.39 12.87
12/27/2021 6:45:00 AM 2.91 37.238 0.046 6.69 1.41 12.88
12/27/2021 7:00:00 AM 2.91 37.238 0.046 6.69 1.37 12.88
12/27/2021 7:15:00 AM 2.91 37.238 0.046 6.69 1.42 12.88
12/27/2021 7:30:00 AM 2.9 37.22 0.046 6.68 1.4 12.89
12/27/2021 7:45:00 AM 2.89 37.202 0.046 6.69 1.37 12.89
12/27/2021 8:00:00 AM 2.89 37.202 0.046 6.69 1.4 12.91
12/27/2021 8:15:00 AM 2.88 37.184 0.046 6.69 1.36 12.94
12/27/2021 8:30:00 AM 2.88 37.184 0.046 6.7 1.36 12.97
12/27/2021 8:45:00 AM 2.87 37.166 0.046 6.71 1.36 13
12/27/2021 9:00:00 AM 2.88 37.184 0.046 6.71 1.36 13.03
12/27/2021 9:15:00 AM 2.87 37.166 0.046 6.72 1.38 13.05
12/27/2021 9:30:00 AM 2.87 37.166 0.045 6.72 1.36 13.08
12/27/2021 9:45:00 AM 2.88 37.184 0.045 6.73 1.4 13.14
12/27/2021 10:00:00 AM 2.87 37.166 0.045 6.74 1.38 13.18
12/27/2021 10:15:00 AM 2.88 37.184 0.045 6.75 1.35 13.24
12/27/2021 10:30:00 AM 2.93 37.274 0.045 6.77 1.32 13.32
12/27/2021 10:45:00 AM 2.96 37.328 0.045 6.79 1.37 13.38
12/27/2021 11:00:00 AM 3 37.4 0.045 6.8 1.33 13.41
12/27/2021 11:15:00 AM 3.03 37.454 0.045 6.82 1.35 13.43
12/27/2021 11:30:00 AM 3.08 37.544 0.045 6.83 1.32 13.45
12/27/2021 11:45:00 AM 3.14 37.652 0.045 6.84 1.31 13.46
12/27/2021 12:00:00 PM 3.2 37.76 0.045 6.84 1.35 13.46
12/27/2021 12:15:00 PM 3.23 37.814 0.045 6.85 1.35 13.44
12/27/2021 12:30:00 PM 3.26 37.868 0.045 6.85 1.29 13.42
12/27/2021 12:45:00 PM 3.28 37.904 0.044 6.85 1.33 13.37
12/27/2021 1:00:00 PM 3.28 37.904 0.044 6.84 1.3 13.31
12/27/2021 1:15:00 PM 3.28 37.904 0.045 6.82 1.29 13.23
12/27/2021 1:30:00 PM 3.29 37.922 0.045 6.81 1.32 13.18
12/27/2021 1:45:00 PM 3.25 37.85 0.045 6.81 1.34 13.17
12/27/2021 2:00:00 PM 3.24 37.832 0.045 6.81 1.3 13.2
12/27/2021 2:15:00 PM 3.28 37.904 0.045 6.82 1.33 13.22
12/27/2021 2:30:00 PM 3.3 37.94 0.045 6.83 1.31 13.23
12/27/2021 2:45:00 PM 3.31 37.958 0.045 6.83 1.36 13.21
12/27/2021 3:00:00 PM 3.31 37.958 0.045 6.82 1.32 13.18
12/27/2021 3:15:00 PM 3.31 37.958 0.045 6.81 1.3 13.14
12/27/2021 3:30:00 PM 3.29 37.922 0.045 6.8 1.32 13.09
12/27/2021 3:45:00 PM 3.28 37.904 0.045 6.79 1.31 13.04
12/27/2021 4:00:00 PM 3.27 37.886 0.045 6.78 1.34 12.98
12/27/2021 4:15:00 PM 3.26 37.868 0.045 6.77 1.33 12.94
12/27/2021 4:30:00 PM 3.25 37.85 0.045 6.75 1.4 12.89
12/27/2021 4:45:00 PM 3.25 37.85 0.045 6.74 1.33 12.85
12/27/2021 5:00:00 PM 3.23 37.814 0.045 6.73 1.37 12.81
12/27/2021 5:15:00 PM 3.23 37.814 0.045 6.73 1.34 12.78
12/27/2021 5:30:00 PM 3.22 37.796 0.045 6.72 1.34 12.76
12/27/2021 5:45:00 PM 3.19 37.742 0.045 6.72 1.36 12.75
12/27/2021 6:00:00 PM 3.17 37.706 0.045 6.71 1.36 12.74
12/27/2021 6:15:00 PM 3.17 37.706 0.046 6.71 1.36 12.74
12/27/2021 6:30:00 PM 3.17 37.706 0.046 6.72 1.35 12.73
12/27/2021 6:45:00 PM 3.17 37.706 0.046 6.71 1.35 12.72
12/27/2021 7:00:00 PM 3.17 37.706 0.046 6.71 1.34 12.72
12/27/2021 7:15:00 PM 3.16 37.688 0.046 6.7 1.41 12.72
12/27/2021 7:30:00 PM 3.16 37.688 0.046 6.7 1.36 12.72
12/27/2021 7:45:00 PM 3.15 37.67 0.046 6.7 1.36 12.72
12/27/2021 8:00:00 PM 3.15 37.67 0.046 6.7 1.41 12.72
12/27/2021 8:15:00 PM 3.13 37.634 0.046 6.7 1.38 12.72
12/27/2021 8:30:00 PM 3.13 37.634 0.046 6.7 1.35 12.72
12/27/2021 8:45:00 PM 3.12 37.616 0.046 6.7 1.43 12.72
12/27/2021 9:00:00 PM 3.11 37.598 0.046 6.7 1.42 12.72
12/27/2021 9:15:00 PM 3.11 37.598 0.046 6.7 1.4 12.72
12/27/2021 9:30:00 PM 3.11 37.598 0.047 6.7 1.41 12.71
12/27/2021 9:45:00 PM 3.11 37.598 0.047 6.69 1.38 12.72
12/27/2021 10:00:00 PM 3.1 37.58 0.046 6.7 1.44 12.72
12/27/2021 10:15:00 PM 3.11 37.598 0.046 6.7 1.48 12.72
12/27/2021 10:30:00 PM 3.11 37.598 0.046 6.7 1.39 12.71
12/27/2021 10:45:00 PM 3.11 37.598 0.046 6.7 1.46 12.72
12/27/2021 11:00:00 PM 3.11 37.598 0.047 6.71 1.46 12.71
12/27/2021 11:15:00 PM 3.11 37.598 0.047 6.7 1.54 12.71
12/27/2021 11:30:00 PM 3.11 37.598 0.047 6.7 1.57 12.72
12/27/2021 11:45:00 PM 3.12 37.616 0.047 6.7 1.68 12.71
12/28/2021 12:00:00 AM 3.12 37.616 0.048 6.7 1.78 12.71
12/28/2021 12:15:00 AM 3.13 37.634 0.048 6.7 1.59 12.7
12/28/2021 12:30:00 AM 3.13 37.634 0.048 6.7 1.67 12.71
12/28/2021 12:45:00 AM 3.13 37.634 0.048 6.7 1.57 12.71
12/28/2021 1:00:00 AM 3.14 37.652 0.049 6.7 1.54 12.7
12/28/2021 1:15:00 AM 3.14 37.652 0.049 6.7 1.57 12.7
12/28/2021 1:30:00 AM 3.14 37.652 0.049 6.7 1.59 12.7
12/28/2021 1:45:00 AM 3.15 37.67 0.049 6.7 1.53 12.69
12/28/2021 2:00:00 AM 3.15 37.67 0.048 6.71 1.58 12.69
12/28/2021 2:15:00 AM 3.15 37.67 0.048 6.7 1.51 12.7
12/28/2021 2:30:00 AM 3.17 37.706 0.048 6.71 1.53 12.69
12/28/2021 2:45:00 AM 3.18 37.724 0.048 6.7 1.5 12.69
12/28/2021 3:00:00 AM 3.19 37.742 0.048 6.7 1.45 12.69
12/28/2021 3:15:00 AM 3.2 37.76 0.048 6.7 1.5 12.69
12/28/2021 3:30:00 AM 3.2 37.76 0.048 6.7 1.52 12.68
12/28/2021 3:45:00 AM 3.22 37.796 0.048 6.7 1.46 12.67
12/28/2021 4:00:00 AM 3.23 37.814 0.047 6.7 1.44 12.68
12/28/2021 4:15:00 AM 3.24 37.832 0.047 6.7 1.46 12.67
12/28/2021 4:30:00 AM 3.24 37.832 0.047 6.7 1.41 12.67
12/28/2021 4:45:00 AM 3.25 37.85 0.047 6.7 1.43 12.67
12/28/2021 5:00:00 AM 3.24 37.832 0.047 6.7 1.41 12.66
12/28/2021 5:15:00 AM 3.24 37.832 0.047 6.7 1.39 12.66
12/28/2021 5:30:00 AM 3.24 37.832 0.047 6.7 1.39 12.66
12/28/2021 5:45:00 AM 3.24 37.832 0.047 6.7 1.42 12.67
12/28/2021 6:00:00 AM 3.23 37.814 0.047 6.69 1.39 12.67
12/28/2021 6:15:00 AM 3.21 37.778 0.047 6.7 1.4 12.68
12/28/2021 6:30:00 AM 3.2 37.76 0.047 6.7 1.39 12.68
12/28/2021 6:45:00 AM 3.17 37.706 0.047 6.7 1.37 12.69
12/28/2021 7:00:00 AM 3.15 37.67 0.047 6.69 1.39 12.7
12/28/2021 7:15:00 AM 3.12 37.616 0.047 6.7 1.47 12.72
12/28/2021 7:30:00 AM 3.11 37.598 0.047 6.69 1.41 12.73
12/28/2021 7:45:00 AM 3.08 37.544 0.047 6.7 1.36 12.77
12/28/2021 8:00:00 AM 3.04 37.472 0.047 6.71 1.4 12.83
12/28/2021 8:15:00 AM 3.03 37.454 0.047 6.72 1.4 12.9
12/28/2021 8:30:00 AM 3.04 37.472 0.047 6.73 1.38 13
12/28/2021 8:45:00 AM 3.06 37.508 0.047 6.75 1.43 13.09
12/28/2021 9:00:00 AM 3.08 37.544 0.047 6.77 1.41 13.17
12/28/2021 9:15:00 AM 3.08 37.544 0.046 6.79 1.38 13.22
12/28/2021 9:30:00 AM 3.09 37.562 0.046 6.8 1.36 13.24
12/28/2021 9:45:00 AM 3.11 37.598 0.046 6.81 1.34 13.27
12/28/2021 10:00:00 AM 3.13 37.634 0.046 6.81 1.34 13.27
12/28/2021 10:15:00 AM 3.15 37.67 0.046 6.82 1.37 13.28
12/28/2021 10:30:00 AM 3.17 37.706 0.046 6.82 1.31 13.29
12/28/2021 10:45:00 AM 3.18 37.724 0.046 6.83 1.35 13.29
12/28/2021 11:00:00 AM 3.23 37.814 0.046 6.84 1.32 13.31
12/28/2021 11:15:00 AM 3.33 37.994 0.046 6.84 1.36 13.33
12/28/2021 11:30:00 AM 3.39 38.102 0.046 6.85 1.31 13.32
12/28/2021 11:45:00 AM 3.49 38.282 0.045 6.86 1.31 13.32
12/28/2021 12:00:00 PM 3.59 38.462 0.045 6.87 1.3 13.3
12/28/2021 12:15:00 PM 3.69 38.642 0.045 6.87 1.29 13.26
12/28/2021 12:30:00 PM 3.78 38.804 0.045 6.88 1.28 13.24
12/28/2021 12:45:00 PM 3.82 38.876 0.045 6.88 1.32 13.19
12/28/2021 1:00:00 PM 3.85 38.93 0.045 6.87 1.28 13.15
12/28/2021 1:15:00 PM 3.86 38.948 0.045 6.87 1.31 13.11
12/28/2021 1:30:00 PM 3.85 38.93 0.045 6.86 1.26 13.08
12/28/2021 1:45:00 PM 3.85 38.93 0.045 6.85 1.3 13.05
12/28/2021 2:00:00 PM 3.84 38.912 0.045 6.85 1.29 13.04
12/28/2021 2:15:00 PM 3.83 38.894 0.045 6.84 1.38 13
12/28/2021 2:30:00 PM 3.82 38.876 0.045 6.83 1.34 12.97
12/28/2021 2:45:00 PM 3.83 38.894 0.045 6.84 1.32 13.02
12/28/2021 3:00:00 PM 3.84 38.912 0.045 6.85 1.32 13.04
12/28/2021 3:15:00 PM 3.84 38.912 0.045 6.83 1.29 12.99
12/28/2021 3:30:00 PM 3.85 38.93 0.046 6.82 1.34 12.91
12/28/2021 3:45:00 PM 3.84 38.912 0.046 6.81 1.32 12.84
12/28/2021 4:00:00 PM 3.84 38.912 0.046 6.8 1.28 12.79
12/28/2021 4:15:00 PM 3.84 38.912 0.046 6.78 1.32 12.73
12/28/2021 4:30:00 PM 3.84 38.912 0.046 6.76 1.32 12.68
12/28/2021 4:45:00 PM 3.84 38.912 0.046 6.76 1.34 12.64
12/28/2021 5:00:00 PM 3.84 38.912 0.046 6.75 1.32 12.61
12/28/2021 5:15:00 PM 3.84 38.912 0.046 6.74 1.29 12.57
12/28/2021 5:30:00 PM 3.84 38.912 0.046 6.74 1.32 12.55
12/28/2021 5:45:00 PM 3.84 38.912 0.046 6.73 1.31 12.53
12/28/2021 6:00:00 PM 3.84 38.912 0.047 6.73 1.32 12.53
12/28/2021 6:15:00 PM 3.84 38.912 0.047 6.72 1.31 12.52
12/28/2021 6:30:00 PM 3.84 38.912 0.047 6.72 1.32 12.51
12/28/2021 6:45:00 PM 3.84 38.912 0.047 6.72 1.29 12.51
12/28/2021 7:00:00 PM 3.84 38.912 0.047 6.71 1.3 12.5
12/28/2021 7:15:00 PM 3.84 38.912 0.047 6.71 1.33 12.5
12/28/2021 7:30:00 PM 3.83 38.894 0.047 6.72 1.34 12.5
12/28/2021 7:45:00 PM 3.82 38.876 0.047 6.71 1.31 12.49
12/28/2021 8:00:00 PM 3.81 38.858 0.047 6.71 1.36 12.49
12/28/2021 8:15:00 PM 3.81 38.858 0.047 6.71 1.32 12.48
12/28/2021 8:30:00 PM 3.8 38.84 0.047 6.71 1.32 12.49
12/28/2021 8:45:00 PM 3.8 38.84 0.047 6.71 1.3 12.5
12/28/2021 9:00:00 PM 3.79 38.822 0.047 6.71 1.33 12.49
12/28/2021 9:15:00 PM 3.78 38.804 0.048 6.71 1.34 12.49
12/28/2021 9:30:00 PM 3.77 38.786 0.048 6.72 1.37 12.49
12/28/2021 9:45:00 PM 3.77 38.786 0.048 6.71 1.37 12.49
12/28/2021 10:00:00 PM 3.76 38.768 0.047 6.71 1.34 12.49
12/28/2021 10:15:00 PM 3.76 38.768 0.047 6.71 1.38 12.49
12/28/2021 10:30:00 PM 3.76 38.768 0.047 6.71 1.32 12.5
12/28/2021 10:45:00 PM 3.76 38.768 0.047 6.71 1.4 12.5
12/28/2021 11:00:00 PM 3.76 38.768 0.047 6.71 1.32 12.5
12/28/2021 11:15:00 PM 3.75 38.75 0.047 6.71 1.34 12.5
12/28/2021 11:30:00 PM 3.75 38.75 0.047 6.71 1.34 12.5
12/28/2021 11:45:00 PM 3.75 38.75 0.047 6.71 1.43 12.49
12/29/2021 12:00:00 AM 3.75 38.75 0.047 6.71 1.36 12.49
12/29/2021 12:15:00 AM 3.75 38.75 0.047 6.71 1.39 12.49
12/29/2021 12:30:00 AM 3.75 38.75 0.048 6.71 1.41 12.49
12/29/2021 12:45:00 AM 3.75 38.75 0.048 6.71 1.48 12.49
12/29/2021 1:00:00 AM 3.75 38.75 0.048 6.71 1.44 12.49
12/29/2021 1:15:00 AM 3.74 38.732 0.048 6.71 1.44 12.49
12/29/2021 1:30:00 AM 3.74 38.732 0.048 6.72 1.47 12.49
12/29/2021 1:45:00 AM 3.74 38.732 0.048 6.71 1.49 12.48
12/29/2021 2:00:00 AM 3.74 38.732 0.048 6.71 1.45 12.48
12/29/2021 2:15:00 AM 3.74 38.732 0.048 6.71 1.44 12.49
12/29/2021 2:30:00 AM 3.74 38.732 0.048 6.71 1.43 12.49
12/29/2021 2:45:00 AM 3.74 38.732 0.048 6.71 1.43 12.49
12/29/2021 3:00:00 AM 3.74 38.732 0.048 6.71 1.41 12.49
12/29/2021 3:15:00 AM 3.74 38.732 0.048 6.71 1.38 12.49
12/29/2021 3:30:00 AM 3.73 38.714 0.048 6.72 1.43 12.5
12/29/2021 3:45:00 AM 3.74 38.732 0.048 6.71 1.41 12.49
12/29/2021 4:00:00 AM 3.74 38.732 0.048 6.71 1.39 12.49
12/29/2021 4:15:00 AM 3.74 38.732 0.048 6.71 1.4 12.49
12/29/2021 4:30:00 AM 3.74 38.732 0.048 6.71 1.38 12.49
12/29/2021 4:45:00 AM 3.74 38.732 0.048 6.71 1.39 12.49
12/29/2021 5:00:00 AM 3.74 38.732 0.048 6.71 1.42 12.49
12/29/2021 5:15:00 AM 3.75 38.75 0.048 6.71 1.42 12.48
12/29/2021 5:30:00 AM 3.75 38.75 0.048 6.71 1.38 12.49
12/29/2021 5:45:00 AM 3.76 38.768 0.048 6.71 1.36 12.49
12/29/2021 6:00:00 AM 3.76 38.768 0.048 6.71 1.37 12.49
12/29/2021 6:15:00 AM 3.76 38.768 0.048 6.71 1.4 12.49
12/29/2021 6:30:00 AM 3.77 38.786 0.048 6.71 1.36 12.48
12/29/2021 6:45:00 AM 3.78 38.804 0.048 6.7 1.36 12.48
12/29/2021 7:00:00 AM 3.78 38.804 0.048 6.7 1.43 12.49
12/29/2021 7:15:00 AM 3.78 38.804 0.048 6.71 1.39 12.5
12/29/2021 7:30:00 AM 3.79 38.822 0.048 6.7 1.36 12.49
12/29/2021 7:45:00 AM 3.79 38.822 0.048 6.7 1.35 12.51
12/29/2021 8:00:00 AM 3.8 38.84 0.048 6.71 1.36 12.53
12/29/2021 8:15:00 AM 3.81 38.858 0.048 6.72 1.36 12.56
12/29/2021 8:30:00 AM 3.82 38.876 0.048 6.73 1.34 12.6
12/29/2021 8:45:00 AM 3.84 38.912 0.047 6.74 1.4 12.66
12/29/2021 9:00:00 AM 3.86 38.948 0.047 6.75 1.32 12.74
12/29/2021 9:15:00 AM 3.89 39.002 0.047 6.77 1.38 12.8
12/29/2021 9:30:00 AM 3.91 39.038 0.047 6.78 1.34 12.84
12/29/2021 9:45:00 AM 3.94 39.092 0.047 6.79 1.37 12.88
12/29/2021 10:00:00 AM 3.96 39.128 0.047 6.81 1.37 12.93
12/29/2021 10:15:00 AM 4 39.2 0.047 6.82 1.32 12.97
12/29/2021 10:30:00 AM 4.05 39.29 0.047 6.84 1.35 13.02
12/29/2021 10:45:00 AM 4.12 39.416 0.046 6.85 1.33 13.06
12/29/2021 11:00:00 AM 4.19 39.542 0.046 6.87 1.34 13.08
12/29/2021 11:15:00 AM 4.27 39.686 0.046 6.88 1.35 13.09
12/29/2021 11:30:00 AM 4.34 39.812 0.046 6.89 1.34 13.08
12/29/2021 11:45:00 AM 4.41 39.938 0.046 6.9 1.38 13.08
12/29/2021 12:00:00 PM 4.47 40.046 0.046 6.9 1.32 13.06
12/29/2021 12:15:00 PM 4.52 40.136 0.046 6.9 1.29 13.03
12/29/2021 12:30:00 PM 4.55 40.19 0.046 6.9 1.29 12.99
12/29/2021 12:45:00 PM 4.57 40.226 0.046 6.88 1.29 12.92
12/29/2021 1:00:00 PM 4.62 40.316 0.046 6.89 1.31 12.91
12/29/2021 1:15:00 PM 4.66 40.388 0.046 6.89 1.3 12.91
12/29/2021 1:30:00 PM 4.69 40.442 0.046 6.89 1.32 12.88
12/29/2021 1:45:00 PM 4.74 40.532 0.046 6.89 1.36 12.87
12/29/2021 2:00:00 PM 4.78 40.604 0.045 6.9 1.32 12.87
12/29/2021 2:15:00 PM 4.82 40.676 0.045 6.9 1.29 12.87
12/29/2021 2:30:00 PM 4.84 40.712 0.045 6.9 1.29 12.83
12/29/2021 2:45:00 PM 4.86 40.748 0.045 6.9 1.28 12.82
12/29/2021 3:00:00 PM 4.88 40.784 0.045 6.9 1.29 12.78
12/29/2021 3:15:00 PM 4.89 40.802 0.045 6.89 1.29 12.74
12/29/2021 3:30:00 PM 4.91 40.838 0.045 6.87 1.28 12.72
12/29/2021 3:45:00 PM 4.93 40.874 0.046 6.87 1.3 12.7
12/29/2021 4:00:00 PM 4.94 40.892 0.045 6.86 1.3 12.66
12/29/2021 4:15:00 PM 4.94 40.892 0.046 6.84 1.28 12.56
12/29/2021 4:30:00 PM 4.95 40.91 0.046 6.82 1.32 12.46
12/29/2021 4:45:00 PM 4.94 40.892 0.046 6.8 1.26 12.38
12/29/2021 5:00:00 PM 4.94 40.892 0.046 6.77 1.32 12.31
12/29/2021 5:15:00 PM 4.94 40.892 0.046 6.76 1.31 12.26
12/29/2021 5:30:00 PM 4.93 40.874 0.046 6.75 1.34 12.23
12/29/2021 5:45:00 PM 4.93 40.874 0.046 6.75 1.33 12.2
12/29/2021 6:00:00 PM 4.93 40.874 0.046 6.73 1.33 12.19
12/29/2021 6:15:00 PM 4.92 40.856 0.047 6.73 1.31 12.17
12/29/2021 6:30:00 PM 4.92 40.856 0.047 6.73 1.29 12.16
12/29/2021 6:45:00 PM 4.91 40.838 0.047 6.72 1.29 12.16
12/29/2021 7:00:00 PM 4.91 40.838 0.047 6.72 1.31 12.15
12/29/2021 7:15:00 PM 4.91 40.838 0.047 6.72 1.31 12.16
12/29/2021 7:30:00 PM 4.9 40.82 0.047 6.72 1.28 12.16
12/29/2021 7:45:00 PM 4.9 40.82 0.047 6.72 1.28 12.16
12/29/2021 8:00:00 PM 4.89 40.802 0.047 6.71 1.32 12.16
12/29/2021 8:15:00 PM 4.9 40.82 0.047 6.71 1.32 12.15
12/29/2021 8:30:00 PM 4.9 40.82 0.047 6.71 1.3 12.15
12/29/2021 8:45:00 PM 4.9 40.82 0.047 6.71 1.31 12.16
12/29/2021 9:00:00 PM 4.9 40.82 0.047 6.7 1.3 12.15
12/29/2021 9:15:00 PM 4.89 40.802 0.047 6.71 1.27 12.15
12/29/2021 9:30:00 PM 4.89 40.802 0.047 6.7 1.31 12.15
12/29/2021 9:45:00 PM 4.89 40.802 0.047 6.7 1.32 12.15
12/29/2021 10:00:00 PM 4.88 40.784 0.047 6.7 1.71 12.15
12/29/2021 10:15:00 PM 4.89 40.802 0.047 6.7 1.34 12.15
12/29/2021 10:30:00 PM 4.88 40.784 0.047 6.7 1.3 12.16
12/29/2021 10:45:00 PM 4.88 40.784 0.047 6.7 1.29 12.16
12/29/2021 11:00:00 PM 4.88 40.784 0.047 6.69 1.31 12.16
12/29/2021 11:15:00 PM 4.87 40.766 0.047 6.7 1.33 12.17
12/29/2021 11:30:00 PM 4.87 40.766 0.047 6.7 1.32 12.17
12/29/2021 11:45:00 PM 4.87 40.766 0.047 6.7 1.3 12.16
12/30/2021 12:00:00 AM 4.87 40.766 0.047 6.69 1.35 12.16
12/30/2021 12:15:00 AM 4.87 40.766 0.047 6.69 1.32 12.16
12/30/2021 12:30:00 AM 4.87 40.766 0.047 6.7 1.26 12.16
12/30/2021 12:45:00 AM 4.87 40.766 0.047 6.69 1.31 12.16
12/30/2021 1:00:00 AM 4.86 40.748 0.047 6.69 1.31 12.17
12/30/2021 1:15:00 AM 4.86 40.748 0.047 6.7 1.36 12.16
12/30/2021 1:30:00 AM 4.86 40.748 0.047 6.69 1.32 12.16
12/30/2021 1:45:00 AM 4.86 40.748 0.047 6.69 1.29 12.16
12/30/2021 2:00:00 AM 4.86 40.748 0.047 6.69 1.32 12.16
12/30/2021 2:15:00 AM 4.86 40.748 0.047 6.69 1.31 12.16
12/30/2021 2:30:00 AM 4.86 40.748 0.047 6.69 1.32 12.15
12/30/2021 2:45:00 AM 4.86 40.748 0.047 6.69 1.35 12.15
12/30/2021 3:00:00 AM 4.86 40.748 0.047 6.69 1.31 12.15
12/30/2021 3:15:00 AM 4.86 40.748 0.047 6.68 1.35 12.15
12/30/2021 3:30:00 AM 4.86 40.748 0.047 6.68 1.32 12.15
12/30/2021 3:45:00 AM 4.86 40.748 0.047 6.68 1.31 12.15
12/30/2021 4:00:00 AM 4.86 40.748 0.047 6.68 1.27 12.15
12/30/2021 4:15:00 AM 4.87 40.766 0.047 6.68 1.34 12.14
12/30/2021 4:30:00 AM 4.87 40.766 0.047 6.68 1.38 12.15
12/30/2021 4:45:00 AM 4.87 40.766 0.047 6.68 1.33 12.15
12/30/2021 5:00:00 AM 4.87 40.766 0.047 6.68 1.31 12.15
12/30/2021 5:15:00 AM 4.87 40.766 0.047 6.68 1.33 12.14
12/30/2021 5:30:00 AM 4.87 40.766 0.047 6.68 1.3 12.14
12/30/2021 5:45:00 AM 4.87 40.766 0.047 6.68 1.37 12.14
12/30/2021 6:00:00 AM 4.88 40.784 0.047 6.68 1.33 12.14
12/30/2021 6:15:00 AM 4.88 40.784 0.047 6.68 1.31 12.14
12/30/2021 6:30:00 AM 4.88 40.784 0.047 6.68 1.32 12.15
12/30/2021 6:45:00 AM 4.88 40.784 0.047 6.67 1.34 12.14
12/30/2021 7:00:00 AM 4.89 40.802 0.047 6.67 1.29 12.14
12/30/2021 7:15:00 AM 4.89 40.802 0.046 6.68 1.38 12.14
12/30/2021 7:30:00 AM 4.89 40.802 0.046 6.67 1.35 12.15
12/30/2021 7:45:00 AM 4.89 40.802 0.046 6.68 1.28 12.15
12/30/2021 8:00:00 AM 4.9 40.82 0.046 6.68 1.31 12.16
12/30/2021 8:15:00 AM 4.9 40.82 0.046 6.68 1.28 12.18
12/30/2021 8:30:00 AM 4.91 40.838 0.046 6.68 1.33 12.21
12/30/2021 8:45:00 AM 4.91 40.838 0.046 6.69 1.81 12.24
12/30/2021 9:00:00 AM 4.92 40.856 0.046 6.7 1.29 12.28
12/30/2021 9:15:00 AM 4.93 40.874 0.046 6.72 1.33 12.33
12/30/2021 9:30:00 AM 4.95 40.91 0.046 6.72 1.27 12.39
12/30/2021 9:45:00 AM 4.97 40.946 0.046 6.73 1.22 12.42
12/30/2021 10:00:00 AM 4.99 40.982 0.046 6.74 1.26 12.48
12/30/2021 10:15:00 AM 5.01 41.018 0.046 6.76 1.31 12.54
12/30/2021 10:30:00 AM 5.03 41.054 0.046 6.77 1.3 12.56
12/30/2021 10:45:00 AM 5.05 41.09 0.046 6.78 1.29 12.56
12/30/2021 11:00:00 AM 5.08 41.144 0.045 6.8 1.29 12.61
12/30/2021 11:15:00 AM 5.11 41.198 0.045 6.81 1.24 12.65
12/30/2021 11:30:00 AM 5.14 41.252 0.045 6.82 1.26 12.65
12/30/2021 11:45:00 AM 5.17 41.306 0.045 6.83 1.3 12.66
12/30/2021 12:00:00 PM 5.2 41.36 0.045 6.83 1.3 12.66
12/30/2021 12:15:00 PM 5.22 41.396 0.045 6.83 1.29 12.64
12/30/2021 12:30:00 PM 5.24 41.432 0.045 6.82 1.26 12.59
12/30/2021 12:45:00 PM 5.26 41.468 0.045 6.81 1.36 12.53
12/30/2021 1:00:00 PM 5.29 41.522 0.045 6.82 1.27 12.56
12/30/2021 1:15:00 PM 5.34 41.612 0.045 6.84 1.25 12.61
12/30/2021 1:30:00 PM 5.4 41.72 0.045 6.86 1.3 12.65
12/30/2021 1:45:00 PM 5.45 41.81 0.045 6.86 1.23 12.62
12/30/2021 2:00:00 PM 5.5 41.9 0.045 6.87 1.29 12.61
12/30/2021 2:15:00 PM 5.58 42.044 0.045 6.88 1.24 12.64
12/30/2021 2:30:00 PM 5.63 42.134 0.045 6.88 1.25 12.6
12/30/2021 2:45:00 PM 5.65 42.17 0.045 6.87 1.25 12.54
12/30/2021 3:00:00 PM 5.67 42.206 0.045 6.86 1.25 12.5
12/30/2021 3:15:00 PM 5.68 42.224 0.045 6.84 1.25 12.41
12/30/2021 3:30:00 PM 5.68 42.224 0.045 6.82 1.25 12.35
12/30/2021 3:45:00 PM 5.68 42.224 0.045 6.81 1.22 12.27
12/30/2021 4:00:00 PM 5.68 42.224 0.045 6.8 1.31 12.21
12/30/2021 4:15:00 PM 5.68 42.224 0.045 6.78 1.28 12.16
12/30/2021 4:30:00 PM 5.67 42.206 0.045 6.77 1.29 12.11
12/30/2021 4:45:00 PM 5.66 42.188 0.045 6.76 1.25 12.05
12/30/2021 5:00:00 PM 5.65 42.17 0.045 6.75 1.31 12.01
12/30/2021 5:15:00 PM 5.64 42.152 0.045 6.74 1.25 11.98
12/30/2021 5:30:00 PM 5.64 42.152 0.046 6.73 1.3 11.95
12/30/2021 5:45:00 PM 5.63 42.134 0.046 6.72 1.27 11.94
12/30/2021 6:00:00 PM 5.63 42.134 0.046 6.72 1.29 11.93
12/30/2021 6:15:00 PM 5.62 42.116 0.046 6.71 1.22 11.93
12/30/2021 6:30:00 PM 5.62 42.116 0.046 6.7 1.29 11.92
12/30/2021 6:45:00 PM 5.62 42.116 0.046 6.7 1.28 11.92
12/30/2021 7:00:00 PM 5.61 42.098 0.046 6.7 1.25 11.91
12/30/2021 7:15:00 PM 5.61 42.098 0.046 6.7 1.29 11.9
12/30/2021 7:30:00 PM 5.61 42.098 0.046 6.69 1.26 11.91
12/30/2021 7:45:00 PM 5.61 42.098 0.046 6.68 1.43 11.91
12/30/2021 8:00:00 PM 5.61 42.098 0.046 6.68 1.28 11.9
12/30/2021 8:15:00 PM 5.62 42.116 0.046 6.69 1.29 11.9
12/30/2021 8:30:00 PM 5.62 42.116 0.046 6.69 1.26 11.9
12/30/2021 8:45:00 PM 5.62 42.116 0.046 6.68 1.27 11.9
12/30/2021 9:00:00 PM 5.63 42.134 0.046 6.68 1.27 11.9
12/30/2021 9:15:00 PM 5.62 42.116 0.046 6.68 1.27 11.9
12/30/2021 9:30:00 PM 5.62 42.116 0.046 6.68 1.26 11.9
12/30/2021 9:45:00 PM 5.63 42.134 0.046 6.68 1.3 11.91
12/30/2021 10:00:00 PM 5.63 42.134 0.046 6.68 1.35 11.91
12/30/2021 10:15:00 PM 5.63 42.134 0.046 6.67 1.44 11.9
12/30/2021 10:30:00 PM 5.64 42.152 0.046 6.68 1.46 11.9
12/30/2021 10:45:00 PM 5.64 42.152 0.046 6.68 1.54 11.9
12/30/2021 11:00:00 PM 5.64 42.152 0.046 6.68 1.53 11.89
12/30/2021 11:15:00 PM 5.64 42.152 0.046 6.68 1.42 11.9
12/30/2021 11:30:00 PM 5.64 42.152 0.046 6.67 1.39 11.9
12/30/2021 11:45:00 PM 5.65 42.17 0.046 6.68 1.34 11.9
12/31/2021 12:00:00 AM 5.64 42.152 0.046 6.67 1.35 11.9
12/31/2021 12:15:00 AM 5.64 42.152 0.046 6.68 1.36 11.9
12/31/2021 12:30:00 AM 5.63 42.134 0.046 6.68 1.33 11.9
12/31/2021 12:45:00 AM 5.62 42.116 0.046 6.67 1.33 11.9
12/31/2021 1:00:00 AM 5.6 42.08 0.047 6.67 1.36 11.91
12/31/2021 1:15:00 AM 5.6 42.08 0.047 6.67 1.37 11.9
12/31/2021 1:30:00 AM 5.59 42.062 0.047 6.68 1.37 11.91
12/31/2021 1:45:00 AM 5.58 42.044 0.047 6.68 1.4 11.91
12/31/2021 2:00:00 AM 5.57 42.026 0.047 6.68 1.46 11.91
12/31/2021 2:15:00 AM 5.57 42.026 0.047 6.68 1.45 11.92
12/31/2021 2:30:00 AM 5.56 42.008 0.047 6.68 1.44 11.92
12/31/2021 2:45:00 AM 5.55 41.99 0.047 6.67 1.47 11.92
12/31/2021 3:00:00 AM 5.55 41.99 0.047 6.68 1.44 11.92
12/31/2021 3:15:00 AM 5.55 41.99 0.047 6.68 1.37 11.92
12/31/2021 3:30:00 AM 5.55 41.99 0.047 6.68 1.38 11.93
12/31/2021 3:45:00 AM 5.55 41.99 0.047 6.68 1.42 11.93
12/31/2021 4:00:00 AM 5.55 41.99 0.047 6.68 1.37 11.93
12/31/2021 4:15:00 AM 5.55 41.99 0.047 6.68 1.33 11.93
12/31/2021 4:30:00 AM 5.55 41.99 0.047 6.68 1.37 11.92
12/31/2021 4:45:00 AM 5.55 41.99 0.047 6.67 1.39 11.93
12/31/2021 5:00:00 AM 5.55 41.99 0.046 6.67 1.37 11.93
12/31/2021 5:15:00 AM 5.55 41.99 0.047 6.68 1.41 11.93
12/31/2021 5:30:00 AM 5.55 41.99 0.047 6.68 1.33 11.93
12/31/2021 5:45:00 AM 5.55 41.99 0.047 6.68 1.37 11.93
12/31/2021 6:00:00 AM 5.55 41.99 0.046 6.68 1.36 11.93
12/31/2021 6:15:00 AM 5.56 42.008 0.046 6.68 1.34 11.93
12/31/2021 6:30:00 AM 5.56 42.008 0.046 6.68 1.32 11.93
12/31/2021 6:45:00 AM 5.57 42.026 0.046 6.68 1.28 11.93
12/31/2021 7:00:00 AM 5.57 42.026 0.046 6.69 1.34 11.93
12/31/2021 7:15:00 AM 5.58 42.044 0.046 6.68 1.38 11.93
12/31/2021 7:30:00 AM 5.58 42.044 0.046 6.69 1.37 11.93
12/31/2021 7:45:00 AM 5.58 42.044 0.046 6.69 1.31 11.94
12/31/2021 8:00:00 AM 5.58 42.044 0.046 6.69 1.34 11.96
12/31/2021 8:15:00 AM 5.58 42.044 0.046 6.69 1.38 11.97
12/31/2021 8:30:00 AM 5.58 42.044 0.046 6.7 1.37 12.01
12/31/2021 8:45:00 AM 5.6 42.08 0.046 6.71 1.37 12.08
12/31/2021 9:00:00 AM 5.62 42.116 0.046 6.73 1.3 12.15
12/31/2021 9:15:00 AM 5.67 42.206 0.046 6.76 1.35 12.31
12/31/2021 9:30:00 AM 5.68 42.224 0.046 6.77 1.29 12.32
12/31/2021 9:45:00 AM 5.7 42.26 0.046 6.77 1.28 12.31
12/31/2021 10:00:00 AM 5.73 42.314 0.046 6.79 1.28 12.35
12/31/2021 10:15:00 AM 5.76 42.368 0.046 6.8 1.3 12.4
12/31/2021 10:30:00 AM 5.78 42.404 0.045 6.82 1.33 12.44
12/31/2021 10:45:00 AM 5.84 42.512 0.045 6.84 1.26 12.49
12/31/2021 11:00:00 AM 5.9 42.62 0.045 6.85 1.27 12.5
12/31/2021 11:15:00 AM 5.96 42.728 0.045 6.87 1.32 12.53
12/31/2021 11:30:00 AM 6.04 42.872 0.045 6.89 1.26 12.56
12/31/2021 11:45:00 AM 6.12 43.016 0.045 6.9 1.26 12.56
12/31/2021 12:00:00 PM 6.17 43.106 0.045 6.9 1.26 12.53
12/31/2021 12:15:00 PM 6.24 43.232 0.045 6.92 1.25 12.54
12/31/2021 12:30:00 PM 6.31 43.358 0.045 6.92 1.25 12.53
12/31/2021 12:45:00 PM 6.34 43.412 0.045 6.93 1.26 12.51
12/31/2021 1:00:00 PM 6.41 43.538 0.045 6.93 1.29 12.51
12/31/2021 1:15:00 PM 6.49 43.682 0.045 6.94 1.24 12.48
12/31/2021 1:30:00 PM 6.56 43.808 0.045 6.94 1.29 12.44
12/31/2021 1:45:00 PM 6.58 43.844 0.045 6.93 1.25 12.41
12/31/2021 2:00:00 PM 6.62 43.916 0.045 6.93 1.26 12.4
12/31/2021 2:15:00 PM 6.63 43.934 0.045 6.94 1.24 12.38
12/31/2021 2:30:00 PM 6.65 43.97 0.045 6.94 1.25 12.36
12/31/2021 2:45:00 PM 6.66 43.988 0.045 6.93 1.27 12.32
12/31/2021 3:00:00 PM 6.69 44.042 0.045 6.92 1.52 12.29
12/31/2021 3:15:00 PM 6.69 44.042 0.045 6.92 1.3 12.25
12/31/2021 3:30:00 PM 6.69 44.042 0.045 6.9 1.24 12.21
12/31/2021 3:45:00 PM 6.7 44.06 0.045 6.89 1.28 12.17
12/31/2021 4:00:00 PM 6.7 44.06 0.045 6.87 1.27 12.12
12/31/2021 4:15:00 PM 6.68 44.024 0.045 6.85 1.27 12
12/31/2021 4:30:00 PM 6.67 44.006 0.045 6.82 1.26 11.91
12/31/2021 4:45:00 PM 6.66 43.988 0.045 6.8 1.32 11.83
12/31/2021 5:00:00 PM 6.64 43.952 0.045 6.78 1.28 11.76
12/31/2021 5:15:00 PM 6.63 43.934 0.045 6.76 1.26 11.72
12/31/2021 5:30:00 PM 6.62 43.916 0.045 6.75 1.27 11.68
12/31/2021 5:45:00 PM 6.61 43.898 0.046 6.75 1.27 11.66
12/31/2021 6:00:00 PM 6.6 43.88 0.046 6.73 1.3 11.63
12/31/2021 6:15:00 PM 6.59 43.862 0.046 6.72 1.28 11.63
12/31/2021 6:30:00 PM 6.58 43.844 0.046 6.72 1.29 11.62
12/31/2021 6:45:00 PM 6.57 43.826 0.046 6.72 1.26 11.61
12/31/2021 7:00:00 PM 6.56 43.808 0.046 6.71 1.31 11.61
12/31/2021 7:15:00 PM 6.56 43.808 0.046 6.71 1.29 11.6
12/31/2021 7:30:00 PM 6.55 43.79 0.046 6.71 1.4 11.6
12/31/2021 7:45:00 PM 6.54 43.772 0.046 6.71 1.25 11.61
12/31/2021 8:00:00 PM 6.53 43.754 0.046 6.71 1.32 11.61
12/31/2021 8:15:00 PM 6.53 43.754 0.046 6.71 1.31 11.61
12/31/2021 8:30:00 PM 6.52 43.736 0.046 6.71 1.28 11.61
12/31/2021 8:45:00 PM 6.52 43.736 0.046 6.7 1.27 11.61
12/31/2021 9:00:00 PM 6.51 43.718 0.046 6.7 1.33 11.61
12/31/2021 9:15:00 PM 6.5 43.7 0.046 6.71 1.37 11.62
12/31/2021 9:30:00 PM 6.49 43.682 0.046 6.7 1.31 11.61
12/31/2021 9:45:00 PM 6.49 43.682 0.046 6.7 1.38 11.61
12/31/2021 10:00:00 PM 6.5 43.7 0.046 6.7 1.27 11.61
12/31/2021 10:15:00 PM 6.5 43.7 0.046 6.7 1.38 11.61
12/31/2021 10:30:00 PM 6.5 43.7 0.046 6.7 1.34 11.61
12/31/2021 10:45:00 PM 6.5 43.7 0.046 6.7 1.36 11.61
12/31/2021 11:00:00 PM 6.5 43.7 0.046 6.7 1.3 11.61
12/31/2021 11:15:00 PM 6.5 43.7 0.046 6.7 1.29 11.61
12/31/2021 11:30:00 PM 6.51 43.718 0.047 6.69 1.3 11.6
12/31/2021 11:45:00 PM 6.5 43.7 0.046 6.69 1.33 11.6
1/1/2022 12:00:00 AM 6.5 43.7 0.047 6.7 1.26 11.6
1/1/2022 12:15:00 AM 6.5 43.7 0.047 6.69 1.29 11.6
1/1/2022 12:30:00 AM 6.5 43.7 0.046 6.69 1.38 11.6
1/1/2022 12:45:00 AM 6.49 43.682 0.046 6.69 1.28 11.6
1/1/2022 1:00:00 AM 6.49 43.682 0.046 6.69 1.27 11.61
1/1/2022 1:15:00 AM 6.49 43.682 0.046 6.69 1.31 11.6
1/1/2022 1:30:00 AM 6.48 43.664 0.046 6.68 1.3 11.6
1/1/2022 1:45:00 AM 6.48 43.664 0.046 6.69 1.3 11.6
1/1/2022 2:00:00 AM 6.48 43.664 0.046 6.69 1.33 11.61
1/1/2022 2:15:00 AM 6.48 43.664 0.046 6.69 1.36 11.6
1/1/2022 2:30:00 AM 6.48 43.664 0.046 6.69 1.29 11.6
1/1/2022 2:45:00 AM 6.48 43.664 0.046 6.69 1.29 11.6
1/1/2022 3:00:00 AM 6.49 43.682 0.046 6.69 1.3 11.59
1/1/2022 3:15:00 AM 6.48 43.664 0.046 6.69 1.28 11.59
1/1/2022 3:30:00 AM 6.48 43.664 0.046 6.69 1.29 11.59
1/1/2022 3:45:00 AM 6.49 43.682 0.046 6.68 1.29 11.58
1/1/2022 4:00:00 AM 6.49 43.682 0.046 6.69 1.28 11.59
1/1/2022 4:15:00 AM 6.49 43.682 0.046 6.68 1.28 11.59
1/1/2022 4:30:00 AM 6.49 43.682 0.046 6.69 1.29 11.58
1/1/2022 4:45:00 AM 6.49 43.682 0.046 6.68 1.27 11.58
1/1/2022 5:00:00 AM 6.49 43.682 0.046 6.68 1.31 11.58
1/1/2022 5:15:00 AM 6.5 43.7 0.046 6.69 1.3 11.58
1/1/2022 5:30:00 AM 6.5 43.7 0.046 6.68 1.27 11.58
1/1/2022 5:45:00 AM 6.51 43.718 0.046 6.68 1.27 11.57
1/1/2022 6:00:00 AM 6.51 43.718 0.046 6.68 1.33 11.57
1/1/2022 6:15:00 AM 6.52 43.736 0.046 6.68 1.34 11.57
1/1/2022 6:30:00 AM 6.52 43.736 0.046 6.67 1.33 11.57
1/1/2022 6:45:00 AM 6.52 43.736 0.046 6.68 1.36 11.57
1/1/2022 7:00:00 AM 6.52 43.736 0.046 6.68 1.27 11.57
1/1/2022 7:15:00 AM 6.53 43.754 0.046 6.67 1.26 11.57
1/1/2022 7:30:00 AM 6.53 43.754 0.046 6.67 1.3 11.57
1/1/2022 7:45:00 AM 6.54 43.772 0.046 6.67 1.38 11.57
1/1/2022 8:00:00 AM 6.54 43.772 0.046 6.67 1.34 11.58
1/1/2022 8:15:00 AM 6.54 43.772 0.046 6.68 1.43 11.6
1/1/2022 8:30:00 AM 6.55 43.79 0.046 6.68 1.26 11.62
1/1/2022 8:45:00 AM 6.56 43.808 0.046 6.68 1.32 11.64
1/1/2022 9:00:00 AM 6.57 43.826 0.046 6.69 1.31 11.65
1/1/2022 9:15:00 AM 6.58 43.844 0.046 6.69 1.24 11.68
1/1/2022 9:30:00 AM 6.59 43.862 0.046 6.71 1.35 11.72
1/1/2022 9:45:00 AM 6.61 43.898 0.046 6.72 1.27 11.77
1/1/2022 10:00:00 AM 6.63 43.934 0.046 6.73 1.28 11.81
1/1/2022 10:15:00 AM 6.65 43.97 0.045 6.74 1.25 11.83
1/1/2022 10:30:00 AM 6.67 44.006 0.045 6.75 1.25 11.85
1/1/2022 10:45:00 AM 6.69 44.042 0.045 6.75 1.2 11.83
1/1/2022 11:00:00 AM 6.72 44.096 0.045 6.76 1.22 11.83
1/1/2022 11:15:00 AM 6.76 44.168 0.045 6.77 1.26 11.88
1/1/2022 11:30:00 AM 6.78 44.204 0.045 6.78 1.32 11.91
1/1/2022 11:45:00 AM 6.82 44.276 0.045 6.8 1.25 11.97
1/1/2022 12:00:00 PM 6.87 44.366 0.045 6.82 1.22 12.03
1/1/2022 12:15:00 PM 6.9 44.42 0.045 6.83 1.18 12.04
1/1/2022 12:30:00 PM 6.92 44.456 0.045 6.84 1.24 12.05
1/1/2022 12:45:00 PM 6.94 44.492 0.045 6.84 1.25 12.05
1/1/2022 1:00:00 PM 6.95 44.51 0.045 6.85 1.21 12.08
1/1/2022 1:15:00 PM 6.99 44.582 0.045 6.86 1.21 12.11
1/1/2022 1:30:00 PM 7.03 44.654 0.045 6.88 1.2 12.16
1/1/2022 1:45:00 PM 7.07 44.726 0.045 6.9 1.2 12.16
1/1/2022 2:00:00 PM 7.12 44.816 0.045 6.9 1.21 12.17
1/1/2022 2:15:00 PM 7.15 44.87 0.045 6.91 1.18 12.16
1/1/2022 2:30:00 PM 7.18 44.924 0.045 6.92 1.2 12.14
1/1/2022 2:45:00 PM 7.2 44.96 0.045 6.91 1.22 12.09
1/1/2022 3:00:00 PM 7.21 44.978 0.045 6.9 1.22 12.02
1/1/2022 3:15:00 PM 7.22 44.996 0.045 6.88 1.26 11.95
1/1/2022 3:30:00 PM 7.23 45.014 0.045 6.87 1.2 11.9
1/1/2022 3:45:00 PM 7.23 45.014 0.045 6.85 1.21 11.83
1/1/2022 4:00:00 PM 7.23 45.014 0.045 6.83 1.21 11.75
1/1/2022 4:15:00 PM 7.23 45.014 0.045 6.81 1.23 11.67
1/1/2022 4:30:00 PM 7.23 45.014 0.045 6.78 1.27 11.59
1/1/2022 4:45:00 PM 7.22 44.996 0.045 6.76 1.21 11.52
1/1/2022 5:00:00 PM 7.22 44.996 0.045 6.74 1.24 11.46
1/1/2022 5:15:00 PM 7.21 44.978 0.045 6.73 1.22 11.43
1/1/2022 5:30:00 PM 7.2 44.96 0.046 6.72 1.26 11.41
1/1/2022 5:45:00 PM 7.19 44.942 0.046 6.71 1.3 11.39
1/1/2022 6:00:00 PM 7.18 44.924 0.046 6.7 1.33 11.37
1/1/2022 6:15:00 PM 7.17 44.906 0.046 6.7 1.29 11.37
1/1/2022 6:30:00 PM 7.17 44.906 0.046 6.69 1.31 11.35
1/1/2022 6:45:00 PM 7.16 44.888 0.046 6.69 1.3 11.35
1/1/2022 7:00:00 PM 7.16 44.888 0.046 6.68 1.25 11.34
1/1/2022 7:15:00 PM 7.16 44.888 0.046 6.68 1.27 11.34
1/1/2022 7:30:00 PM 7.17 44.906 0.046 6.67 1.31 11.33
1/1/2022 7:45:00 PM 7.17 44.906 0.046 6.67 1.31 11.34
1/1/2022 8:00:00 PM 7.17 44.906 0.046 6.67 1.31 11.34
1/1/2022 8:15:00 PM 7.17 44.906 0.046 6.67 1.34 11.32
1/1/2022 8:30:00 PM 7.18 44.924 0.046 6.67 1.31 11.33
1/1/2022 8:45:00 PM 7.18 44.924 0.046 6.67 1.37 11.32
1/1/2022 9:00:00 PM 7.18 44.924 0.046 6.67 1.47 11.33
1/1/2022 9:15:00 PM 7.18 44.924 0.046 6.67 1.49 11.32
1/1/2022 9:30:00 PM 7.18 44.924 0.047 6.67 1.67 11.32
1/1/2022 9:45:00 PM 7.18 44.924 0.047 6.67 1.66 11.31
1/1/2022 10:00:00 PM 7.17 44.906 0.047 6.68 1.61 11.31
1/1/2022 10:15:00 PM 7.17 44.906 0.047 6.68 1.74 11.31
1/1/2022 10:30:00 PM 7.17 44.906 0.048 6.68 1.67 11.32
1/1/2022 10:45:00 PM 7.16 44.888 0.048 6.68 1.74 11.31
1/1/2022 11:00:00 PM 7.15 44.87 0.048 6.69 1.75 11.31
1/1/2022 11:15:00 PM 7.15 44.87 0.049 6.71 1.83 11.32
1/1/2022 11:30:00 PM 7.15 44.87 0.05 6.71 1.97 11.32
1/1/2022 11:45:00 PM 7.15 44.87 0.05 6.72 2.21 11.31
1/2/2022 12:00:00 AM 7.15 44.87 0.051 6.74 2.4 11.32
1/2/2022 12:15:00 AM 7.16 44.888 0.052 6.76 2.75 11.33
1/2/2022 12:30:00 AM 7.16 44.888 0.052 6.76 3 11.33
1/2/2022 12:45:00 AM 7.16 44.888 0.053 6.76 3.29 11.33
1/2/2022 1:00:00 AM 7.17 44.906 0.052 6.76 3.12 11.33
1/2/2022 1:15:00 AM 7.17 44.906 0.052 6.76 2.81 11.34
1/2/2022 1:30:00 AM 7.17 44.906 0.052 6.76 2.76 11.34
1/2/2022 1:45:00 AM 7.17 44.906 0.052 6.76 2.54 11.34
1/2/2022 2:00:00 AM 7.17 44.906 0.052 6.77 2.51 11.34
1/2/2022 2:15:00 AM 7.16 44.888 0.052 6.76 2.63 11.33
1/2/2022 2:30:00 AM 7.15 44.87 0.052 6.78 2.47 11.35
1/2/2022 2:45:00 AM 7.14 44.852 0.052 6.77 2.5 11.35
1/2/2022 3:00:00 AM 7.13 44.834 0.052 6.77 2.48 11.34
1/2/2022 3:15:00 AM 7.11 44.798 0.052 6.77 2.56 11.34
1/2/2022 3:30:00 AM 7.1 44.78 0.052 6.77 2.58 11.36
1/2/2022 3:45:00 AM 7.08 44.744 0.052 6.77 2.7 11.36
1/2/2022 4:00:00 AM 7.06 44.708 0.052 6.77 2.79 11.37
1/2/2022 4:15:00 AM 7.05 44.69 0.052 6.77 2.77 11.38
1/2/2022 4:30:00 AM 7.03 44.654 0.052 6.77 3.01 11.39
1/2/2022 4:45:00 AM 7.01 44.618 0.052 6.78 2.94 11.39
1/2/2022 5:00:00 AM 6.99 44.582 0.051 6.77 3.1 11.39
1/2/2022 5:15:00 AM 6.97 44.546 0.051 6.77 2.97 11.41
1/2/2022 5:30:00 AM 6.95 44.51 0.051 6.77 2.87 11.41
1/2/2022 5:45:00 AM 6.93 44.474 0.051 6.77 2.65 11.41
1/2/2022 6:00:00 AM 6.91 44.438 0.05 6.76 2.66 11.42
1/2/2022 6:15:00 AM 6.89 44.402 0.05 6.77 2.36 11.43
1/2/2022 6:30:00 AM 6.87 44.366 0.05 6.76 2.33 11.43
1/2/2022 6:45:00 AM 6.84 44.312 0.05 6.76 2.19 11.44
1/2/2022 7:00:00 AM 6.83 44.294 0.05 6.76 2.17 11.44
1/2/2022 7:15:00 AM 6.8 44.24 0.049 6.75 2.07 11.46
1/2/2022 7:30:00 AM 6.78 44.204 0.049 6.76 2.1 11.46
1/2/2022 7:45:00 AM 6.75 44.15 0.049 6.76 2.06 11.48
1/2/2022 8:00:00 AM 6.72 44.096 0.049 6.76 1.98 11.5
1/2/2022 8:15:00 AM 6.7 44.06 0.049 6.76 2.11 11.55
1/2/2022 8:30:00 AM 6.67 44.006 0.048 6.77 2 11.59
1/2/2022 8:45:00 AM 6.65 43.97 0.048 6.77 1.99 11.62
1/2/2022 9:00:00 AM 6.62 43.916 0.048 6.77 2.16 11.65
1/2/2022 9:15:00 AM 6.6 43.88 0.048 6.77 1.96 11.67
1/2/2022 9:30:00 AM 6.57 43.826 0.048 6.78 1.98 11.69
1/2/2022 9:45:00 AM 6.54 43.772 0.047 6.79 1.96 11.74
1/2/2022 10:00:00 AM 6.52 43.736 0.047 6.8 1.93 11.82
1/2/2022 10:15:00 AM 6.51 43.718 0.047 6.81 1.97 11.88
1/2/2022 10:30:00 AM 6.49 43.682 0.047 6.82 1.92 11.94
1/2/2022 10:45:00 AM 6.5 43.7 0.046 6.85 1.86 12.02
1/2/2022 11:00:00 AM 6.49 43.682 0.046 6.87 1.88 12.08
1/2/2022 11:15:00 AM 6.49 43.682 0.046 6.87 1.91 12.08
1/2/2022 11:30:00 AM 6.47 43.646 0.046 6.88 1.89 12.11
1/2/2022 11:45:00 AM 6.45 43.61 0.046 6.88 1.79 12.11
1/2/2022 12:00:00 PM 6.44 43.592 0.046 6.88 1.79 12.12
1/2/2022 12:15:00 PM 6.43 43.574 0.045 6.89 1.82 12.15
1/2/2022 12:30:00 PM 6.43 43.574 0.045 6.9 1.82 12.18
1/2/2022 12:45:00 PM 6.42 43.556 0.045 6.91 1.79 12.2
1/2/2022 1:00:00 PM 6.41 43.538 0.045 6.92 1.78 12.24
1/2/2022 1:15:00 PM 6.4 43.52 0.045 6.91 1.78 12.22
1/2/2022 1:30:00 PM 6.37 43.466 0.045 6.91 1.73 12.21
1/2/2022 1:45:00 PM 6.36 43.448 0.045 6.91 1.76 12.21
1/2/2022 2:00:00 PM 6.32 43.376 0.045 6.91 1.79 12.21
1/2/2022 2:15:00 PM 6.29 43.322 0.044 6.9 1.75 12.2
1/2/2022 2:30:00 PM 6.25 43.25 0.044 6.88 1.76 12.17
1/2/2022 2:45:00 PM 6.21 43.178 0.044 6.89 1.76 12.18
1/2/2022 3:00:00 PM 6.17 43.106 0.044 6.87 1.79 12.14
1/2/2022 3:15:00 PM 6.12 43.016 0.044 6.86 1.74 12.12
1/2/2022 3:30:00 PM 6.07 42.926 0.044 6.85 1.79 12.1
1/2/2022 3:45:00 PM 6.02 42.836 0.044 6.83 1.83 12.07
1/2/2022 4:00:00 PM 5.97 42.746 0.045 6.81 1.72 12.03
1/2/2022 4:15:00 PM 5.92 42.656 0.045 6.8 1.96 12.01
1/2/2022 4:30:00 PM 5.86 42.548 0.045 6.79 1.74 12
1/2/2022 4:45:00 PM 5.79 42.422 0.045 6.78 1.76 11.99
1/2/2022 5:00:00 PM 5.73 42.314 0.045 6.76 1.78 11.98
1/2/2022 5:15:00 PM 5.67 42.206 0.045 6.76 1.69 11.96
1/2/2022 5:30:00 PM 5.63 42.134 0.045 6.75 1.79 11.95
1/2/2022 5:45:00 PM 5.57 42.026 0.045 6.74 1.72 11.97
1/2/2022 6:00:00 PM 5.53 41.954 0.045 6.73 1.79 11.98
1/2/2022 6:15:00 PM 5.48 41.864 0.045 6.73 1.72 11.99
1/2/2022 6:30:00 PM 5.42 41.756 0.045 6.72 1.75 12.01
1/2/2022 6:45:00 PM 5.36 41.648 0.045 6.73 1.72 12.03
1/2/2022 7:00:00 PM 5.29 41.522 0.045 6.73 1.84 12.04
1/2/2022 7:15:00 PM 5.23 41.414 0.045 6.71 1.71 12.07
1/2/2022 7:30:00 PM 5.18 41.324 0.045 6.72 1.7 12.09
1/2/2022 7:45:00 PM 5.14 41.252 0.045 6.72 1.74 12.1
1/2/2022 8:00:00 PM 5.06 41.108 0.045 6.71 1.72 12.13
1/2/2022 8:15:00 PM 4.99 40.982 0.045 6.72 1.73 12.15
1/2/2022 8:30:00 PM 4.93 40.874 0.045 6.71 1.75 12.17
1/2/2022 8:45:00 PM 4.86 40.748 0.045 6.72 1.69 12.2
1/2/2022 9:00:00 PM 4.8 40.64 0.045 6.71 1.7 12.22
1/2/2022 9:15:00 PM 4.74 40.532 0.045 6.71 1.69 12.24
1/2/2022 9:30:00 PM 4.68 40.424 0.045 6.71 1.63 12.26
1/2/2022 9:45:00 PM 4.63 40.334 0.045 6.7 1.69 12.28
1/2/2022 10:00:00 PM 4.55 40.19 0.045 6.71 1.7 12.31
1/2/2022 10:15:00 PM 4.47 40.046 0.045 6.71 1.72 12.33
1/2/2022 10:30:00 PM 4.4 39.92 0.045 6.71 1.64 12.35
1/2/2022 10:45:00 PM 4.35 39.83 0.045 6.7 1.67 12.37
1/2/2022 11:00:00 PM 4.28 39.704 0.045 6.7 1.87 12.4
1/2/2022 11:15:00 PM 4.23 39.614 0.045 6.7 1.66 12.42
1/2/2022 11:30:00 PM 4.2 39.56 0.045 6.71 1.67 12.43
1/2/2022 11:45:00 PM 4.17 39.506 0.045 6.7 1.65 12.44
1/3/2022 12:00:00 AM 4.13 39.434 0.045 6.7 1.72 12.45
1/3/2022 12:15:00 AM 4.09 39.362 0.045 6.7 1.68 12.47
1/3/2022 12:30:00 AM 4.06 39.308 0.045 6.7 1.67 12.48
1/3/2022 12:45:00 AM 4.03 39.254 0.045 6.7 1.66 12.5
1/3/2022 1:00:00 AM 3.99 39.182 0.045 6.7 1.7 12.52
1/3/2022 1:15:00 AM 3.95 39.11 0.045 6.69 1.63 12.53
1/3/2022 1:30:00 AM 3.91 39.038 0.045 6.7 1.65 12.55
1/3/2022 1:45:00 AM 3.87 38.966 0.045 6.7 1.63 12.57
1/3/2022 2:00:00 AM 3.83 38.894 0.045 6.69 1.64 12.59
1/3/2022 2:15:00 AM 3.77 38.786 0.044 6.69 1.65 12.61
1/3/2022 2:30:00 AM 3.72 38.696 0.045 6.69 1.67 12.63
1/3/2022 2:45:00 AM 3.68 38.624 0.044 6.69 1.63 12.64
1/3/2022 3:00:00 AM 3.64 38.552 0.044 6.69 1.62 12.66
1/3/2022 3:15:00 AM 3.59 38.462 0.044 6.69 1.64 12.67
1/3/2022 3:30:00 AM 3.54 38.372 0.044 6.69 1.63 12.69
1/3/2022 3:45:00 AM 3.48 38.264 0.045 6.69 1.64 12.7
1/3/2022 4:00:00 AM 3.42 38.156 0.044 6.69 1.63 12.73
1/3/2022 4:15:00 AM 3.37 38.066 0.044 6.69 1.67 12.74
1/3/2022 4:30:00 AM 3.34 38.012 0.044 6.69 1.61 12.75
1/3/2022 4:45:00 AM 3.28 37.904 0.044 6.69 1.63 12.78
1/3/2022 5:00:00 AM 3.22 37.796 0.044 6.69 1.59 12.8
1/3/2022 5:15:00 AM 3.16 37.688 0.044 6.69 1.64 12.82
1/3/2022 5:30:00 AM 3.1 37.58 0.044 6.68 1.64 12.84
1/3/2022 5:45:00 AM 3.04 37.472 0.044 6.69 1.62 12.86
1/3/2022 6:00:00 AM 3.01 37.418 0.044 6.68 1.64 12.87
1/3/2022 6:15:00 AM 2.94 37.292 0.044 6.68 1.59 12.89
1/3/2022 6:30:00 AM 2.88 37.184 0.044 6.69 1.69 12.91
1/3/2022 6:45:00 AM 2.84 37.112 0.044 6.68 1.62 12.93
1/3/2022 7:00:00 AM 2.77 36.986 0.044 6.68 1.58 12.95
1/3/2022 7:15:00 AM 2.73 36.914 0.044 6.67 1.58 12.96
1/3/2022 7:30:00 AM 2.68 36.824 0.044 6.68 1.63 12.98
1/3/2022 7:45:00 AM 2.63 36.734 0.044 6.68 1.63 13.01
1/3/2022 8:00:00 AM 2.58 36.644 0.044 6.69 1.67 13.05
1/3/2022 8:15:00 AM 2.55 36.59 0.044 6.69 1.62 13.08
1/3/2022 8:30:00 AM 2.52 36.536 0.044 6.69 1.63 13.13
1/3/2022 8:45:00 AM 2.49 36.482 0.044 6.71 1.6 13.2
1/3/2022 9:00:00 AM 2.45 36.41 0.044 6.72 1.63 13.27
1/3/2022 9:15:00 AM 2.43 36.374 0.044 6.73 1.56 13.31
1/3/2022 9:30:00 AM 2.41 36.338 0.044 6.74 1.71 13.37
1/3/2022 9:45:00 AM 2.38 36.284 0.044 6.75 1.62 13.43
1/3/2022 10:00:00 AM 2.36 36.248 0.044 6.76 1.6 13.48
1/3/2022 10:15:00 AM 2.34 36.212 0.044 6.77 1.58 13.53
1/3/2022 10:30:00 AM 2.31 36.158 0.044 6.78 1.59 13.56
1/3/2022 10:45:00 AM 2.29 36.122 0.044 6.79 1.53 13.6
1/3/2022 11:00:00 AM 2.28 36.104 0.044 6.8 1.54 13.64
1/3/2022 11:15:00 AM 2.28 36.104 0.044 6.81 1.56 13.67
1/3/2022 11:30:00 AM 2.27 36.086 0.043 6.81 1.52 13.68
1/3/2022 11:45:00 AM 2.27 36.086 0.043 6.82 1.56 13.7
1/3/2022 12:00:00 PM 2.28 36.104 0.043 6.82 1.55 13.71
1/3/2022 12:15:00 PM 2.29 36.122 0.043 6.83 1.56 13.73
1/3/2022 12:30:00 PM 2.29 36.122 0.043 6.83 1.54 13.73
1/3/2022 12:45:00 PM 2.3 36.14 0.043 6.84 1.58 13.73
1/3/2022 1:00:00 PM 2.3 36.14 0.043 6.84 1.54 13.73
1/3/2022 1:15:00 PM 2.3 36.14 0.043 6.85 1.59 13.73
1/3/2022 1:30:00 PM 2.31 36.158 0.043 6.85 1.52 13.72
1/3/2022 1:45:00 PM 2.31 36.158 0.043 6.85 1.5 13.73
1/3/2022 2:00:00 PM 2.32 36.176 0.043 6.84 1.7 13.71
1/3/2022 2:15:00 PM 2.31 36.158 0.043 6.85 1.56 13.73
1/3/2022 2:30:00 PM 2.3 36.14 0.043 6.85 1.57 13.72
1/3/2022 2:45:00 PM 2.29 36.122 0.043 6.86 1.52 13.74
1/3/2022 3:00:00 PM 2.28 36.104 0.043 6.85 1.55 13.71
1/3/2022 3:15:00 PM 2.27 36.086 0.043 6.85 1.55 13.72
1/3/2022 3:30:00 PM 2.23 36.014 0.043 6.85 1.5 13.71
1/3/2022 3:45:00 PM 2.2 35.96 0.043 6.84 1.55 13.7
1/3/2022 4:00:00 PM 2.18 35.924 0.044 6.84 1.57 13.68
1/3/2022 4:15:00 PM 2.13 35.834 0.044 6.83 1.52 13.65
1/3/2022 4:30:00 PM 2.07 35.726 0.044 6.81 1.53 13.6
1/3/2022 4:45:00 PM 2 35.6 0.044 6.79 1.55 13.55
1/3/2022 5:00:00 PM 1.92 35.456 0.044 6.78 1.56 13.49
1/3/2022 5:15:00 PM 1.87 35.366 0.044 6.76 1.57 13.45
1/3/2022 5:30:00 PM 1.81 35.258 0.044 6.75 1.54 13.42
1/3/2022 5:45:00 PM 1.75 35.15 0.044 6.73 1.55 13.41
1/3/2022 6:00:00 PM 1.68 35.024 0.044 6.68 1.53 13.42
1/3/2022 6:15:00 PM 1.6 34.88 0.044 6.67 1.55 13.43
1/3/2022 6:30:00 PM 1.53 34.754 0.045 6.67 1.57 13.44
1/3/2022 6:45:00 PM 1.46 34.628 0.045 6.66 1.55 13.46
1/3/2022 7:00:00 PM 1.37 34.466 0.045 6.65 1.59 13.49
1/3/2022 7:15:00 PM 1.31 34.358 0.045 6.65 1.6 13.51
1/3/2022 7:30:00 PM 1.23 34.214 0.045 6.64 1.59 13.53
1/3/2022 7:45:00 PM 1.18 34.124 0.045 6.63 1.62 13.56
1/3/2022 8:00:00 PM 1.11 33.998 0.045 6.63 1.57 13.58
1/3/2022 8:15:00 PM 1.07 33.926 0.045 6.63 1.58 13.6
1/3/2022 8:30:00 PM 1.03 33.854 0.045 6.63 1.58 13.62
1/3/2022 8:45:00 PM 0.98 33.764 0.045 6.63 1.58 13.63
1/3/2022 9:00:00 PM 0.94 33.692 0.045 6.63 1.56 13.65
1/3/2022 9:15:00 PM 0.9 33.62 0.045 6.63 1.56 13.68
1/3/2022 9:30:00 PM 0.86 33.548 0.045 6.63 1.56 13.69
1/3/2022 9:45:00 PM 0.81 33.458 0.045 6.63 1.64 13.72
1/3/2022 10:00:00 PM 0.75 33.35 0.045 6.63 1.58 13.74
1/3/2022 10:15:00 PM 0.7 33.26 0.045 6.63 1.55 13.76
1/3/2022 10:30:00 PM 0.65 33.17 0.045 6.63 1.89 13.78
1/3/2022 10:45:00 PM 0.62 33.116 0.045 6.64 1.58 13.8
1/3/2022 11:00:00 PM 0.6 33.08 0.045 6.64 1.58 13.81
1/3/2022 11:15:00 PM 0.54 32.972 0.045 6.64 1.59 13.83
1/3/2022 11:30:00 PM 0.51 32.918 0.045 6.65 1.57 13.85
1/3/2022 11:45:00 PM 0.47 32.846 0.045 6.64 1.55 13.87
1/4/2022 12:00:00 AM 0.43 32.774 0.045 6.64 1.58 13.88
1/4/2022 12:15:00 AM 0.4 32.72 0.045 6.64 1.62 13.9
1/4/2022 12:30:00 AM 0.36 32.648 0.045 6.64 1.58 13.92
1/4/2022 12:45:00 AM 0.32 32.576 0.045 6.65 1.6 13.94
1/4/2022 1:00:00 AM 0.3 32.54 0.045 6.65 1.64 13.95
1/4/2022 1:15:00 AM 0.28 32.504 0.045 6.65 1.57 13.96
1/4/2022 1:30:00 AM 0.25 32.45 0.045 6.65 1.58 13.98
1/4/2022 1:45:00 AM 0.23 32.414 0.045 6.65 1.57 13.98
1/4/2022 2:00:00 AM 0.22 32.396 0.045 6.65 1.57 14
1/4/2022 2:15:00 AM 0.21 32.378 0.045 6.66 1.58 14
1/4/2022 2:30:00 AM 0.21 32.378 0.045 6.66 1.55 14.01
1/4/2022 2:45:00 AM 0.2 32.36 0.045 6.66 1.59 14
1/4/2022 3:00:00 AM 0.2 32.36 0.045 6.67 1.55 14.01
1/4/2022 3:15:00 AM 0.2 32.36 0.045 6.67 1.62 14.01
1/4/2022 3:30:00 AM 0.2 32.36 0.045 6.67 1.53 14.01
1/4/2022 3:45:00 AM 0.19 32.342 0.045 6.67 1.58 14.01
1/4/2022 4:00:00 AM 0.19 32.342 0.045 6.67 1.6 14.01
1/4/2022 4:15:00 AM 0.19 32.342 0.045 6.67 1.56 14.01
1/4/2022 4:30:00 AM 0.19 32.342 0.046 6.67 1.58 14
1/4/2022 4:45:00 AM 0.19 32.342 0.046 6.67 1.58 14
1/4/2022 5:00:00 AM 0.18 32.324 0.046 6.67 1.55 14
1/4/2022 5:15:00 AM 0.18 32.324 0.046 6.67 1.57 14
1/4/2022 5:30:00 AM 0.19 32.342 0.046 6.68 1.69 14
1/4/2022 5:45:00 AM 0.22 32.396 0.046 6.68 1.6 13.99
1/4/2022 6:00:00 AM 0.21 32.378 0.046 6.68 1.57 13.99
1/4/2022 6:15:00 AM 0.22 32.396 0.047 6.67 1.57 13.97
1/4/2022 6:30:00 AM 0.22 32.396 0.047 6.68 1.54 13.98
1/4/2022 6:45:00 AM 0.22 32.396 0.047 6.68 1.58 13.97
1/4/2022 7:00:00 AM 0.21 32.378 0.047 6.68 1.58 13.98
1/4/2022 7:15:00 AM 0.21 32.378 0.047 6.68 1.56 13.97
1/4/2022 7:30:00 AM 0.2 32.36 0.047 6.68 1.54 13.99
1/4/2022 7:45:00 AM 0.2 32.36 0.047 6.69 1.59 14.01
1/4/2022 8:00:00 AM 0.21 32.378 0.048 6.7 1.55 14.05
1/4/2022 8:15:00 AM 0.22 32.396 0.048 6.71 1.57 14.11
1/4/2022 8:30:00 AM 0.24 32.432 0.048 6.72 1.6 14.16
1/4/2022 8:45:00 AM 0.25 32.45 0.048 6.73 1.55 14.21
1/4/2022 9:00:00 AM 0.27 32.486 0.048 6.74 1.56 14.26
1/4/2022 9:15:00 AM 0.3 32.54 0.048 6.75 1.56 14.29
1/4/2022 9